Provisional Data: Apalachin Creek near Apalachin, NY


Please select a monitoring station.
Please select start date.
Please select start date.

Toggle Unit: C/F Toggle Unit: C/F
Sample Time Temperature (C) Temperature (F) Specific Conductivity (mS/cm) pH   Turbidity (NTU+) DO (mg/L)
6/29/2021 12:00:00 AM 20.25 68.45 0.233 6.82 10.11 5.46
6/29/2021 12:15:00 AM 20.23 68.414 0.233 6.82 10.45 5.44
6/29/2021 12:30:00 AM 20.2 68.36 0.234 6.82 9.32 5.44
6/29/2021 12:45:00 AM 20.18 68.324 0.234 6.82 12.25 5.42
6/29/2021 1:00:00 AM 20.15 68.27 0.233 6.82 10.71 5.41
6/29/2021 1:15:00 AM 20.13 68.234 0.233 6.82 9.65 5.41
6/29/2021 1:30:00 AM 20.11 68.198 0.234 6.82 9.51 5.39
6/29/2021 1:45:00 AM 20.1 68.18 0.234 6.82 8.94 5.39
6/29/2021 2:00:00 AM 20.07 68.126 0.234 6.82 8.56 5.38
6/29/2021 2:15:00 AM 20.06 68.108 0.233 6.82 10.63 5.38
6/29/2021 2:30:00 AM 20.04 68.07201 0.233 6.82 9.97 5.37
6/29/2021 2:45:00 AM 20.02 68.036 0.234 6.82 8.83 5.36
6/29/2021 3:00:00 AM 20.01 68.018 0.234 6.82 8.61 5.36
6/29/2021 3:15:00 AM 19.98 67.964 0.234 6.82 9.3 5.36
6/29/2021 3:30:00 AM 19.96 67.92799 0.234 6.82 8.84 5.37
6/29/2021 3:45:00 AM 19.95 67.91 0.234 6.82 8.51 5.35
6/29/2021 4:00:00 AM 19.93 67.874 0.234 6.82 8.65 5.35
6/29/2021 4:15:00 AM 19.92 67.856 0.234 6.82 8.63 5.35
6/29/2021 4:30:00 AM 19.9 67.82 0.234 6.82 9.1 5.33
6/29/2021 4:45:00 AM 19.89 67.802 0.234 6.82 8.35 5.32
6/29/2021 5:00:00 AM 19.87 67.766 0.234 6.82 7.58 5.32
6/29/2021 5:15:00 AM 19.85 67.73 0.235 6.82 8.13 5.34
6/29/2021 5:30:00 AM 19.84 67.712 0.235 6.82 6.74 5.31
6/29/2021 5:45:00 AM 19.83 67.694 0.235 6.82 6.93 5.32
6/29/2021 6:00:00 AM 19.81 67.658 0.235 6.82 6.12 5.32
6/29/2021 6:15:00 AM 19.8 67.64 0.235 6.82 6.74 5.32
6/29/2021 6:30:00 AM 19.79 67.622 0.235 6.82 6.02 5.31
6/29/2021 6:45:00 AM 19.79 67.622 0.235 6.82 6.08 5.34
6/29/2021 7:00:00 AM 19.79 67.622 0.235 6.82 4.58 5.35
6/29/2021 7:15:00 AM 19.79 67.622 0.236 6.83 4.49 5.4
6/29/2021 7:30:00 AM 19.81 67.658 0.235 6.83 5.04 5.4
6/29/2021 7:45:00 AM 19.83 67.694 0.235 6.83 4.13 5.41
6/29/2021 8:00:00 AM 19.87 67.766 0.235 6.83 4.44 5.47
6/29/2021 8:15:00 AM 19.92 67.856 0.236 6.84 4.01 5.55
6/29/2021 8:30:00 AM 19.99 67.982 0.236 6.84 3.97 5.61
6/29/2021 8:45:00 AM 20.08 68.144 0.236 6.84 3.97 5.67
6/29/2021 9:00:00 AM 20.21 68.378 0.236 6.85 3.72 5.74
6/29/2021 9:15:00 AM 20.33 68.594 0.236 6.85 3.65 5.78
6/29/2021 9:30:00 AM 20.49 68.882 0.237 6.85 3.31 5.83
6/29/2021 9:45:00 AM 20.66 69.188 0.237 6.86 3.92 5.85
6/29/2021 10:00:00 AM 20.81 69.458 0.237 6.86 4.24 5.87
6/29/2021 10:15:00 AM 20.96 69.728 0.237 6.86 4.51 5.91
6/29/2021 10:30:00 AM 21.13 70.034 0.237 6.87 3.65 5.94
6/29/2021 10:45:00 AM 21.29 70.32201 0.238 6.87 4.61 5.95
6/29/2021 11:00:00 AM 21.45 70.61 0.238 6.87 4.12 5.95
6/29/2021 11:15:00 AM 21.64 70.952 0.239 6.88 4.79 5.99
6/29/2021 11:30:00 AM 21.82 71.276 0.239 6.88 4.3 6.01
6/29/2021 11:45:00 AM 21.95 71.51 0.238 6.88 4.72 5.99
6/29/2021 12:00:00 PM 22.09 71.762 0.248 6.88 5.39 5.98
6/29/2021 12:15:00 PM 22.19 71.942 0.251 6.88 4.5 6.02
6/29/2021 12:30:00 PM 22.38 72.284 0.25 6.89 4.27 6.04
6/29/2021 12:45:00 PM 22.52 72.536 0.249 6.89 3.99 6.06
6/29/2021 1:00:00 PM 22.65 72.77 0.249 6.89 3.84 6.11
6/29/2021 1:15:00 PM 22.82 73.076 0.249 6.89 3.97 6.12
6/29/2021 1:30:00 PM 22.86 73.148 0.248 6.9 3.74 6.12
6/29/2021 1:45:00 PM 22.94 73.292 0.249 6.9 3.84 6.12
6/29/2021 2:00:00 PM 22.98 73.364 0.247 6.89 3.68 6.11
6/29/2021 2:15:00 PM 23.05 73.49 0.246 6.89 4.53 6.17
6/29/2021 2:30:00 PM 23.16 73.688 0.247 6.89 4.96 6.2
6/29/2021 2:45:00 PM 23.28 73.904 0.247 6.89 5.72 6.2
6/29/2021 3:00:00 PM 23.34 74.012 0.247 6.89 5.85 6.25
6/29/2021 3:15:00 PM 23.44 74.192 0.246 6.89 5.34 6.22
6/29/2021 3:30:00 PM 23.46 74.228 0.246 6.9 6.22 6.26
6/29/2021 3:45:00 PM 23.47 74.246 0.246 6.9 6.39 6.19
6/29/2021 4:00:00 PM 23.46 74.228 0.246 6.9 5.87 6.16
6/29/2021 4:15:00 PM 23.45 74.21 0.246 6.89 5.18 6.11
6/29/2021 4:30:00 PM 23.38 74.084 0.246 6.9 5.37 6.07
6/29/2021 4:45:00 PM 23.24 73.832 0.245 6.89 13.29 5.98
6/29/2021 5:00:00 PM 23.08 73.544 0.243 6.89 29.77 5.89
6/29/2021 5:15:00 PM 22.92 73.256 0.242 6.88 102.07 5.77
6/29/2021 5:30:00 PM 22.75 72.95 0.241 6.88 111.85 5.75
6/29/2021 5:45:00 PM 22.59 72.662 0.241 6.88 103.76 5.79
6/29/2021 6:00:00 PM 22.46 72.42799 0.241 6.89 87.72 5.8
6/29/2021 6:15:00 PM 22.36 72.248 0.24 6.89 62.39 5.77
6/29/2021 6:30:00 PM 22.29 72.122 0.24 6.88 45.56 5.74
6/29/2021 6:45:00 PM 22.18 71.924 0.24 6.88 30.22 5.73
6/29/2021 7:00:00 PM 22.08 71.744 0.239 6.88 20.54 5.76
6/29/2021 7:15:00 PM 21.93 71.474 0.239 6.88 16.92 5.76
6/29/2021 7:30:00 PM 21.77 71.186 0.238 6.88 14.52 5.78
6/29/2021 7:45:00 PM 21.66 70.988 0.236 6.88 14.28 5.78
6/29/2021 8:00:00 PM 21.6 70.88 0.235 6.88 14.24 5.74
6/29/2021 8:15:00 PM 21.51 70.718 0.236 6.87 13.06 5.63
6/29/2021 8:30:00 PM 21.43 70.574 0.236 6.86 11.37 5.49
6/29/2021 8:45:00 PM 21.27 70.286 0.237 6.86 9.19 5.47
6/29/2021 9:00:00 PM 21.21 70.17799 0.238 6.85 8.61 5.4
6/29/2021 9:15:00 PM 21.12 70.016 0.237 6.85 7.98 5.42
6/29/2021 9:30:00 PM 21.05 69.89 0.237 6.86 8.32 5.47
6/29/2021 9:45:00 PM 21.01 69.818 0.237 6.86 8.14 5.48
6/29/2021 10:00:00 PM 20.97 69.746 0.237 6.86 8.7 5.44
6/29/2021 10:15:00 PM 20.92 69.656 0.238 6.85 8.75 5.38
6/29/2021 10:30:00 PM 20.88 69.584 0.237 6.85 7 5.34
6/29/2021 10:45:00 PM 20.86 69.548 0.238 6.85 8.04 5.34
6/29/2021 11:00:00 PM 20.83 69.494 0.238 6.85 8.38 5.31
6/29/2021 11:15:00 PM 20.8 69.44 0.238 6.84 8.11 5.25
6/29/2021 11:30:00 PM 20.78 69.404 0.239 6.84 7.74 5.19
6/29/2021 11:45:00 PM 20.74 69.332 0.24 6.84 6.67 5.17
6/30/2021 12:00:00 AM 20.71 69.278 0.241 6.83 6.94 5.16
6/30/2021 12:15:00 AM 20.69 69.242 0.241 6.83 6.97 5.14
6/30/2021 12:30:00 AM 20.69 69.242 0.24 6.83 7.28 5.11
6/30/2021 12:45:00 AM 20.68 69.224 0.241 6.83 6.54 5.1
6/30/2021 1:00:00 AM 20.67 69.206 0.241 6.83 7.22 5.12
6/30/2021 1:15:00 AM 20.66 69.188 0.241 6.83 7.68 5.1
6/30/2021 1:30:00 AM 20.64 69.152 0.242 6.83 6.03 5.11
6/30/2021 1:45:00 AM 20.63 69.134 0.241 6.83 6.43 5.1
6/30/2021 2:00:00 AM 20.61 69.098 0.241 6.84 5.69 5.19
6/30/2021 2:15:00 AM 20.6 69.08 0.241 6.84 5.1 5.15
6/30/2021 2:30:00 AM 20.59 69.062 0.242 6.84 5.36 5.16
6/30/2021 2:45:00 AM 20.58 69.044 0.241 6.84 7.63 5.17
6/30/2021 3:00:00 AM 20.58 69.044 0.241 6.84 5.87 5.18
6/30/2021 3:15:00 AM 20.56 69.008 0.241 6.84 8.05 5.15
6/30/2021 3:30:00 AM 20.54 68.972 0.242 6.84 5.4 5.13
6/30/2021 3:45:00 AM 20.52 68.936 0.242 6.83 5.97 5.11
6/30/2021 4:00:00 AM 20.5 68.9 0.242 6.83 9.31 5.1
6/30/2021 4:15:00 AM 20.48 68.864 0.242 6.83 7.07 5.09
6/30/2021 4:30:00 AM 20.45 68.81 0.243 6.83 5.9 5.1
6/30/2021 4:45:00 AM 20.42 68.756 0.242 6.83 6.06 5.09
6/30/2021 5:00:00 AM 20.4 68.72 0.242 6.83 7.01 5.12
6/30/2021 5:15:00 AM 20.37 68.666 0.243 6.83 6.33 5.12
6/30/2021 5:30:00 AM 20.35 68.63 0.243 6.83 6.71 5.12
6/30/2021 5:45:00 AM 20.33 68.594 0.243 6.83 7.48 5.1
6/30/2021 6:00:00 AM 20.3 68.54 0.243 6.83 5.49 5.13
6/30/2021 6:15:00 AM 20.28 68.504 0.243 6.83 5.11 5.14
6/30/2021 6:30:00 AM 20.27 68.486 0.243 6.83 4.92 5.15
6/30/2021 6:45:00 AM 20.26 68.468 0.243 6.84 7.77 5.15
6/30/2021 7:00:00 AM 20.25 68.45 0.243 6.84 4.83 5.16
6/30/2021 7:15:00 AM 20.24 68.432 0.243 6.84 4.52 5.17
6/30/2021 7:30:00 AM 20.25 68.45 0.244 6.84 4.58 5.24
6/30/2021 7:45:00 AM 20.26 68.468 0.244 6.84 3.9 5.26
6/30/2021 8:00:00 AM 20.3 68.54 0.244 6.85 3.84 5.31
6/30/2021 8:15:00 AM 20.36 68.648 0.245 6.85 3.93 5.41
6/30/2021 8:30:00 AM 20.44 68.792 0.246 6.85 3.81 5.47
6/30/2021 8:45:00 AM 20.56 69.008 0.246 6.86 3.9 5.56
6/30/2021 9:00:00 AM 20.68 69.224 0.246 6.86 4.82 5.62
6/30/2021 9:15:00 AM 20.82 69.476 0.246 6.87 4.59 5.68
6/30/2021 9:30:00 AM 20.97 69.746 0.247 6.87 4.02 5.71
6/30/2021 9:45:00 AM 21.14 70.052 0.247 6.87 3.97 5.75
6/30/2021 10:00:00 AM 21.31 70.358 0.247 6.88 3.44 5.79
6/30/2021 10:15:00 AM 21.47 70.646 0.247 6.88 3.14 5.83
6/30/2021 10:30:00 AM 21.64 70.952 0.248 6.89 3.41 5.88
6/30/2021 10:45:00 AM 21.85 71.33 0.248 6.9 3.89 5.93
6/30/2021 11:00:00 AM 21.96 71.528 0.247 6.9 3.21 5.95
6/30/2021 11:15:00 AM 22.09 71.762 0.247 6.9 3.08 5.96
6/30/2021 11:30:00 AM 22.21 71.978 0.247 6.9 2.79 5.98
6/30/2021 11:45:00 AM 22.38 72.284 0.247 6.91 2.77 6.02
6/30/2021 12:00:00 PM 22.58 72.644 0.248 6.91 3.11 6.07
6/30/2021 12:15:00 PM 22.7 72.86 0.247 6.92 3.71 6.11
6/30/2021 12:30:00 PM 22.78 73.004 0.247 6.91 7.15 6.11
6/30/2021 12:45:00 PM 22.78 73.004 0.246 6.91 5.57 6.11
6/30/2021 1:00:00 PM 22.74 72.932 0.246 6.91 5.3 6.13
6/30/2021 1:15:00 PM 22.74 72.932 0.246 6.91 4.85 6.16
6/30/2021 1:30:00 PM 22.81 73.058 0.246 6.92 3.49 6.2
6/30/2021 1:45:00 PM 22.9 73.22 0.246 6.92 3.2 6.21
6/30/2021 2:00:00 PM 23.12 73.616 0.247 6.92 3.31 6.26
6/30/2021 2:15:00 PM 23.27 73.886 0.247 6.92 3.2 6.22
6/30/2021 2:30:00 PM 23.39 74.102 0.247 6.92 3.48 6.23
6/30/2021 2:45:00 PM 23.48 74.264 0.247 6.92 3.67 6.25
6/30/2021 3:00:00 PM 23.44 74.192 0.246 6.92 8.26 6.22
6/30/2021 3:15:00 PM 23.42 74.156 0.247 6.92 7.82 6.16
6/30/2021 3:30:00 PM 23.34 74.012 0.246 6.92 6.48 6.19
6/30/2021 3:45:00 PM 23.24 73.832 0.246 6.92 4.87 6.2
6/30/2021 4:00:00 PM 23.14 73.652 0.246 6.92 4.27 6.14
6/30/2021 4:15:00 PM 23.08 73.544 0.245 6.92 4.48 6.08
6/30/2021 4:30:00 PM 22.92 73.256 0.245 6.91 3.68 5.99
6/30/2021 4:45:00 PM 22.66 72.788 0.244 6.91 3.88 5.95
6/30/2021 5:00:00 PM 22.32 72.176 0.242 6.92 4.09 5.92
6/30/2021 5:15:00 PM 22.07 71.726 0.241 6.91 4.1 5.9
6/30/2021 5:30:00 PM 21.88 71.384 0.239 6.92 5.25 5.91
6/30/2021 5:45:00 PM 21.73 71.114 0.238 6.91 5.06 5.83
6/30/2021 6:00:00 PM 21.63 70.934 0.239 6.9 4.94 5.76
6/30/2021 6:15:00 PM 21.57 70.826 0.239 6.89 4.33 5.67
6/30/2021 6:30:00 PM 21.49 70.682 0.24 6.87 4.79 5.59
6/30/2021 6:45:00 PM 21.44 70.592 0.241 6.87 3.91 5.55
6/30/2021 7:00:00 PM 21.41 70.538 0.242 6.86 3.91 5.54
6/30/2021 7:15:00 PM 21.39 70.502 0.242 6.86 4.44 5.53
6/30/2021 7:30:00 PM 21.37 70.466 0.242 6.86 4.39 5.51
6/30/2021 7:45:00 PM 21.36 70.448 0.243 6.87 3.82 5.49
6/30/2021 8:00:00 PM 21.36 70.448 0.243 6.87 4.2 5.47
6/30/2021 8:15:00 PM 21.37 70.466 0.243 6.87 4.54 5.46
6/30/2021 8:30:00 PM 21.37 70.466 0.243 6.88 5.48 5.48
6/30/2021 8:45:00 PM 21.38 70.484 0.242 6.88 5.46 5.47
6/30/2021 9:00:00 PM 21.38 70.484 0.242 6.89 6.01 5.49
6/30/2021 9:15:00 PM 21.38 70.484 0.242 6.89 6.69 5.52
6/30/2021 9:30:00 PM 21.37 70.466 0.242 6.9 6.64 5.54
6/30/2021 9:45:00 PM 21.36 70.448 0.242 6.9 6.73 5.55
6/30/2021 10:00:00 PM 21.33 70.394 0.241 6.9 7.01 5.57
6/30/2021 10:15:00 PM 21.3 70.34 0.24 6.91 7.91 5.61
6/30/2021 10:30:00 PM 21.49 70.682 0.236 6.96 77.33 5.95
6/30/2021 10:45:00 PM 21.54 70.772 0.231 7.02 58.3 6.28
6/30/2021 11:00:00 PM 21.94 71.492 0.224 7.04 28.81 6.38
6/30/2021 11:15:00 PM 22.18 71.924 0.218 7.09 20.92 6.56
6/30/2021 11:30:00 PM 22.36 72.248 0.213 7.11 16.16 6.67
6/30/2021 11:45:00 PM 22.48 72.464 0.21 7.12 13.77 6.7
7/1/2021 12:00:00 AM 22.54 72.57201 0.207 7.12 11.81 6.7
7/1/2021 12:15:00 AM 22.57 72.626 0.205 7.12 10.82 6.7
7/1/2021 12:30:00 AM 22.58 72.644 0.205 7.12 9.62 6.7
7/1/2021 12:45:00 AM 22.57 72.626 0.204 7.11 9.37 6.71
7/1/2021 1:00:00 AM 22.54 72.57201 0.203 7.11 9.03 6.71
7/1/2021 1:15:00 AM 22.51 72.518 0.203 7.11 8.88 6.71
7/1/2021 1:30:00 AM 22.48 72.464 0.203 7.11 10 6.71
7/1/2021 1:45:00 AM 22.45 72.41 0.202 7.1 9.33 6.71
7/1/2021 2:00:00 AM 22.41 72.338 0.201 7.1 11.49 6.72
7/1/2021 2:15:00 AM 22.37 72.266 0.201 7.09 11.64 6.72
7/1/2021 2:30:00 AM 22.34 72.212 0.201 7.09 14.84 6.73
7/1/2021 2:45:00 AM 22.31 72.158 0.203 7.09 12.84 6.73
7/1/2021 3:00:00 AM 22.28 72.104 0.2 7.09 13.68 6.74
7/1/2021 3:15:00 AM 22.24 72.032 0.199 7.08 14.76 6.74
7/1/2021 3:30:00 AM 22.21 71.978 0.198 7.08 14.84 6.74
7/1/2021 3:45:00 AM 22.18 71.924 0.197 7.08 14.88 6.74
7/1/2021 4:00:00 AM 22.14 71.852 0.196 7.08 14.52 6.74
7/1/2021 4:15:00 AM 22.1 71.78 0.196 7.07 15.8 6.74
7/1/2021 4:30:00 AM 22.07 71.726 0.196 7.07 15.11 6.74
7/1/2021 4:45:00 AM 22.03 71.654 0.195 7.07 14.71 6.75
7/1/2021 5:00:00 AM 22 71.6 0.195 7.06 15.9 6.75
7/1/2021 5:15:00 AM 21.97 71.546 0.194 7.06 14.82 6.76
7/1/2021 5:30:00 AM 21.94 71.492 0.196 7.06 14.05 6.75
7/1/2021 5:45:00 AM 21.91 71.438 0.194 7.06 15.57 6.75
7/1/2021 6:00:00 AM 21.88 71.384 0.193 7.06 14.05 6.76
7/1/2021 6:15:00 AM 21.86 71.348 0.193 7.06 13.41 6.75
7/1/2021 6:30:00 AM 21.83 71.294 0.193 7.05 12.63 6.75
7/1/2021 6:45:00 AM 21.8 71.24 0.193 7.05 11.4 6.77
7/1/2021 7:00:00 AM 21.78 71.204 0.193 7.05 11 6.77
7/1/2021 7:15:00 AM 21.76 71.168 0.193 7.05 10.01 6.77
7/1/2021 7:30:00 AM 21.73 71.114 0.193 7.06 10.58 6.79
7/1/2021 7:45:00 AM 21.72 71.096 0.193 7.06 9.32 6.82
7/1/2021 8:00:00 AM 21.71 71.078 0.193 7.06 9.31 6.84
7/1/2021 8:15:00 AM 21.7 71.06 0.193 7.06 10.72 6.87
7/1/2021 8:30:00 AM 21.7 71.06 0.193 7.06 8.16 6.9
7/1/2021 8:45:00 AM 21.71 71.078 0.193 7.07 7.88 6.92
7/1/2021 9:00:00 AM 21.71 71.078 0.193 7.07 7.78 6.94
7/1/2021 9:15:00 AM 21.74 71.132 0.194 7.07 7.32 6.99
7/1/2021 9:30:00 AM 21.78 71.204 0.194 7.07 7.57 7.04
7/1/2021 9:45:00 AM 21.82 71.276 0.194 7.08 6.36 7.08
7/1/2021 10:00:00 AM 21.84 71.312 0.193 7.08 5.94 7.09
7/1/2021 10:15:00 AM 21.86 71.348 0.195 7.08 6.18 7.12
7/1/2021 10:30:00 AM 21.93 71.474 0.194 7.09 6.2 7.18
7/1/2021 10:45:00 AM 21.96 71.528 0.194 7.09 6.37 7.2
7/1/2021 11:00:00 AM 22 71.6 0.194 7.09 5.65 7.21
7/1/2021 11:15:00 AM 22 71.6 0.194 7.09 5.61 7.2
7/1/2021 11:30:00 AM 22.02 71.636 0.194 7.09 5.2 7.21
7/1/2021 11:45:00 AM 22.05 71.69 0.194 7.09 4.98 7.22
7/1/2021 12:00:00 PM 22.07 71.726 0.194 7.09 5.05 7.23
7/1/2021 12:15:00 PM 22.12 71.816 0.194 7.1 4.88 7.27
7/1/2021 12:30:00 PM 22.17 71.906 0.194 7.1 5.18 7.28
7/1/2021 12:45:00 PM 22.16 71.888 0.194 7.1 4.42 7.28
7/1/2021 1:00:00 PM 22.18 71.924 0.194 7.1 4.13 7.29
7/1/2021 1:15:00 PM 22.24 72.032 0.193 7.1 4.24 7.31
7/1/2021 1:30:00 PM 22.23 72.014 0.193 7.1 4.41 7.28
7/1/2021 1:45:00 PM 22.19 71.942 0.193 7.1 4.77 7.24
7/1/2021 2:00:00 PM 22.13 71.834 0.191 7.1 4.47 7.21
7/1/2021 2:15:00 PM 22.09 71.762 0.19 7.1 4.67 7.19
7/1/2021 2:30:00 PM 22.04 71.672 0.19 7.1 4.68 7.18
7/1/2021 2:45:00 PM 22 71.6 0.19 7.1 4.71 7.14
7/1/2021 3:00:00 PM 21.95 71.51 0.189 7.1 4.85 7.14
7/1/2021 3:15:00 PM 21.92 71.456 0.188 7.1 4.58 7.17
7/1/2021 3:30:00 PM 21.93 71.474 0.188 7.1 4.6 7.2
7/1/2021 3:45:00 PM 21.97 71.546 0.188 7.1 4.61 7.27
7/1/2021 4:00:00 PM 21.98 71.564 0.188 7.11 4.73 7.29
7/1/2021 4:15:00 PM 21.96 71.528 0.188 7.11 4.42 7.29
7/1/2021 4:30:00 PM 21.98 71.564 0.188 7.11 4.28 7.3
7/1/2021 4:45:00 PM 22.02 71.636 0.188 7.12 4.29 7.33
7/1/2021 5:00:00 PM 22.05 71.69 0.187 7.12 4.43 7.35
7/1/2021 5:15:00 PM 22.05 71.69 0.187 7.12 4.38 7.35
7/1/2021 5:30:00 PM 22.06 71.708 0.187 7.13 4.47 7.37
7/1/2021 5:45:00 PM 22.07 71.726 0.187 7.13 4.16 7.39
7/1/2021 6:00:00 PM 22.07 71.726 0.186 7.13 4.4 7.41
7/1/2021 6:15:00 PM 22.05 71.69 0.187 7.13 4.71 7.39
7/1/2021 6:30:00 PM 22.02 71.636 0.186 7.14 5.18 7.38
7/1/2021 6:45:00 PM 22 71.6 0.186 7.14 5.56 7.35
7/1/2021 7:00:00 PM 21.98 71.564 0.183 7.15 19.7 7.34
7/1/2021 7:15:00 PM 22.04 71.672 0.177 7.21 95.85 7.48
7/1/2021 7:30:00 PM 22.09 71.762 0.172 7.26 59.4 7.65
7/1/2021 7:45:00 PM 22.1 71.78 0.168 7.26 63.41 7.66
7/1/2021 8:00:00 PM 22.04 71.672 0.165 7.26 55.6 7.67
7/1/2021 8:15:00 PM 21.93 71.474 0.163 7.25 42.08 7.7
7/1/2021 8:30:00 PM 21.82 71.276 0.162 7.25 43.82 7.73
7/1/2021 8:45:00 PM 21.72 71.096 0.162 7.24 33.37 7.74
7/1/2021 9:00:00 PM 21.6 70.88 0.163 7.23 41.5 7.76
7/1/2021 9:15:00 PM 21.48 70.664 0.162 7.22 45.95 7.77
7/1/2021 9:30:00 PM 21.38 70.484 0.16 7.21 32.58 7.78
7/1/2021 9:45:00 PM 21.28 70.304 0.157 7.2 43.62 7.78
7/1/2021 10:00:00 PM 21.21 70.17799 0.155 7.2 40.6 7.78
7/1/2021 10:15:00 PM 21.13 70.034 0.153 7.19 41.24 7.78
7/1/2021 10:30:00 PM 21.07 69.926 0.152 7.18 52.16 7.78
7/1/2021 10:45:00 PM 21.02 69.836 0.151 7.17 31.84 7.77
7/1/2021 11:00:00 PM 20.97 69.746 0.151 7.16 34.97 7.76
7/1/2021 11:15:00 PM 20.93 69.674 0.15 7.16 30.44 7.76
7/1/2021 11:30:00 PM 20.89 69.602 0.15 7.15 34.06 7.74
7/1/2021 11:45:00 PM 20.84 69.512 0.149 7.15 30.32 7.74
7/2/2021 12:00:00 AM 20.79 69.422 0.149 7.14 28.4 7.73
7/2/2021 12:15:00 AM 20.76 69.368 0.149 7.14 26.19 7.72
7/2/2021 12:30:00 AM 20.73 69.314 0.149 7.14 25.66 7.72
7/2/2021 12:45:00 AM 20.69 69.242 0.149 7.13 26.28 7.71
7/2/2021 1:00:00 AM 20.66 69.188 0.149 7.13 24.69 7.7
7/2/2021 1:15:00 AM 20.64 69.152 0.149 7.13 18.77 7.69
7/2/2021 1:30:00 AM 20.61 69.098 0.149 7.13 20.94 7.69
7/2/2021 1:45:00 AM 20.58 69.044 0.149 7.12 22.84 7.68
7/2/2021 2:00:00 AM 20.55 68.99 0.149 7.12 23.36 7.67
7/2/2021 2:15:00 AM 20.53 68.954 0.149 7.12 26.84 7.66
7/2/2021 2:30:00 AM 20.51 68.918 0.15 7.12 22.3 7.65
7/2/2021 2:45:00 AM 20.49 68.882 0.15 7.11 20.96 7.64
7/2/2021 3:00:00 AM 20.48 68.864 0.15 7.11 20.44 7.63
7/2/2021 3:15:00 AM 20.47 68.846 0.151 7.11 19.72 7.63
7/2/2021 3:30:00 AM 20.45 68.81 0.151 7.11 17.77 7.62
7/2/2021 3:45:00 AM 20.44 68.792 0.151 7.11 17.11 7.61
7/2/2021 4:00:00 AM 20.42 68.756 0.151 7.11 17.51 7.61
7/2/2021 4:15:00 AM 20.41 68.738 0.151 7.11 16.28 7.6
7/2/2021 4:30:00 AM 20.39 68.702 0.152 7.11 15 7.59
7/2/2021 4:45:00 AM 20.36 68.648 0.152 7.11 18.37 7.59
7/2/2021 5:00:00 AM 20.32 68.576 0.152 7.11 18.22 7.59
7/2/2021 5:15:00 AM 20.27 68.486 0.152 7.11 15.83 7.59
7/2/2021 5:30:00 AM 20.22 68.396 0.152 7.11 13.16 7.59
7/2/2021 5:45:00 AM 20.17 68.306 0.153 7.11 13.83 7.59
7/2/2021 6:00:00 AM 20.12 68.216 0.153 7.11 14.04 7.59
7/2/2021 6:15:00 AM 20.08 68.144 0.153 7.11 13.23 7.6
7/2/2021 6:30:00 AM 20.05 68.09 0.154 7.11 13.83 7.62
7/2/2021 6:45:00 AM 20.02 68.036 0.154 7.12 11.7 7.64
7/2/2021 7:00:00 AM 20.02 68.036 0.154 7.12 10.76 7.67
7/2/2021 7:15:00 AM 20.01 68.018 0.154 7.12 10.08 7.7
7/2/2021 7:30:00 AM 20.02 68.036 0.154 7.13 10.06 7.74
7/2/2021 7:45:00 AM 20.03 68.054 0.155 7.13 9.43 7.77
7/2/2021 8:00:00 AM 20.03 68.054 0.155 7.14 9.59 7.78
7/2/2021 8:15:00 AM 20.04 68.07201 0.155 7.14 9.11 7.79
7/2/2021 8:30:00 AM 20.06 68.108 0.156 7.14 8.85 7.81
7/2/2021 8:45:00 AM 20.07 68.126 0.156 7.14 9.03 7.81
7/2/2021 9:00:00 AM 20.13 68.234 0.156 7.15 8.04 7.86
7/2/2021 9:15:00 AM 20.19 68.342 0.157 7.16 7.46 7.9
7/2/2021 9:30:00 AM 20.24 68.432 0.157 7.16 7.07 7.95
7/2/2021 9:45:00 AM 20.29 68.522 0.157 7.17 7.3 7.98
7/2/2021 10:00:00 AM 20.32 68.576 0.157 7.17 6.44 7.99
7/2/2021 10:15:00 AM 20.34 68.612 0.157 7.18 6.74 7.98
7/2/2021 10:30:00 AM 20.36 68.648 0.157 7.18 6.59 7.99
7/2/2021 10:45:00 AM 20.43 68.774 0.158 7.19 6.19 8.03
7/2/2021 11:00:00 AM 20.52 68.936 0.158 7.19 6.52 8.06
7/2/2021 11:15:00 AM 20.6 69.08 0.158 7.2 5.74 8.09
7/2/2021 11:30:00 AM 20.72 69.296 0.158 7.21 5.94 8.13
7/2/2021 11:45:00 AM 21.01 69.818 0.159 7.22 5.81 8.15
7/2/2021 12:00:00 PM 21.21 70.17799 0.159 7.22 5.96 8.16
7/2/2021 12:15:00 PM 21.45 70.61 0.16 7.23 5.66 8.15
7/2/2021 12:30:00 PM 21.73 71.114 0.16 7.24 5.55 8.15
7/2/2021 12:45:00 PM 22.01 71.618 0.16 7.24 5.27 8.13
7/2/2021 1:00:00 PM 22.15 71.87 0.161 7.25 5.94 8.11
7/2/2021 1:15:00 PM 22.25 72.05 0.161 7.25 6.62 8.07
7/2/2021 1:30:00 PM 22.32 72.176 0.161 7.25 5.15 8.06
7/2/2021 1:45:00 PM 22.34 72.212 0.161 7.25 4.63 8.03
7/2/2021 2:00:00 PM 22.51 72.518 0.161 7.25 4.57 8.03
7/2/2021 2:15:00 PM 22.66 72.788 0.162 7.25 4.93 8
7/2/2021 2:30:00 PM 22.8 73.04 0.162 7.25 4.67 7.98
7/2/2021 2:45:00 PM 23.11 73.598 0.163 7.25 4.44 7.97
7/2/2021 3:00:00 PM 23.29 73.922 0.163 7.25 4.43 7.92
7/2/2021 3:15:00 PM 23.38 74.084 0.164 7.25 4.22 7.86
7/2/2021 3:30:00 PM 23.38 74.084 0.164 7.24 4.78 7.82
7/2/2021 3:45:00 PM 23.47 74.246 0.164 7.24 4.19 7.8
7/2/2021 4:00:00 PM 23.59 74.462 0.164 7.24 3.99 7.79
7/2/2021 4:15:00 PM 23.61 74.498 0.164 7.24 3.97 7.75
7/2/2021 4:30:00 PM 23.46 74.228 0.165 7.23 3.56 7.68
7/2/2021 4:45:00 PM 23.35 74.03 0.165 7.23 3.98 7.64
7/2/2021 5:00:00 PM 23.19 73.742 0.165 7.22 3.84 7.6
7/2/2021 5:15:00 PM 23.05 73.49 0.165 7.21 3.92 7.55
7/2/2021 5:30:00 PM 22.9 73.22 0.166 7.2 4.14 7.51
7/2/2021 5:45:00 PM 22.73 72.914 0.166 7.19 3.83 7.47
7/2/2021 6:00:00 PM 22.54 72.57201 0.165 7.18 3.99 7.42
7/2/2021 6:15:00 PM 22.38 72.284 0.166 7.17 3.78 7.36
7/2/2021 6:30:00 PM 22.22 71.996 0.166 7.16 4.07 7.31
7/2/2021 6:45:00 PM 22.09 71.762 0.165 7.15 3.71 7.25
7/2/2021 7:00:00 PM 21.94 71.492 0.166 7.14 3.82 7.21
7/2/2021 7:15:00 PM 21.79 71.222 0.167 7.13 3.86 7.17
7/2/2021 7:30:00 PM 21.65 70.97 0.166 7.12 4.12 7.15
7/2/2021 7:45:00 PM 21.53 70.754 0.166 7.12 3.71 7.14
7/2/2021 8:00:00 PM 21.41 70.538 0.166 7.11 3.63 7.11
7/2/2021 8:15:00 PM 21.29 70.32201 0.166 7.11 3.75 7.12
7/2/2021 8:30:00 PM 21.2 70.16 0.167 7.1 3.76 7.11
7/2/2021 8:45:00 PM 21.14 70.052 0.167 7.1 3.77 7.1
7/2/2021 9:00:00 PM 21.08 69.944 0.166 7.1 3.81 7.08
7/2/2021 9:15:00 PM 21.01 69.818 0.167 7.09 3.85 7.08
7/2/2021 9:30:00 PM 20.95 69.71 0.168 7.09 4.1 7.09
7/2/2021 9:45:00 PM 20.91 69.638 0.168 7.09 3.56 7.09
7/2/2021 10:00:00 PM 20.87 69.566 0.168 7.09 3.46 7.08
7/2/2021 10:15:00 PM 20.83 69.494 0.168 7.09 3.46 7.08
7/2/2021 10:30:00 PM 20.77 69.386 0.168 7.08 3.88 7.09
7/2/2021 10:45:00 PM 20.68 69.224 0.154 7.19 304.62 7.79
7/2/2021 11:00:00 PM 20.87 69.566 0.139 7.29 272.36 8.13
7/2/2021 11:15:00 PM 20.44 68.792 0.119 7.25 773.99 8.26
7/2/2021 11:30:00 PM 19.71 67.478 0.099 7.16 1315.15 8.43
7/2/2021 11:45:00 PM 19.12 66.416 0.088 7.1 1304.99 8.55
7/3/2021 12:00:00 AM 18.84 65.912 0.085 7.06 1052.87 8.62
7/3/2021 12:15:00 AM 18.82 65.876 0.088 6.96 991.22 8.62
7/3/2021 12:30:00 AM 18.87 65.966 0.09 7.02 714.6 8.62
7/3/2021 12:45:00 AM 18.86 65.948 0.092 7.05 490.17 8.61
7/3/2021 1:00:00 AM 18.81 65.858 0.092 7.06 493.99 8.61
7/3/2021 1:15:00 AM 18.75 65.75 0.093 7.06 451.15 8.6
7/3/2021 1:30:00 AM 18.68 65.624 0.091 7.06 517.07 8.6
7/3/2021 1:45:00 AM 18.63 65.534 0.092 7.06 360.93 8.59
7/3/2021 2:00:00 AM 18.59 65.462 0.093 7.07 312.35 8.58
7/3/2021 2:15:00 AM 18.58 65.444 0.097 7.07 219.25 8.56
7/3/2021 2:30:00 AM 18.59 65.462 0.099 7.07 216.41 8.54
7/3/2021 2:45:00 AM 18.6 65.48 0.1 7.08 167.56 8.52
7/3/2021 3:00:00 AM 18.61 65.498 0.101 7.09 218.69 8.51
7/3/2021 3:15:00 AM 18.61 65.498 0.101 7.1 147.94 8.5
7/3/2021 3:30:00 AM 18.59 65.462 0.1 7.1 165.6 8.49
7/3/2021 3:45:00 AM 18.57 65.426 0.1 7.11 144.81 8.49
7/3/2021 4:00:00 AM 18.55 65.39 0.102 7.11 171.22 8.49
7/3/2021 4:15:00 AM 18.53 65.354 0.101 7.12 141.55 8.47
7/3/2021 4:30:00 AM 18.52 65.336 0.102 7.12 131.33 8.46
7/3/2021 4:45:00 AM 18.51 65.318 0.103 7.12 105.82 8.45
7/3/2021 5:00:00 AM 18.5 65.3 0.104 7.12 102.85 8.43
7/3/2021 5:15:00 AM 18.49 65.282 0.105 7.12 74.64 8.42
7/3/2021 5:30:00 AM 18.49 65.282 0.105 7.13 88.42 8.41
7/3/2021 5:45:00 AM 18.5 65.3 0.106 7.13 76.98 8.4
7/3/2021 6:00:00 AM 18.49 65.282 0.109 7.13 68.9 8.41
7/3/2021 6:15:00 AM 18.41 65.138 0.105 7.16 86.89 8.55
7/3/2021 6:30:00 AM 18.34 65.012 0.103 7.2 129.65 8.67
7/3/2021 6:45:00 AM 18.32 64.976 0.101 7.21 99.19 8.71
7/3/2021 7:00:00 AM 18.33 64.994 0.102 7.21 84.02 8.72
7/3/2021 7:15:00 AM 18.33 64.994 0.102 7.2 104.92 8.72
7/3/2021 7:30:00 AM 18.31 64.958 0.104 7.21 182.81 8.7
7/3/2021 7:45:00 AM 18.3 64.94 0.103 7.21 118.79 8.7
7/3/2021 8:00:00 AM 18.31 64.958 0.1 7.2 145.97 8.7
7/3/2021 8:15:00 AM 18.32 64.976 0.1 7.19 138.16 8.71
7/3/2021 8:30:00 AM 18.33 64.994 0.099 7.18 197.23 8.7
7/3/2021 8:45:00 AM 18.34 65.012 0.098 7.17 134.31 8.69
7/3/2021 9:00:00 AM 18.38 65.084 0.097 7.17 117.71 8.68
7/3/2021 9:15:00 AM 18.43 65.174 0.099 7.17 125.29 8.67
7/3/2021 9:30:00 AM 18.5 65.3 0.099 7.17 118.14 8.67
7/3/2021 9:45:00 AM 18.57 65.426 0.099 7.18 86.08 8.66
7/3/2021 10:00:00 AM 18.65 65.57 0.099 7.19 106.22 8.66
7/3/2021 10:15:00 AM 18.7 65.66 0.1 7.19 63.45 8.65
7/3/2021 10:30:00 AM 18.76 65.768 0.101 7.2 56.06 8.65
7/3/2021 10:45:00 AM 18.96 66.128 0.101 7.21 91.1 8.65
7/3/2021 11:00:00 AM 19.08 66.344 0.102 7.22 80.13 8.66
7/3/2021 11:15:00 AM 19.24 66.632 0.102 7.22 52.39 8.65
7/3/2021 11:30:00 AM 19.38 66.884 0.103 7.23 47.48 8.61
7/3/2021 11:45:00 AM 19.61 67.298 0.103 7.23 39.5 8.59
7/3/2021 12:00:00 PM 19.78 67.604 0.104 7.25 44.64 8.59
7/3/2021 12:15:00 PM 19.89 67.802 0.104 7.25 43.36 8.57
7/3/2021 12:30:00 PM 20 68 0.105 7.26 45.15 8.54
7/3/2021 12:45:00 PM 20.18 68.324 0.106 7.27 46.47 8.53
7/3/2021 1:00:00 PM 20.29 68.522 0.106 7.27 33.35 8.51
7/3/2021 1:15:00 PM 20.53 68.954 0.108 7.28 35.36 8.5
7/3/2021 1:30:00 PM 20.6 69.08 0.108 7.29 35.2 8.46
7/3/2021 1:45:00 PM 20.54 68.972 0.109 7.28 32.13 8.42
7/3/2021 2:00:00 PM 20.65 69.17 0.109 7.28 30.32 8.4
7/3/2021 2:15:00 PM 20.77 69.386 0.11 7.29 30.61 8.42
7/3/2021 2:30:00 PM 21.01 69.818 0.11 7.3 29.15 8.46
7/3/2021 2:45:00 PM 21.08 69.944 0.111 7.31 27.34 8.47
7/3/2021 3:00:00 PM 21.13 70.034 0.111 7.32 28.73 8.46
7/3/2021 3:15:00 PM 21.27 70.286 0.112 7.32 25.98 8.45
7/3/2021 3:30:00 PM 21.33 70.394 0.112 7.33 25.51 8.43
7/3/2021 3:45:00 PM 21.31 70.358 0.113 7.32 20.61 8.41
7/3/2021 4:00:00 PM 21.41 70.538 0.113 7.33 26 8.38
7/3/2021 4:15:00 PM 21.45 70.61 0.114 7.33 24.73 8.36
7/3/2021 4:30:00 PM 21.53 70.754 0.114 7.33 26 8.34
7/3/2021 4:45:00 PM 21.54 70.772 0.115 7.33 21.8 8.32
7/3/2021 5:00:00 PM 21.49 70.682 0.115 7.33 20.98 8.29
7/3/2021 5:15:00 PM 21.44 70.592 0.115 7.32 28.52 8.25
7/3/2021 5:30:00 PM 21.36 70.448 0.115 7.31 21.64 8.24
7/3/2021 5:45:00 PM 21.29 70.32201 0.115 7.32 24.56 8.26
7/3/2021 6:00:00 PM 21.19 70.142 0.115 7.31 23.83 8.27
7/3/2021 6:15:00 PM 21.02 69.836 0.114 7.31 22.3 8.27
7/3/2021 6:30:00 PM 20.89 69.602 0.114 7.31 21.81 8.26
7/3/2021 6:45:00 PM 20.78 69.404 0.114 7.3 23.43 8.26
7/3/2021 7:00:00 PM 20.7 69.26 0.114 7.29 19.94 8.25
7/3/2021 7:15:00 PM 20.64 69.152 0.113 7.29 24.33 8.25
7/3/2021 7:30:00 PM 20.58 69.044 0.113 7.29 25.3 8.24
7/3/2021 7:45:00 PM 20.54 68.972 0.112 7.28 25.93 8.24
7/3/2021 8:00:00 PM 20.48 68.864 0.111 7.27 29.58 8.24
7/3/2021 8:15:00 PM 20.39 68.702 0.112 7.26 31.03 8.22
7/3/2021 8:30:00 PM 20.3 68.54 0.111 7.25 36.73 8.21
7/3/2021 8:45:00 PM 20.2 68.36 0.111 7.24 36.33 8.19
7/3/2021 9:00:00 PM 20.08 68.144 0.111 7.23 42.24 8.17
7/3/2021 9:15:00 PM 19.97 67.946 0.111 7.22 28.98 8.16
7/3/2021 9:30:00 PM 19.86 67.748 0.111 7.21 27.41 8.16
7/3/2021 9:45:00 PM 19.77 67.586 0.112 7.21 35.88 8.15
7/3/2021 10:00:00 PM 19.68 67.424 0.112 7.2 27.87 8.16
7/3/2021 10:15:00 PM 19.6 67.28 0.112 7.19 28.7 8.16
7/3/2021 10:30:00 PM 19.51 67.118 0.112 7.19 25.94 8.16
7/3/2021 10:45:00 PM 19.43 66.974 0.113 7.18 28.04 8.16
7/3/2021 11:00:00 PM 19.35 66.83 0.113 7.17 25.08 8.16
7/3/2021 11:15:00 PM 19.27 66.686 0.113 7.17 18.61 8.17
7/3/2021 11:30:00 PM 19.19 66.542 0.113 7.17 23.99 8.17
7/3/2021 11:45:00 PM 19.12 66.416 0.114 7.17 23.14 8.17
7/4/2021 12:00:00 AM 19.05 66.29 0.114 7.17 25.77 8.17
7/4/2021 12:15:00 AM 18.98 66.164 0.115 7.17 20.98 8.18
7/4/2021 12:30:00 AM 18.91 66.038 0.115 7.16 21.52 8.18
7/4/2021 12:45:00 AM 18.84 65.912 0.116 7.16 19.4 8.19
7/4/2021 1:00:00 AM 18.78 65.804 0.116 7.15 20.6 8.19
7/4/2021 1:15:00 AM 18.71 65.67799 0.116 7.15 16.89 8.19
7/4/2021 1:30:00 AM 18.65 65.57 0.117 7.15 19.48 8.2
7/4/2021 1:45:00 AM 18.59 65.462 0.118 7.15 20.37 8.2
7/4/2021 2:00:00 AM 18.53 65.354 0.118 7.15 20.01 8.21
7/4/2021 2:15:00 AM 18.49 65.282 0.118 7.15 20.55 8.21
7/4/2021 2:30:00 AM 18.44 65.192 0.12 7.14 18.28 8.22
7/4/2021 2:45:00 AM 18.39 65.102 0.119 7.14 17.32 8.21
7/4/2021 3:00:00 AM 18.33 64.994 0.121 7.14 19.31 8.22
7/4/2021 3:15:00 AM 18.27 64.886 0.119 7.14 17.95 8.23
7/4/2021 3:30:00 AM 18.22 64.796 0.12 7.14 18.55 8.23
7/4/2021 3:45:00 AM 18.17 64.706 0.121 7.14 17.84 8.24
7/4/2021 4:00:00 AM 18.13 64.634 0.12 7.14 17.56 8.24
7/4/2021 4:15:00 AM 18.09 64.562 0.121 7.14 16.8 8.25
7/4/2021 4:30:00 AM 18.06 64.508 0.121 7.14 17.4 8.25
7/4/2021 4:45:00 AM 18.02 64.436 0.121 7.14 16.77 8.25
7/4/2021 5:00:00 AM 17.97 64.346 0.122 7.14 16.7 8.25
7/4/2021 5:15:00 AM 17.93 64.274 0.122 7.13 15.96 8.26
7/4/2021 5:30:00 AM 17.9 64.22 0.124 7.13 16.15 8.26
7/4/2021 5:45:00 AM 17.88 64.184 0.122 7.13 16.04 8.26
7/4/2021 6:00:00 AM 17.86 64.148 0.123 7.13 15.3 8.27
7/4/2021 6:15:00 AM 17.84 64.112 0.123 7.13 16.2 8.28
7/4/2021 6:30:00 AM 17.82 64.076 0.124 7.14 15.33 8.3
7/4/2021 6:45:00 AM 17.82 64.076 0.123 7.14 15.23 8.32
7/4/2021 7:00:00 AM 17.82 64.076 0.126 7.14 14.31 8.35
7/4/2021 7:15:00 AM 17.82 64.076 0.124 7.15 14.27 8.39
7/4/2021 7:30:00 AM 17.84 64.112 0.125 7.15 16.07 8.41
7/4/2021 7:45:00 AM 17.86 64.148 0.125 7.16 13.24 8.46
7/4/2021 8:00:00 AM 17.89 64.202 0.125 7.17 13.74 8.5
7/4/2021 8:15:00 AM 17.93 64.274 0.125 7.18 11.3 8.54
7/4/2021 8:30:00 AM 17.98 64.364 0.125 7.19 12.19 8.58
7/4/2021 8:45:00 AM 18.08 64.544 0.126 7.2 12.4 8.62
7/4/2021 9:00:00 AM 18.18 64.724 0.126 7.21 12.6 8.65
7/4/2021 9:15:00 AM 18.34 65.012 0.126 7.21 10.99 8.67
7/4/2021 9:30:00 AM 18.55 65.39 0.127 7.23 11.48 8.7
7/4/2021 9:45:00 AM 18.75 65.75 0.127 7.24 11.5 8.7
7/4/2021 10:00:00 AM 18.95 66.11 0.127 7.25 10.35 8.71
7/4/2021 10:15:00 AM 19.17 66.506 0.127 7.26 10.63 8.71
7/4/2021 10:30:00 AM 19.33 66.794 0.128 7.27 11.55 8.7
7/4/2021 10:45:00 AM 19.43 66.974 0.128 7.27 10.27 8.68
7/4/2021 11:00:00 AM 19.36 66.848 0.128 7.27 9.06 8.66
7/4/2021 11:15:00 AM 19.44 66.992 0.129 7.27 10 8.64
7/4/2021 11:30:00 AM 19.61 67.298 0.129 7.28 10 8.65
7/4/2021 11:45:00 AM 19.81 67.658 0.129 7.28 9.48 8.65
7/4/2021 12:00:00 PM 20.05 68.09 0.129 7.29 8.81 8.63
7/4/2021 12:15:00 PM 20.29 68.522 0.129 7.3 8.53 8.62
7/4/2021 12:30:00 PM 20.53 68.954 0.129 7.3 9.04 8.6
7/4/2021 12:45:00 PM 20.71 69.278 0.129 7.3 9.06 8.56
7/4/2021 1:00:00 PM 20.84 69.512 0.129 7.31 9.06 8.53
7/4/2021 1:15:00 PM 21.02 69.836 0.131 7.31 8.35 8.48
7/4/2021 1:30:00 PM 21.06 69.908 0.129 7.32 8.67 8.48
7/4/2021 1:45:00 PM 21.26 70.268 0.13 7.32 7.64 8.47
7/4/2021 2:00:00 PM 21.3 70.34 0.13 7.32 7.99 8.44
7/4/2021 2:15:00 PM 21.52 70.736 0.131 7.32 7.8 8.43
7/4/2021 2:30:00 PM 21.75 71.15 0.131 7.33 8.02 8.41
7/4/2021 2:45:00 PM 22.01 71.618 0.131 7.33 7.9 8.39
7/4/2021 3:00:00 PM 22.25 72.05 0.132 7.34 8.13 8.37
7/4/2021 3:15:00 PM 22.47 72.446 0.132 7.34 8.31 8.33
7/4/2021 3:30:00 PM 22.67 72.806 0.134 7.34 8.05 8.31
7/4/2021 3:45:00 PM 22.77 72.986 0.131 7.34 7.09 8.26
7/4/2021 4:00:00 PM 22.82 73.076 0.132 7.34 6.84 8.22
7/4/2021 4:15:00 PM 22.88 73.184 0.132 7.34 7.43 8.2
7/4/2021 4:30:00 PM 22.9 73.22 0.133 7.33 6.92 8.16
7/4/2021 4:45:00 PM 22.9 73.22 0.132 7.33 6.99 8.13
7/4/2021 5:00:00 PM 22.86 73.148 0.133 7.32 6.65 8.1
7/4/2021 5:15:00 PM 22.78 73.004 0.133 7.31 7.96 8.07
7/4/2021 5:30:00 PM 22.68 72.824 0.133 7.31 7.23 8.04
7/4/2021 5:45:00 PM 22.58 72.644 0.134 7.3 7.04 8.02
7/4/2021 6:00:00 PM 22.44 72.392 0.134 7.29 6.98 7.99
7/4/2021 6:15:00 PM 22.33 72.194 0.134 7.28 7.13 7.96
7/4/2021 6:30:00 PM 22.17 71.906 0.135 7.27 6.68 7.91
7/4/2021 6:45:00 PM 22.02 71.636 0.135 7.26 6.4 7.88
7/4/2021 7:00:00 PM 21.87 71.366 0.137 7.25 6.67 7.85
7/4/2021 7:15:00 PM 21.71 71.078 0.136 7.24 5.75 7.83
7/4/2021 7:30:00 PM 21.56 70.808 0.136 7.23 6.49 7.79
7/4/2021 7:45:00 PM 21.41 70.538 0.137 7.22 5.8 7.76
7/4/2021 8:00:00 PM 21.26 70.268 0.137 7.21 6.05 7.71
7/4/2021 8:15:00 PM 21.14 70.052 0.138 7.2 6.16 7.67
7/4/2021 8:30:00 PM 21 69.8 0.136 7.19 6.34 7.64
7/4/2021 8:45:00 PM 20.89 69.602 0.137 7.17 5.88 7.6
7/4/2021 9:00:00 PM 20.78 69.404 0.14 7.17 6.05 7.58
7/4/2021 9:15:00 PM 20.68 69.224 0.139 7.16 6.09 7.56
7/4/2021 9:30:00 PM 20.58 69.044 0.139 7.15 5.56 7.55
7/4/2021 9:45:00 PM 20.49 68.882 0.14 7.14 5.89 7.54
7/4/2021 10:00:00 PM 20.4 68.72 0.14 7.14 5.94 7.53
7/4/2021 10:15:00 PM 20.31 68.558 0.141 7.13 5.98 7.53
7/4/2021 10:30:00 PM 20.23 68.414 0.141 7.13 6.03 7.53
7/4/2021 10:45:00 PM 20.15 68.27 0.141 7.13 5.6 7.53
7/4/2021 11:00:00 PM 20.08 68.144 0.141 7.13 5.93 7.55
7/4/2021 11:15:00 PM 20 68 0.141 7.12 5.81 7.55
7/4/2021 11:30:00 PM 19.93 67.874 0.142 7.12 6.33 7.56
7/4/2021 11:45:00 PM 19.85 67.73 0.142 7.12 5.41 7.56
7/5/2021 12:00:00 AM 19.78 67.604 0.142 7.12 5.42 7.57
7/5/2021 12:15:00 AM 19.71 67.478 0.143 7.12 5.62 7.58
7/5/2021 12:30:00 AM 19.64 67.352 0.143 7.12 5.73 7.59
7/5/2021 12:45:00 AM 19.57 67.226 0.143 7.11 5.4 7.59
7/5/2021 1:00:00 AM 19.5 67.1 0.143 7.11 5.66 7.6
7/5/2021 1:15:00 AM 19.44 66.992 0.144 7.11 5.21 7.6
7/5/2021 1:30:00 AM 19.37 66.866 0.143 7.11 5.15 7.62
7/5/2021 1:45:00 AM 19.3 66.74 0.144 7.11 5.17 7.62
7/5/2021 2:00:00 AM 19.23 66.614 0.144 7.11 4.93 7.63
7/5/2021 2:15:00 AM 19.17 66.506 0.144 7.1 5.18 7.63
7/5/2021 2:30:00 AM 19.1 66.38 0.145 7.11 4.69 7.65
7/5/2021 2:45:00 AM 19.04 66.272 0.145 7.1 4.98 7.66
7/5/2021 3:00:00 AM 18.99 66.182 0.145 7.1 5.21 7.66
7/5/2021 3:15:00 AM 18.93 66.074 0.145 7.1 5.23 7.66
7/5/2021 3:30:00 AM 18.87 65.966 0.146 7.1 4.84 7.67
7/5/2021 3:45:00 AM 18.82 65.876 0.146 7.1 4.86 7.67
7/5/2021 4:00:00 AM 18.77 65.786 0.146 7.1 5.07 7.68
7/5/2021 4:15:00 AM 18.73 65.714 0.146 7.1 4.89 7.69
7/5/2021 4:30:00 AM 18.7 65.66 0.147 7.1 4.92 7.69
7/5/2021 4:45:00 AM 18.67 65.606 0.146 7.1 5.32 7.7
7/5/2021 5:00:00 AM 18.63 65.534 0.147 7.1 4.46 7.7
7/5/2021 5:15:00 AM 18.59 65.462 0.147 7.09 4.76 7.71
7/5/2021 5:30:00 AM 18.55 65.39 0.147 7.1 5.26 7.71
7/5/2021 5:45:00 AM 18.52 65.336 0.148 7.09 4.55 7.72
7/5/2021 6:00:00 AM 18.5 65.3 0.147 7.09 4.77 7.72
7/5/2021 6:15:00 AM 18.48 65.264 0.148 7.09 4.58 7.74
7/5/2021 6:30:00 AM 18.46 65.228 0.148 7.1 4.65 7.77
7/5/2021 6:45:00 AM 18.46 65.228 0.148 7.1 5.08 7.79
7/5/2021 7:00:00 AM 18.45 65.21 0.148 7.1 4.21 7.82
7/5/2021 7:15:00 AM 18.46 65.228 0.149 7.11 4.98 7.87
7/5/2021 7:30:00 AM 18.46 65.228 0.148 7.11 4.78 7.91
7/5/2021 7:45:00 AM 18.46 65.228 0.149 7.12 4.53 7.98
7/5/2021 8:00:00 AM 18.47 65.246 0.148 7.13 4.59 8.03
7/5/2021 8:15:00 AM 18.51 65.318 0.148 7.13 4.34 8.09
7/5/2021 8:30:00 AM 18.56 65.408 0.148 7.14 4.16 8.17
7/5/2021 8:45:00 AM 18.62 65.516 0.148 7.15 3.82 8.23
7/5/2021 9:00:00 AM 18.72 65.696 0.148 7.16 4.01 8.29
7/5/2021 9:15:00 AM 18.82 65.876 0.149 7.17 3.5 8.33
7/5/2021 9:30:00 AM 18.97 66.146 0.149 7.18 3.65 8.38
7/5/2021 9:45:00 AM 19.16 66.488 0.149 7.19 3.72 8.41
7/5/2021 10:00:00 AM 19.35 66.83 0.149 7.2 3.58 8.43
7/5/2021 10:15:00 AM 19.58 67.244 0.15 7.21 4.29 8.44
7/5/2021 10:30:00 AM 19.8 67.64 0.15 7.22 3.97 8.44
7/5/2021 10:45:00 AM 20.04 68.07201 0.15 7.22 3.49 8.44
7/5/2021 11:00:00 AM 20.27 68.486 0.15 7.23 3.77 8.43
7/5/2021 11:15:00 AM 20.51 68.918 0.15 7.23 3.94 8.42
7/5/2021 11:30:00 AM 20.73 69.314 0.151 7.24 3.7 8.41
7/5/2021 11:45:00 AM 20.97 69.746 0.151 7.25 3.84 8.41
7/5/2021 12:00:00 PM 21.2 70.16 0.15 7.25 3.73 8.39
7/5/2021 12:15:00 PM 21.42 70.556 0.151 7.26 3.37 8.38
7/5/2021 12:30:00 PM 21.65 70.97 0.151 7.26 3.26 8.37
7/5/2021 12:45:00 PM 21.86 71.348 0.151 7.27 3.24 8.35
7/5/2021 1:00:00 PM 22.02 71.636 0.151 7.27 3.3 8.32
7/5/2021 1:15:00 PM 22.12 71.816 0.151 7.27 3.19 8.31
7/5/2021 1:30:00 PM 22.33 72.194 0.152 7.27 3.31 8.3
7/5/2021 1:45:00 PM 22.48 72.464 0.152 7.27 3.18 8.27
7/5/2021 2:00:00 PM 22.62 72.716 0.152 7.28 3.09 8.27
7/5/2021 2:15:00 PM 22.77 72.986 0.152 7.28 2.83 8.26
7/5/2021 2:30:00 PM 22.95 73.31 0.152 7.28 3.04 8.24
7/5/2021 2:45:00 PM 23.12 73.616 0.152 7.28 3.08 8.21
7/5/2021 3:00:00 PM 23.25 73.85 0.152 7.29 2.93 8.2
7/5/2021 3:15:00 PM 23.35 74.03 0.152 7.29 3.05 8.18
7/5/2021 3:30:00 PM 23.43 74.174 0.152 7.29 2.99 8.15
7/5/2021 3:45:00 PM 23.48 74.264 0.152 7.29 3.09 8.12
7/5/2021 4:00:00 PM 23.5 74.3 0.152 7.29 2.97 8.09
7/5/2021 4:15:00 PM 23.51 74.318 0.152 7.28 2.91 8.07
7/5/2021 4:30:00 PM 23.52 74.336 0.152 7.28 3.13 8.04
7/5/2021 4:45:00 PM 23.52 74.336 0.152 7.28 3.06 8.03
7/5/2021 5:00:00 PM 23.5 74.3 0.152 7.28 3.17 8
7/5/2021 5:15:00 PM 23.44 74.192 0.152 7.27 2.89 7.95
7/5/2021 5:30:00 PM 23.37 74.066 0.153 7.26 3.12 7.93
7/5/2021 5:45:00 PM 23.29 73.922 0.153 7.26 2.84 7.91
7/5/2021 6:00:00 PM 23.21 73.778 0.153 7.25 3.13 7.88
7/5/2021 6:15:00 PM 23.1 73.58 0.152 7.25 3 7.85
7/5/2021 6:30:00 PM 22.96 73.328 0.153 7.24 2.79 7.8
7/5/2021 6:45:00 PM 22.83 73.094 0.153 7.23 2.91 7.77
7/5/2021 7:00:00 PM 22.69 72.842 0.153 7.22 2.96 7.74
7/5/2021 7:15:00 PM 22.56 72.608 0.153 7.21 2.95 7.69
7/5/2021 7:30:00 PM 22.41 72.338 0.153 7.19 2.94 7.64
7/5/2021 7:45:00 PM 22.29 72.122 0.154 7.18 2.84 7.58
7/5/2021 8:00:00 PM 22.16 71.888 0.154 7.17 3.1 7.51
7/5/2021 8:15:00 PM 22.03 71.654 0.154 7.15 3.42 7.45
7/5/2021 8:30:00 PM 21.91 71.438 0.155 7.14 2.97 7.37
7/5/2021 8:45:00 PM 21.81 71.258 0.155 7.13 3.2 7.3
7/5/2021 9:00:00 PM 21.7 71.06 0.155 7.12 2.95 7.25
7/5/2021 9:15:00 PM 21.6 70.88 0.156 7.1 2.97 7.2
7/5/2021 9:30:00 PM 21.52 70.736 0.155 7.1 3.12 7.16
7/5/2021 9:45:00 PM 21.43 70.574 0.156 7.09 3.05 7.13
7/5/2021 10:00:00 PM 21.35 70.43 0.156 7.08 2.85 7.11
7/5/2021 10:15:00 PM 21.27 70.286 0.156 7.07 3.35 7.09
7/5/2021 10:30:00 PM 21.2 70.16 0.157 7.07 3.18 7.08
7/5/2021 10:45:00 PM 21.12 70.016 0.157 7.07 3 7.08
7/5/2021 11:00:00 PM 21.05 69.89 0.158 7.06 3.13 7.08
7/5/2021 11:15:00 PM 20.99 69.782 0.157 7.06 3.14 7.08
7/5/2021 11:30:00 PM 20.94 69.692 0.158 7.06 3.11 7.07
7/5/2021 11:45:00 PM 20.89 69.602 0.158 7.06 3.01 7.09
7/6/2021 12:00:00 AM 20.84 69.512 0.158 7.06 3.5 7.08
7/6/2021 12:15:00 AM 20.79 69.422 0.158 7.06 3.07 7.08
7/6/2021 12:30:00 AM 20.76 69.368 0.158 7.05 3.06 7.07
7/6/2021 12:45:00 AM 20.71 69.278 0.159 7.05 3.03 7.08
7/6/2021 1:00:00 AM 20.67 69.206 0.159 7.05 2.93 7.08
7/6/2021 1:15:00 AM 20.64 69.152 0.159 7.05 3.16 7.08
7/6/2021 1:30:00 AM 20.61 69.098 0.159 7.05 3.06 7.08
7/6/2021 1:45:00 AM 20.58 69.044 0.159 7.05 2.88 7.09
7/6/2021 2:00:00 AM 20.55 68.99 0.159 7.05 2.97 7.08
7/6/2021 2:15:00 AM 20.52 68.936 0.159 7.05 3.01 7.08
7/6/2021 2:30:00 AM 20.48 68.864 0.159 7.05 3.02 7.08
7/6/2021 2:45:00 AM 20.45 68.81 0.16 7.05 2.91 7.09
7/6/2021 3:00:00 AM 20.42 68.756 0.161 7.05 2.9 7.09
7/6/2021 3:15:00 AM 20.39 68.702 0.161 7.05 2.93 7.08
7/6/2021 3:30:00 AM 20.37 68.666 0.16 7.05 2.77 7.08
7/6/2021 3:45:00 AM 20.34 68.612 0.161 7.05 2.91 7.08
7/6/2021 4:00:00 AM 20.31 68.558 0.161 7.05 2.84 7.09
7/6/2021 4:15:00 AM 20.29 68.522 0.161 7.05 2.68 7.08
7/6/2021 4:30:00 AM 20.26 68.468 0.161 7.05 3.19 7.08
7/6/2021 4:45:00 AM 20.24 68.432 0.161 7.04 2.89 7.08
7/6/2021 5:00:00 AM 20.23 68.414 0.161 7.04 2.9 7.07
7/6/2021 5:15:00 AM 20.2 68.36 0.161 7.04 3.06 7.08
7/6/2021 5:30:00 AM 20.18 68.324 0.161 7.04 2.88 7.07
7/6/2021 5:45:00 AM 20.16 68.288 0.161 7.04 2.86 7.08
7/6/2021 6:00:00 AM 20.15 68.27 0.162 7.04 2.72 7.08
7/6/2021 6:15:00 AM 20.15 68.27 0.162 7.05 2.92 7.1
7/6/2021 6:30:00 AM 20.15 68.27 0.162 7.05 2.94 7.13
7/6/2021 6:45:00 AM 20.16 68.288 0.162 7.06 2.46 7.18
7/6/2021 7:00:00 AM 20.18 68.324 0.162 7.06 2.61 7.22
7/6/2021 7:15:00 AM 20.21 68.378 0.162 7.07 2.6 7.28
7/6/2021 7:30:00 AM 20.25 68.45 0.162 7.08 2.57 7.36
7/6/2021 7:45:00 AM 20.29 68.522 0.162 7.08 2.67 7.44
7/6/2021 8:00:00 AM 20.35 68.63 0.162 7.09 2.47 7.53
7/6/2021 8:15:00 AM 20.43 68.774 0.162 7.1 2.55 7.61
7/6/2021 8:30:00 AM 20.51 68.918 0.161 7.11 2.43 7.66
7/6/2021 8:45:00 AM 20.64 69.152 0.161 7.13 2.51 7.75
7/6/2021 9:00:00 AM 20.81 69.458 0.162 7.14 2.38 7.84
7/6/2021 9:15:00 AM 20.97 69.746 0.162 7.15 2.47 7.91
7/6/2021 9:30:00 AM 21.14 70.052 0.162 7.17 2.87 7.95
7/6/2021 9:45:00 AM 21.33 70.394 0.162 7.17 2.44 7.98
7/6/2021 10:00:00 AM 21.49 70.682 0.162 7.19 2.42 8.01
7/6/2021 10:15:00 AM 21.61 70.898 0.162 7.19 2.45 8.02
7/6/2021 10:30:00 AM 21.77 71.186 0.162 7.2 2.17 8.05
7/6/2021 10:45:00 AM 21.97 71.546 0.162 7.21 2.28 8.06
7/6/2021 11:00:00 AM 22.16 71.888 0.162 7.21 2.27 8.07
7/6/2021 11:15:00 AM 22.34 72.212 0.163 7.22 2.24 8.07
7/6/2021 11:30:00 AM 22.5 72.5 0.162 7.23 2.14 8.09
7/6/2021 11:45:00 AM 22.63 72.734 0.162 7.23 2.4 8.08
7/6/2021 12:00:00 PM 22.77 72.986 0.163 7.23 2.08 8.1
7/6/2021 12:15:00 PM 22.98 73.364 0.163 7.24 2.14 8.11
7/6/2021 12:30:00 PM 23.12 73.616 0.163 7.24 2.19 8.11
7/6/2021 12:45:00 PM 23.3 73.94 0.164 7.25 2.32 8.1
7/6/2021 1:00:00 PM 23.48 74.264 0.164 7.25 2.15 8.1
7/6/2021 1:15:00 PM 23.66 74.588 0.164 7.26 2.12 8.09
7/6/2021 1:30:00 PM 23.82 74.876 0.164 7.26 2.07 8.08
7/6/2021 1:45:00 PM 23.96 75.128 0.164 7.26 2.07 8.09
7/6/2021 2:00:00 PM 24.03 75.254 0.164 7.26 2.07 8.04
7/6/2021 2:15:00 PM 24.09 75.362 0.164 7.26 2.1 8.02
7/6/2021 2:30:00 PM 24.24 75.632 0.164 7.27 1.99 8.04
7/6/2021 2:45:00 PM 24.31 75.758 0.164 7.27 2.15 8.04
7/6/2021 3:00:00 PM 24.31 75.758 0.164 7.27 2.06 8
7/6/2021 3:15:00 PM 24.17 75.506 0.163 7.26 2.11 7.9
7/6/2021 3:30:00 PM 23.94 75.092 0.163 7.25 2.33 7.72
7/6/2021 3:45:00 PM 23.73 74.714 0.163 7.22 6.19 7.59
7/6/2021 4:00:00 PM 23.57 74.426 0.162 7.2 4.48 7.48
7/6/2021 4:15:00 PM 23.44 74.192 0.163 7.19 3.26 7.42
7/6/2021 4:30:00 PM 23.31 73.958 0.163 7.18 2.78 7.46
7/6/2021 4:45:00 PM 23.24 73.832 0.163 7.18 2.74 7.53
7/6/2021 5:00:00 PM 23.19 73.742 0.163 7.18 2.68 7.62
7/6/2021 5:15:00 PM 23.17 73.706 0.163 7.19 2.52 7.69
7/6/2021 5:30:00 PM 23.19 73.742 0.163 7.19 2.6 7.74
7/6/2021 5:45:00 PM 23.21 73.778 0.163 7.2 2.46 7.77
7/6/2021 6:00:00 PM 23.15 73.67 0.163 7.2 2.52 7.73
7/6/2021 6:15:00 PM 23.09 73.562 0.162 7.19 2.71 7.66
7/6/2021 6:30:00 PM 22.97 73.346 0.162 7.18 3.04 7.55
7/6/2021 6:45:00 PM 22.84 73.112 0.16 7.18 5.37 7.54
7/6/2021 7:00:00 PM 22.71 72.878 0.159 7.17 6.07 7.44
7/6/2021 7:15:00 PM 22.64 72.752 0.16 7.15 5.41 7.34
7/6/2021 7:30:00 PM 22.59 72.662 0.161 7.15 3.73 7.38
7/6/2021 7:45:00 PM 22.56 72.608 0.16 7.14 3.73 7.37
7/6/2021 8:00:00 PM 22.5 72.5 0.161 7.14 3.55 7.33
7/6/2021 8:15:00 PM 22.4 72.32 0.161 7.13 8.53 7.28
7/6/2021 8:30:00 PM 22.33 72.194 0.161 7.11 3.34 7.2
7/6/2021 8:45:00 PM 22.23 72.014 0.162 7.1 2.87 7.11
7/6/2021 9:00:00 PM 22.12 71.816 0.163 7.08 2.76 7.03
7/6/2021 9:15:00 PM 22.05 71.69 0.164 7.07 2.83 6.96
7/6/2021 9:30:00 PM 21.97 71.546 0.164 7.07 2.68 6.9
7/6/2021 9:45:00 PM 21.88 71.384 0.165 7.06 2.69 6.85
7/6/2021 10:00:00 PM 21.82 71.276 0.166 7.05 2.44 6.82
7/6/2021 10:15:00 PM 21.76 71.168 0.166 7.04 2.66 6.77
7/6/2021 10:30:00 PM 21.7 71.06 0.166 7.04 2.26 6.76
7/6/2021 10:45:00 PM 21.64 70.952 0.166 7.04 2.53 6.73
7/6/2021 11:00:00 PM 21.58 70.844 0.167 7.03 2.63 6.73
7/6/2021 11:15:00 PM 21.53 70.754 0.167 7.03 2.32 6.72
7/6/2021 11:30:00 PM 21.49 70.682 0.167 7.03 2.49 6.72
7/6/2021 11:45:00 PM 21.44 70.592 0.167 7.03 2.31 6.73
7/7/2021 12:00:00 AM 21.39 70.502 0.167 7.03 2.43 6.72
7/7/2021 12:15:00 AM 21.33 70.394 0.168 7.03 2.53 6.73
7/7/2021 12:30:00 AM 21.3 70.34 0.168 7.03 2.42 6.74
7/7/2021 12:45:00 AM 21.27 70.286 0.168 7.03 2.47 6.73
7/7/2021 1:00:00 AM 21.23 70.214 0.168 7.03 2.31 6.74
7/7/2021 1:15:00 AM 21.19 70.142 0.168 7.03 2.54 6.74
7/7/2021 1:30:00 AM 21.16 70.088 0.169 7.03 2.58 6.76
7/7/2021 1:45:00 AM 21.14 70.052 0.169 7.03 2.3 6.77
7/7/2021 2:00:00 AM 21.12 70.016 0.169 7.03 2.28 6.77
7/7/2021 2:15:00 AM 21.1 69.98 0.169 7.03 2.81 6.77
7/7/2021 2:30:00 AM 21.06 69.908 0.169 7.03 2.56 6.79
7/7/2021 2:45:00 AM 21.02 69.836 0.17 7.03 2.54 6.81
7/7/2021 3:00:00 AM 20.99 69.782 0.169 7.04 2.74 6.81
7/7/2021 3:15:00 AM 20.96 69.728 0.169 7.04 2.37 6.82
7/7/2021 3:30:00 AM 20.92 69.656 0.169 7.04 2.28 6.83
7/7/2021 3:45:00 AM 20.9 69.62 0.169 7.03 2.41 6.84
7/7/2021 4:00:00 AM 20.88 69.584 0.169 7.03 2.78 6.84
7/7/2021 4:15:00 AM 20.87 69.566 0.169 7.03 2.64 6.84
7/7/2021 4:30:00 AM 20.85 69.53 0.169 7.03 2.91 6.84
7/7/2021 4:45:00 AM 20.84 69.512 0.169 7.03 2.63 6.84
7/7/2021 5:00:00 AM 20.83 69.494 0.169 7.03 2.79 6.84
7/7/2021 5:15:00 AM 20.81 69.458 0.169 7.03 2.91 6.84
7/7/2021 5:30:00 AM 20.8 69.44 0.169 7.03 2.72 6.82
7/7/2021 5:45:00 AM 20.77 69.386 0.17 7.03 2.64 6.85
7/7/2021 6:00:00 AM 20.76 69.368 0.169 7.04 2.48 6.84
7/7/2021 6:15:00 AM 20.74 69.332 0.169 7.04 2.66 6.87
7/7/2021 6:30:00 AM 20.73 69.314 0.169 7.04 2.76 6.93
7/7/2021 6:45:00 AM 20.73 69.314 0.169 7.05 3.15 6.98
7/7/2021 7:00:00 AM 20.75 69.35 0.169 7.06 3.49 7.06
7/7/2021 7:15:00 AM 20.76 69.368 0.17 7.06 2.57 7.13
7/7/2021 7:30:00 AM 20.77 69.386 0.169 7.07 2.42 7.18
7/7/2021 7:45:00 AM 20.79 69.422 0.169 7.07 2.42 7.23
7/7/2021 8:00:00 AM 20.82 69.476 0.169 7.08 2.37 7.33
7/7/2021 8:15:00 AM 20.87 69.566 0.169 7.09 2.5 7.45
7/7/2021 8:30:00 AM 20.9 69.62 0.169 7.1 2.45 7.49
7/7/2021 8:45:00 AM 20.95 69.71 0.169 7.11 2.29 7.59
7/7/2021 9:00:00 AM 21.05 69.89 0.169 7.12 2.5 7.71
7/7/2021 9:15:00 AM 21.19 70.142 0.168 7.14 2.32 7.8
7/7/2021 9:30:00 AM 21.33 70.394 0.168 7.15 2.41 7.88
7/7/2021 9:45:00 AM 21.48 70.664 0.169 7.16 2.65 7.94
7/7/2021 10:00:00 AM 21.65 70.97 0.169 7.17 2.33 7.99
7/7/2021 10:15:00 AM 21.87 71.366 0.168 7.18 49.98 8.03
7/7/2021 10:30:00 AM 22.11 71.798 0.169 7.19 2.41 8.08
7/7/2021 10:45:00 AM 22.33 72.194 0.169 7.2 2.57 8.11
7/7/2021 11:00:00 AM 22.51 72.518 0.169 7.21 2.53 8.11
7/7/2021 11:15:00 AM 22.62 72.716 0.168 7.22 2.35 8.09
7/7/2021 11:30:00 AM 22.79 73.022 0.168 7.22 2.14 8.1
7/7/2021 11:45:00 AM 22.89 73.202 0.168 7.23 2.35 8.1
7/7/2021 12:00:00 PM 23.1 73.58 0.169 7.24 2.21 8.12
7/7/2021 12:15:00 PM 23.34 74.012 0.17 7.24 2.13 8.15
7/7/2021 12:30:00 PM 23.52 74.336 0.17 7.25 2.2 8.16
7/7/2021 12:45:00 PM 23.73 74.714 0.17 7.26 1.97 8.16
7/7/2021 1:00:00 PM 23.85 74.93 0.17 7.26 2.01 8.18
7/7/2021 1:15:00 PM 23.97 75.146 0.169 7.27 2.02 8.16
7/7/2021 1:30:00 PM 24.01 75.218 0.169 7.27 2.11 8.13
7/7/2021 1:45:00 PM 24.08 75.344 0.17 7.27 1.93 8.12
7/7/2021 2:00:00 PM 24.22 75.596 0.169 7.27 2 8.12
7/7/2021 2:15:00 PM 24.36 75.848 0.17 7.28 1.86 8.15
7/7/2021 2:30:00 PM 24.51 76.118 0.17 7.28 1.93 8.14
7/7/2021 2:45:00 PM 24.6 76.28 0.17 7.28 1.89 8.14
7/7/2021 3:00:00 PM 24.69 76.442 0.169 7.28 2.08 8.12
7/7/2021 3:15:00 PM 24.77 76.586 0.17 7.28 1.95 8.12
7/7/2021 3:30:00 PM 24.83 76.694 0.17 7.29 3.7 8.12
7/7/2021 3:45:00 PM 24.84 76.712 0.169 7.28 1.98 8.09
7/7/2021 4:00:00 PM 24.84 76.712 0.169 7.28 1.8 8.04
7/7/2021 4:15:00 PM 24.86 76.748 0.168 7.28 2.11 8.01
7/7/2021 4:30:00 PM 24.87 76.766 0.169 7.28 1.99 8.01
7/7/2021 4:45:00 PM 24.87 76.766 0.169 7.27 2.03 7.99
7/7/2021 5:00:00 PM 24.84 76.712 0.169 7.27 2.39 7.96
7/7/2021 5:15:00 PM 24.78 76.604 0.169 7.26 2.27 7.92
7/7/2021 5:30:00 PM 24.73 76.514 0.168 7.26 2.21 7.89
7/7/2021 5:45:00 PM 24.64 76.352 0.168 7.25 2.2 7.84
7/7/2021 6:00:00 PM 24.56 76.208 0.168 7.24 2.13 7.8
7/7/2021 6:15:00 PM 24.46 76.028 0.168 7.23 2.42 7.75
7/7/2021 6:30:00 PM 24.36 75.848 0.168 7.22 2.97 7.67
7/7/2021 6:45:00 PM 24.27 75.686 0.168 7.21 2.28 7.61
7/7/2021 7:00:00 PM 24.16 75.488 0.168 7.2 2.7 7.54
7/7/2021 7:15:00 PM 24.02 75.236 0.168 7.18 2.44 7.43
7/7/2021 7:30:00 PM 23.88 74.984 0.168 7.16 2.53 7.26
7/7/2021 7:45:00 PM 23.74 74.732 0.169 7.14 2.78 7.12
7/7/2021 8:00:00 PM 23.6 74.48 0.169 7.12 3.57 6.98
7/7/2021 8:15:00 PM 23.46 74.228 0.169 7.11 3.07 6.89
7/7/2021 8:30:00 PM 23.34 74.012 0.169 7.09 2.61 6.83
7/7/2021 8:45:00 PM 23.23 73.814 0.17 7.08 2.56 6.76
7/7/2021 9:00:00 PM 23.14 73.652 0.169 7.07 2.77 6.68
7/7/2021 9:15:00 PM 23.04 73.472 0.17 7.06 2.48 6.62
7/7/2021 9:30:00 PM 22.94 73.292 0.17 7.05 2.24 6.57
7/7/2021 9:45:00 PM 22.84 73.112 0.17 7.05 2.37 6.54
7/7/2021 10:00:00 PM 22.34 72.212 0.158 7.1 21.97 7.07
7/7/2021 10:15:00 PM 22.06 71.708 0.154 7.11 18.73 7.15
7/7/2021 10:30:00 PM 22.09 71.762 0.159 7.07 16.34 6.89
7/7/2021 10:45:00 PM 22.06 71.708 0.16 7.07 8.95 6.85
7/7/2021 11:00:00 PM 21.97 71.546 0.156 7.07 9.96 6.87
7/7/2021 11:15:00 PM 21.9 71.42 0.154 7.06 11.55 6.89
7/7/2021 11:30:00 PM 21.89 71.402 0.153 7.07 15.97 6.92
7/7/2021 11:45:00 PM 21.75 71.15 0.16 7.06 21.73 6.99
7/8/2021 12:00:00 AM 21.52 70.736 0.161 7.07 79.16 7.14
7/8/2021 12:15:00 AM 21.79 71.222 0.146 7.15 93.45 7.41
7/8/2021 12:30:00 AM 21.9 71.42 0.145 7.18 98.64 7.53
7/8/2021 12:45:00 AM 21.73 71.114 0.149 7.2 149.81 7.6
7/8/2021 1:00:00 AM 21.23 70.214 0.14 7.23 458.3 7.89
7/8/2021 1:15:00 AM 21.66 70.988 0.137 7.26 412.48 7.99
7/8/2021 1:30:00 AM 21.73 71.114 0.133 7.28 327.87 8.09
7/8/2021 1:45:00 AM 21.36 70.448 0.124 7.23 425.24 8.19
7/8/2021 2:00:00 AM 20.92 69.656 0.114 7.18 739.07 8.29
7/8/2021 2:15:00 AM 20.69 69.242 0.107 7.16 576.36 8.34
7/8/2021 2:30:00 AM 20.6 69.08 0.109 7.16 392.51 8.36
7/8/2021 2:45:00 AM 20.47 68.846 0.106 7.16 316.15 8.39
7/8/2021 3:00:00 AM 20.32 68.576 0.102 7.15 244.72 8.41
7/8/2021 3:15:00 AM 20.19 68.342 0.097 7.14 279.56 8.42
7/8/2021 3:30:00 AM 20.11 68.198 0.063 7.14 254.5 8.43
7/8/2021 3:45:00 AM 20.05 68.09 0.093 7.14 204.71 8.43
7/8/2021 4:00:00 AM 20.01 68.018 0.095 7.14 182.59 8.42
7/8/2021 4:15:00 AM 19.99 67.982 0.097 7.14 185.07 8.42
7/8/2021 4:30:00 AM 19.98 67.964 0.1 7.14 156.63 8.4
7/8/2021 4:45:00 AM 19.97 67.946 0.097 7.14 126.34 8.4
7/8/2021 5:00:00 AM 19.96 67.92799 0.098 7.14 147.59 8.38
7/8/2021 5:15:00 AM 19.94 67.892 0.098 7.14 165.73 8.38
7/8/2021 5:30:00 AM 19.92 67.856 0.098 7.14 115.33 8.37
7/8/2021 5:45:00 AM 19.89 67.802 0.097 7.14 114.3 8.36
7/8/2021 6:00:00 AM 19.88 67.784 0.098 7.15 88.73 8.35
7/8/2021 6:15:00 AM 19.86 67.748 0.097 7.14 123.82 8.34
7/8/2021 6:30:00 AM 19.85 67.73 0.097 7.14 73.9 8.34
7/8/2021 6:45:00 AM 19.84 67.712 0.098 7.15 76.26 8.33
7/8/2021 7:00:00 AM 19.86 67.748 0.098 7.14 57.93 8.34
7/8/2021 7:15:00 AM 19.91 67.838 0.098 7.15 73.3 8.34
7/8/2021 7:30:00 AM 19.98 67.964 0.099 7.17 63.98 8.35
7/8/2021 7:45:00 AM 20.06 68.108 0.099 7.17 47.48 8.36
7/8/2021 8:00:00 AM 20.12 68.216 0.1 7.18 51.19 8.37
7/8/2021 8:15:00 AM 20.14 68.252 0.101 7.18 43.66 8.36
7/8/2021 8:30:00 AM 20.18 68.324 0.101 7.19 37.6 8.35
7/8/2021 8:45:00 AM 20.28 68.504 0.102 7.2 50.92 8.37
7/8/2021 9:00:00 AM 20.38 68.684 0.102 7.21 41.71 8.39
7/8/2021 9:15:00 AM 20.47 68.846 0.103 7.22 36.95 8.4
7/8/2021 9:30:00 AM 20.58 69.044 0.103 7.23 29.05 8.41
7/8/2021 9:45:00 AM 20.72 69.296 0.104 7.24 29.82 8.42
7/8/2021 10:00:00 AM 20.82 69.476 0.104 7.25 29.25 8.43
7/8/2021 10:15:00 AM 20.99 69.782 0.105 7.26 30.27 8.43
7/8/2021 10:30:00 AM 21.11 69.998 0.105 7.27 25.81 8.44
7/8/2021 10:45:00 AM 21.19 70.142 0.106 7.28 30.46 8.41
7/8/2021 11:00:00 AM 21.23 70.214 0.106 7.28 26.23 8.39
7/8/2021 11:15:00 AM 21.3 70.34 0.107 7.29 25.47 8.37
7/8/2021 11:30:00 AM 21.4 70.52 0.108 7.3 24.33 8.38
7/8/2021 11:45:00 AM 21.49 70.682 0.108 7.31 20.2 8.38
7/8/2021 12:00:00 PM 21.54 70.772 0.108 7.31 19.2 8.36
7/8/2021 12:15:00 PM 21.61 70.898 0.109 7.31 21.25 8.34
7/8/2021 12:30:00 PM 21.72 71.096 0.11 7.32 19.7 8.35
7/8/2021 12:45:00 PM 21.79 71.222 0.11 7.33 18.88 8.37
7/8/2021 1:00:00 PM 21.82 71.276 0.11 7.33 18.35 8.34
7/8/2021 1:15:00 PM 21.81 71.258 0.111 7.32 19.15 8.3
7/8/2021 1:30:00 PM 21.8 71.24 0.111 7.32 17.85 8.27
7/8/2021 1:45:00 PM 21.8 71.24 0.112 7.31 17.46 8.25
7/8/2021 2:00:00 PM 21.86 71.348 0.113 7.32 16.29 8.26
7/8/2021 2:15:00 PM 21.89 71.402 0.113 7.32 16.66 8.28
7/8/2021 2:30:00 PM 21.95 71.51 0.113 7.33 15.24 8.29
7/8/2021 2:45:00 PM 21.98 71.564 0.114 7.33 15.03 8.28
7/8/2021 3:00:00 PM 21.99 71.582 0.115 7.33 14.9 8.26
7/8/2021 3:15:00 PM 21.98 71.564 0.115 7.33 14.4 8.22
7/8/2021 3:30:00 PM 21.98 71.564 0.116 7.32 13.22 8.19
7/8/2021 3:45:00 PM 21.98 71.564 0.116 7.32 14 8.19
7/8/2021 4:00:00 PM 22.03 71.654 0.117 7.32 13.38 8.21
7/8/2021 4:15:00 PM 22.15 71.87 0.117 7.33 13.68 8.24
7/8/2021 4:30:00 PM 22.21 71.978 0.117 7.34 12.4 8.27
7/8/2021 4:45:00 PM 22.24 72.032 0.118 7.35 12.63 8.25
7/8/2021 5:00:00 PM 22.22 71.996 0.118 7.33 13.21 8.18
7/8/2021 5:15:00 PM 22.18 71.924 0.118 7.32 12.08 8.09
7/8/2021 5:30:00 PM 22.14 71.852 0.119 7.3 12.1 8.04
7/8/2021 5:45:00 PM 22.09 71.762 0.119 7.29 12.35 7.99
7/8/2021 6:00:00 PM 22.06 71.708 0.12 7.28 11.59 7.94
7/8/2021 6:15:00 PM 22.04 71.672 0.12 7.27 11.71 7.9
7/8/2021 6:30:00 PM 22.02 71.636 0.121 7.26 10.94 7.87
7/8/2021 6:45:00 PM 21.99 71.582 0.121 7.25 10.6 7.82
7/8/2021 7:00:00 PM 21.96 71.528 0.122 7.24 11.34 7.78
7/8/2021 7:15:00 PM 21.93 71.474 0.122 7.23 10.9 7.75
7/8/2021 7:30:00 PM 21.89 71.402 0.123 7.22 11.02 7.74
7/8/2021 7:45:00 PM 21.84 71.312 0.123 7.22 10.61 7.72
7/8/2021 8:00:00 PM 21.79 71.222 0.123 7.21 10.75 7.69
7/8/2021 8:15:00 PM 21.74 71.132 0.124 7.2 11.06 7.66
7/8/2021 8:30:00 PM 21.69 71.042 0.124 7.2 10.9 7.64
7/8/2021 8:45:00 PM 21.64 70.952 0.125 7.18 10.45 7.61
7/8/2021 9:00:00 PM 21.6 70.88 0.125 7.19 10.09 7.6
7/8/2021 9:15:00 PM 21.55 70.79 0.125 7.19 9.83 7.6
7/8/2021 9:30:00 PM 21.5 70.7 0.125 7.18 10.53 7.59
7/8/2021 9:45:00 PM 21.45 70.61 0.125 7.18 10.73 7.59
7/8/2021 10:00:00 PM 21.41 70.538 0.126 7.18 9.61 7.58
7/8/2021 10:15:00 PM 21.37 70.466 0.126 7.17 9.33 7.58
7/8/2021 10:30:00 PM 21.33 70.394 0.126 7.17 9.29 7.58
7/8/2021 10:45:00 PM 21.28 70.304 0.127 7.17 10.08 7.59
7/8/2021 11:00:00 PM 21.24 70.232 0.127 7.17 9.64 7.58
7/8/2021 11:15:00 PM 21.2 70.16 0.127 7.16 8.54 7.58
7/8/2021 11:30:00 PM 21.16 70.088 0.127 7.16 9.54 7.58
7/8/2021 11:45:00 PM 21.12 70.016 0.128 7.16 9.3 7.59
7/9/2021 12:00:00 AM 21.08 69.944 0.129 7.16 9.42 7.58
7/9/2021 12:15:00 AM 21.05 69.89 0.129 7.16 9.23 7.59
7/9/2021 12:30:00 AM 21.01 69.818 0.129 7.15 9.13 7.59
7/9/2021 12:45:00 AM 20.98 69.764 0.13 7.15 8.22 7.6
7/9/2021 1:00:00 AM 20.94 69.692 0.13 7.15 8.98 7.6
7/9/2021 1:15:00 AM 20.91 69.638 0.13 7.15 9.23 7.6
7/9/2021 1:30:00 AM 20.88 69.584 0.131 7.15 8.43 7.6
7/9/2021 1:45:00 AM 20.85 69.53 0.131 7.16 8.68 7.61
7/9/2021 2:00:00 AM 20.82 69.476 0.131 7.16 8.17 7.61
7/9/2021 2:15:00 AM 20.79 69.422 0.133 7.15 8.08 7.61
7/9/2021 2:30:00 AM 20.76 69.368 0.132 7.15 8.24 7.61
7/9/2021 2:45:00 AM 20.73 69.314 0.133 7.15 8.4 7.62
7/9/2021 3:00:00 AM 20.7 69.26 0.132 7.15 8.7 7.62
7/9/2021 3:15:00 AM 20.66 69.188 0.133 7.15 7.95 7.62
7/9/2021 3:30:00 AM 20.63 69.134 0.132 7.15 8.17 7.63
7/9/2021 3:45:00 AM 20.6 69.08 0.132 7.15 7.56 7.63
7/9/2021 4:00:00 AM 20.55 68.99 0.132 7.14 7.76 7.63
7/9/2021 4:15:00 AM 20.51 68.918 0.132 7.15 7.58 7.63
7/9/2021 4:30:00 AM 20.47 68.846 0.133 7.14 7.27 7.64
7/9/2021 4:45:00 AM 20.43 68.774 0.133 7.15 8.42 7.64
7/9/2021 5:00:00 AM 20.39 68.702 0.133 7.14 7.99 7.65
7/9/2021 5:15:00 AM 20.37 68.666 0.134 7.14 7.42 7.65
7/9/2021 5:30:00 AM 20.35 68.63 0.134 7.15 7.95 7.65
7/9/2021 5:45:00 AM 20.33 68.594 0.134 7.14 8.08 7.65
7/9/2021 6:00:00 AM 20.31 68.558 0.134 7.15 7.99 7.66
7/9/2021 6:15:00 AM 20.3 68.54 0.134 7.14 7.55 7.67
7/9/2021 6:30:00 AM 20.29 68.522 0.134 7.15 7.61 7.69
7/9/2021 6:45:00 AM 20.28 68.504 0.135 7.15 7.28 7.71
7/9/2021 7:00:00 AM 20.27 68.486 0.135 7.16 7.14 7.74
7/9/2021 7:15:00 AM 20.27 68.486 0.135 7.16 6.54 7.78
7/9/2021 7:30:00 AM 20.29 68.522 0.135 7.17 6.52 7.84
7/9/2021 7:45:00 AM 20.32 68.576 0.135 7.18 6.63 7.92
7/9/2021 8:00:00 AM 20.36 68.648 0.135 7.2 6.78 8
7/9/2021 8:15:00 AM 20.45 68.81 0.135 7.21 6.07 8.1
7/9/2021 8:30:00 AM 20.54 68.972 0.135 7.23 6.12 8.17
7/9/2021 8:45:00 AM 20.69 69.242 0.135 7.25 6.15 8.25
7/9/2021 9:00:00 AM 20.82 69.476 0.135 7.27 5.94 8.3
7/9/2021 9:15:00 AM 20.89 69.602 0.135 7.28 5.62 8.34
7/9/2021 9:30:00 AM 20.96 69.728 0.136 7.29 5.84 8.36
7/9/2021 9:45:00 AM 21.09 69.962 0.136 7.3 5.82 8.39
7/9/2021 10:00:00 AM 21.22 70.196 0.135 7.31 5.25 8.41
7/9/2021 10:15:00 AM 21.41 70.538 0.135 7.33 5.37 8.43
7/9/2021 10:30:00 AM 21.56 70.808 0.135 7.34 5.71 8.44
7/9/2021 10:45:00 AM 21.8 71.24 0.136 7.35 5.69 8.43
7/9/2021 11:00:00 AM 21.88 71.384 0.136 7.35 5.29 8.42
7/9/2021 11:15:00 AM 22.05 71.69 0.136 7.36 5.5 8.42
7/9/2021 11:30:00 AM 22.2 71.96 0.136 7.36 5.49 8.42
7/9/2021 11:45:00 AM 22.31 72.158 0.136 7.37 5.02 8.41
7/9/2021 12:00:00 PM 22.43 72.374 0.136 7.37 4.91 8.4
7/9/2021 12:15:00 PM 22.55 72.59 0.136 7.38 5.06 8.39
7/9/2021 12:30:00 PM 22.61 72.698 0.136 7.38 5.16 8.37
7/9/2021 12:45:00 PM 22.84 73.112 0.136 7.39 5.39 8.37
7/9/2021 1:00:00 PM 23.01 73.418 0.137 7.39 4.91 8.37
7/9/2021 1:15:00 PM 23.13 73.634 0.137 7.39 5.15 8.34
7/9/2021 1:30:00 PM 23.2 73.76 0.136 7.4 4.99 8.31
7/9/2021 1:45:00 PM 23.25 73.85 0.137 7.4 4.53 8.28
7/9/2021 2:00:00 PM 23.23 73.814 0.137 7.39 4.92 8.23
7/9/2021 2:15:00 PM 23.2 73.76 0.137 7.39 4.88 8.22
7/9/2021 2:30:00 PM 23.21 73.778 0.137 7.39 4.97 8.22
7/9/2021 2:45:00 PM 23.22 73.796 0.137 7.39 5.22 8.23
7/9/2021 3:00:00 PM 23.35 74.03 0.137 7.39 4.99 8.25
7/9/2021 3:15:00 PM 23.5 74.3 0.137 7.4 4.72 8.28
7/9/2021 3:30:00 PM 23.63 74.534 0.137 7.4 4.64 8.25
7/9/2021 3:45:00 PM 23.51 74.318 0.137 7.39 4.74 8.1
7/9/2021 4:00:00 PM 23.33 73.994 0.136 7.36 5.92 7.96
7/9/2021 4:15:00 PM 23.17 73.706 0.137 7.33 5.56 7.76
7/9/2021 4:30:00 PM 23.02 73.436 0.137 7.3 5.43 7.67
7/9/2021 4:45:00 PM 22.88 73.184 0.137 7.28 5.37 7.66
7/9/2021 5:00:00 PM 22.77 72.986 0.137 7.28 4.92 7.74
7/9/2021 5:15:00 PM 22.8 73.04 0.137 7.29 5.24 7.87
7/9/2021 5:30:00 PM 22.88 73.184 0.137 7.31 5.46 7.98
7/9/2021 5:45:00 PM 22.91 73.238 0.138 7.32 5.11 8.04
7/9/2021 6:00:00 PM 22.9 73.22 0.138 7.32 5.9 8.04
7/9/2021 6:15:00 PM 22.88 73.184 0.138 7.32 5.45 8
7/9/2021 6:30:00 PM 22.87 73.166 0.139 7.32 5.02 7.99
7/9/2021 6:45:00 PM 22.86 73.148 0.139 7.32 4.57 7.96
7/9/2021 7:00:00 PM 22.82 73.076 0.139 7.31 4.81 7.95
7/9/2021 7:15:00 PM 22.71 72.878 0.14 7.3 4.61 7.91
7/9/2021 7:30:00 PM 22.58 72.644 0.14 7.29 4.89 7.83
7/9/2021 7:45:00 PM 22.44 72.392 0.14 7.27 4.73 7.74
7/9/2021 8:00:00 PM 22.35 72.23 0.141 7.26 4.68 7.69
7/9/2021 8:15:00 PM 22.26 72.068 0.141 7.25 4.54 7.65
7/9/2021 8:30:00 PM 22.21 71.978 0.14 7.28 8.62 7.71
7/9/2021 8:45:00 PM 22.24 72.032 0.135 7.32 8.49 7.79
7/9/2021 9:00:00 PM 22.22 71.996 0.133 7.31 10.06 7.77
7/9/2021 9:15:00 PM 22.17 71.906 0.13 7.3 10.29 7.74
7/9/2021 9:30:00 PM 22.12 71.816 0.129 7.29 10.25 7.73
7/9/2021 9:45:00 PM 22.04 71.672 0.128 7.27 10.72 7.72
7/9/2021 10:00:00 PM 21.96 71.528 0.127 7.26 11.4 7.72
7/9/2021 10:15:00 PM 21.86 71.348 0.126 7.25 15.98 7.72
7/9/2021 10:30:00 PM 21.77 71.186 0.124 7.24 33.63 7.72
7/9/2021 10:45:00 PM 21.66 70.988 0.122 7.22 47.51 7.72
7/9/2021 11:00:00 PM 21.54 70.772 0.121 7.2 68.07 7.73
7/9/2021 11:15:00 PM 21.42 70.556 0.12 7.19 82.25 7.73
7/9/2021 11:30:00 PM 21.31 70.358 0.12 7.18 79.02 7.73
7/9/2021 11:45:00 PM 21.23 70.214 0.12 7.18 98.03 7.74
7/10/2021 12:00:00 AM 21.16 70.088 0.12 7.17 55.79 7.74
7/10/2021 12:15:00 AM 21.1 69.98 0.121 7.17 64.36 7.75
7/10/2021 12:30:00 AM 21.03 69.854 0.121 7.17 58.07 7.75
7/10/2021 12:45:00 AM 20.97 69.746 0.121 7.17 41.28 7.75
7/10/2021 1:00:00 AM 20.91 69.638 0.121 7.16 50.88 7.76
7/10/2021 1:15:00 AM 20.85 69.53 0.121 7.16 38.79 7.76
7/10/2021 1:30:00 AM 20.78 69.404 0.121 7.16 32.89 7.76
7/10/2021 1:45:00 AM 20.71 69.278 0.121 7.15 33.53 7.76
7/10/2021 2:00:00 AM 20.65 69.17 0.121 7.15 30.13 7.77
7/10/2021 2:15:00 AM 20.59 69.062 0.12 7.15 25.42 7.77
7/10/2021 2:30:00 AM 20.53 68.954 0.12 7.15 27.21 7.77
7/10/2021 2:45:00 AM 20.47 68.846 0.12 7.14 27.89 7.77
7/10/2021 3:00:00 AM 20.42 68.756 0.121 7.14 18.34 7.78
7/10/2021 3:15:00 AM 20.36 68.648 0.121 7.14 24.02 7.77
7/10/2021 3:30:00 AM 20.3 68.54 0.121 7.14 21.99 7.78
7/10/2021 3:45:00 AM 20.25 68.45 0.121 7.14 21.07 7.79
7/10/2021 4:00:00 AM 20.21 68.378 0.122 7.14 19.14 7.78
7/10/2021 4:15:00 AM 20.19 68.342 0.122 7.14 18.19 7.79
7/10/2021 4:30:00 AM 20.16 68.288 0.123 7.14 17.92 7.79
7/10/2021 4:45:00 AM 20.13 68.234 0.123 7.14 18.09 7.79
7/10/2021 5:00:00 AM 20.1 68.18 0.124 7.14 17.57 7.79
7/10/2021 5:15:00 AM 20.08 68.144 0.124 7.14 15.6 7.8
7/10/2021 5:30:00 AM 20.03 68.054 0.124 7.15 17.4 7.86
7/10/2021 5:45:00 AM 19.96 67.92799 0.121 7.19 18.1 8.01
7/10/2021 6:00:00 AM 19.9 67.82 0.12 7.18 18.46 8.06
7/10/2021 6:15:00 AM 19.85 67.73 0.12 7.18 18.14 8.07
7/10/2021 6:30:00 AM 19.83 67.694 0.119 7.18 17.8 8.08
7/10/2021 6:45:00 AM 19.81 67.658 0.119 7.18 16.63 8.08
7/10/2021 7:00:00 AM 19.8 67.64 0.119 7.18 14.92 8.09
7/10/2021 7:15:00 AM 19.79 67.622 0.12 7.18 14.46 8.1
7/10/2021 7:30:00 AM 19.81 67.658 0.12 7.18 14.41 8.13
7/10/2021 7:45:00 AM 19.84 67.712 0.121 7.19 13.74 8.18
7/10/2021 8:00:00 AM 19.85 67.73 0.121 7.2 13.42 8.22
7/10/2021 8:15:00 AM 19.88 67.784 0.122 7.21 12.53 8.26
7/10/2021 8:30:00 AM 19.89 67.802 0.122 7.21 11.52 8.27
7/10/2021 8:45:00 AM 19.89 67.802 0.122 7.22 11.35 8.27
7/10/2021 9:00:00 AM 19.89 67.802 0.123 7.22 10.41 8.27
7/10/2021 9:15:00 AM 19.89 67.802 0.123 7.22 11.07 8.27
7/10/2021 9:30:00 AM 19.91 67.838 0.124 7.23 10.44 8.29
7/10/2021 9:45:00 AM 19.94 67.892 0.124 7.23 10.38 8.33
7/10/2021 10:00:00 AM 19.97 67.946 0.125 7.25 12.99 8.36
7/10/2021 10:15:00 AM 20.03 68.054 0.124 7.25 20.06 8.4
7/10/2021 10:30:00 AM 20.08 68.144 0.124 7.25 21.8 8.4
7/10/2021 10:45:00 AM 20.14 68.252 0.124 7.25 57.29 8.39
7/10/2021 11:00:00 AM 20.23 68.414 0.123 7.26 32.56 8.41
7/10/2021 11:15:00 AM 20.31 68.558 0.123 7.26 89 8.42
7/10/2021 11:30:00 AM 20.47 68.846 0.122 7.27 39.74 8.47
7/10/2021 11:45:00 AM 20.6 69.08 0.122 7.28 46.86 8.52
7/10/2021 12:00:00 PM 20.69 69.242 0.122 7.29 63.5 8.54
7/10/2021 12:15:00 PM 20.93 69.674 0.121 7.3 49.48 8.58
7/10/2021 12:30:00 PM 21.2 70.16 0.121 7.32 39.29 8.62
7/10/2021 12:45:00 PM 21.42 70.556 0.122 7.34 54.3 8.67
7/10/2021 1:00:00 PM 21.65 70.97 0.122 7.36 34.56 8.7
7/10/2021 1:15:00 PM 21.8 71.24 0.123 7.37 33.93 8.7
7/10/2021 1:30:00 PM 21.93 71.474 0.123 7.38 27.59 8.7
7/10/2021 1:45:00 PM 22.08 71.744 0.123 7.4 23.42 8.71
7/10/2021 2:00:00 PM 22.32 72.176 0.124 7.41 22.65 8.69
7/10/2021 2:15:00 PM 22.53 72.554 0.124 7.42 19.72 8.66
7/10/2021 2:30:00 PM 22.58 72.644 0.124 7.42 18.86 8.59
7/10/2021 2:45:00 PM 22.6 72.68 0.125 7.42 15.84 8.57
7/10/2021 3:00:00 PM 22.63 72.734 0.125 7.42 15.08 8.55
7/10/2021 3:15:00 PM 22.64 72.752 0.126 7.42 13.06 8.53
7/10/2021 3:30:00 PM 22.67 72.806 0.126 7.43 12.18 8.57
7/10/2021 3:45:00 PM 22.9 73.22 0.126 7.44 11.35 8.58
7/10/2021 4:00:00 PM 23.1 73.58 0.127 7.45 10.85 8.54
7/10/2021 4:15:00 PM 23.15 73.67 0.127 7.45 10.06 8.51
7/10/2021 4:30:00 PM 23.03 73.454 0.127 7.44 9.45 8.45
7/10/2021 4:45:00 PM 22.96 73.328 0.128 7.43 8.89 8.42
7/10/2021 5:00:00 PM 22.87 73.166 0.128 7.43 8.71 8.4
7/10/2021 5:15:00 PM 22.83 73.094 0.128 7.42 8.26 8.38
7/10/2021 5:30:00 PM 22.75 72.95 0.129 7.41 8.5 8.35
7/10/2021 5:45:00 PM 22.7 72.86 0.129 7.4 7.64 8.32
7/10/2021 6:00:00 PM 22.65 72.77 0.129 7.38 7.52 8.25
7/10/2021 6:15:00 PM 22.63 72.734 0.13 7.37 7.31 8.21
7/10/2021 6:30:00 PM 22.56 72.608 0.13 7.35 6.94 8.13
7/10/2021 6:45:00 PM 22.48 72.464 0.131 7.34 7.69 8.04
7/10/2021 7:00:00 PM 22.35 72.23 0.131 7.31 7.04 7.94
7/10/2021 7:15:00 PM 22.24 72.032 0.131 7.3 6.91 7.92
7/10/2021 7:30:00 PM 22.15 71.87 0.132 7.28 6.61 7.86
7/10/2021 7:45:00 PM 22.06 71.708 0.132 7.26 6.16 7.8
7/10/2021 8:00:00 PM 21.95 71.51 0.132 7.25 6.75 7.74
7/10/2021 8:15:00 PM 21.85 71.33 0.133 7.23 7.26 7.66
7/10/2021 8:30:00 PM 21.75 71.15 0.133 7.21 6.03 7.6
7/10/2021 8:45:00 PM 21.65 70.97 0.134 7.2 6.5 7.55
7/10/2021 9:00:00 PM 21.57 70.826 0.134 7.18 6.07 7.49
7/10/2021 9:15:00 PM 21.47 70.646 0.135 7.17 6.45 7.45
7/10/2021 9:30:00 PM 21.38 70.484 0.135 7.16 6.14 7.42
7/10/2021 9:45:00 PM 21.28 70.304 0.135 7.15 6.11 7.41
7/10/2021 10:00:00 PM 21.19 70.142 0.136 7.15 6.21 7.39
7/10/2021 10:15:00 PM 21.1 69.98 0.136 7.14 6.03 7.4
7/10/2021 10:30:00 PM 21.02 69.836 0.136 7.14 6.32 7.4
7/10/2021 10:45:00 PM 20.94 69.692 0.137 7.13 6.53 7.41
7/10/2021 11:00:00 PM 20.86 69.548 0.137 7.13 5.83 7.4
7/10/2021 11:15:00 PM 20.8 69.44 0.137 7.13 5.71 7.41
7/10/2021 11:30:00 PM 20.72 69.296 0.138 7.13 6.28 7.42
7/10/2021 11:45:00 PM 20.65 69.17 0.138 7.12 6.43 7.42
7/11/2021 12:00:00 AM 20.58 69.044 0.138 7.12 5.82 7.43
7/11/2021 12:15:00 AM 20.51 68.918 0.138 7.12 5.57 7.45
7/11/2021 12:30:00 AM 20.44 68.792 0.138 7.12 5.63 7.45
7/11/2021 12:45:00 AM 20.37 68.666 0.139 7.12 5.37 7.46
7/11/2021 1:00:00 AM 20.31 68.558 0.139 7.12 5.61 7.43
7/11/2021 1:15:00 AM 20.24 68.432 0.139 7.12 5.57 7.47
7/11/2021 1:30:00 AM 20.18 68.324 0.139 7.12 5.67 7.49
7/11/2021 1:45:00 AM 20.13 68.234 0.14 7.11 5.65 7.49
7/11/2021 2:00:00 AM 20.08 68.144 0.14 7.11 5.14 7.47
7/11/2021 2:15:00 AM 20.03 68.054 0.14 7.11 5.49 7.49
7/11/2021 2:30:00 AM 19.99 67.982 0.14 7.11 5.69 7.5
7/11/2021 2:45:00 AM 19.95 67.91 0.141 7.11 5.01 7.51
7/11/2021 3:00:00 AM 19.92 67.856 0.14 7.11 4.73 7.51
7/11/2021 3:15:00 AM 19.88 67.784 0.141 7.11 4.78 7.52
7/11/2021 3:30:00 AM 19.84 67.712 0.141 7.11 4.77 7.52
7/11/2021 3:45:00 AM 19.81 67.658 0.141 7.11 4.63 7.53
7/11/2021 4:00:00 AM 19.77 67.586 0.141 7.11 4.86 7.52
7/11/2021 4:15:00 AM 19.73 67.514 0.141 7.11 4.55 7.54
7/11/2021 4:30:00 AM 19.69 67.442 0.141 7.11 4.55 7.55
7/11/2021 4:45:00 AM 19.65 67.37 0.142 7.11 4.82 7.56
7/11/2021 5:00:00 AM 19.61 67.298 0.142 7.11 4.64 7.56
7/11/2021 5:15:00 AM 19.56 67.208 0.142 7.11 4.75 7.57
7/11/2021 5:30:00 AM 19.53 67.154 0.142 7.11 4.82 7.57
7/11/2021 5:45:00 AM 19.5 67.1 0.143 7.11 4.59 7.58
7/11/2021 6:00:00 AM 19.48 67.064 0.143 7.1 4.72 7.57
7/11/2021 6:15:00 AM 19.45 67.01 0.143 7.11 4.47 7.59
7/11/2021 6:30:00 AM 19.42 66.956 0.143 7.11 4.74 7.62
7/11/2021 6:45:00 AM 19.4 66.92 0.143 7.11 4.35 7.63
7/11/2021 7:00:00 AM 19.38 66.884 0.143 7.11 4.37 7.66
7/11/2021 7:15:00 AM 19.37 66.866 0.143 7.12 4.41 7.7
7/11/2021 7:30:00 AM 19.36 66.848 0.143 7.12 4.31 7.76
7/11/2021 7:45:00 AM 19.36 66.848 0.143 7.13 4.29 7.82
7/11/2021 8:00:00 AM 19.37 66.866 0.143 7.14 4.12 7.91
7/11/2021 8:15:00 AM 19.38 66.884 0.143 7.16 4.13 8.02
7/11/2021 8:30:00 AM 19.41 66.938 0.143 7.17 4.13 8.13
7/11/2021 8:45:00 AM 19.45 67.01 0.143 7.19 4.47 8.23
7/11/2021 9:00:00 AM 19.5 67.1 0.143 7.21 4.25 8.36
7/11/2021 9:15:00 AM 19.55 67.19 0.143 7.22 4.45 8.41
7/11/2021 9:30:00 AM 19.6 67.28 0.143 7.24 4.41 8.52
7/11/2021 9:45:00 AM 19.66 67.388 0.143 7.25 4.34 8.57
7/11/2021 10:00:00 AM 19.7 67.46 0.143 7.26 3.89 8.59
7/11/2021 10:15:00 AM 19.75 67.55 0.143 7.27 4.04 8.65
7/11/2021 10:30:00 AM 19.81 67.658 0.143 7.28 4.16 8.67
7/11/2021 10:45:00 AM 19.86 67.748 0.143 7.29 3.99 8.7
7/11/2021 11:00:00 AM 19.91 67.838 0.143 7.29 3.84 8.72
7/11/2021 11:15:00 AM 19.97 67.946 0.143 7.3 3.88 8.74
7/11/2021 11:30:00 AM 20.01 68.018 0.143 7.3 3.75 8.72
7/11/2021 11:45:00 AM 20.01 68.018 0.143 7.3 3.7 8.64
7/11/2021 12:00:00 PM 20.02 68.036 0.143 7.29 3.6 8.6
7/11/2021 12:15:00 PM 20.02 68.036 0.143 7.29 3.73 8.55
7/11/2021 12:30:00 PM 20 68 0.143 7.28 3.6 8.52
7/11/2021 12:45:00 PM 19.98 67.964 0.144 7.27 3.56 8.46
7/11/2021 1:00:00 PM 19.97 67.946 0.143 7.27 3.55 8.46
7/11/2021 1:15:00 PM 19.95 67.91 0.143 7.26 3.66 8.41
7/11/2021 1:30:00 PM 19.93 67.874 0.143 7.26 3.8 8.39
7/11/2021 1:45:00 PM 19.92 67.856 0.143 7.26 3.4 8.39
7/11/2021 2:00:00 PM 19.9 67.82 0.143 7.25 3.73 8.35
7/11/2021 2:15:00 PM 19.9 67.82 0.143 7.25 3.65 8.35
7/11/2021 2:30:00 PM 19.91 67.838 0.143 7.26 3.49 8.4
7/11/2021 2:45:00 PM 19.91 67.838 0.143 7.25 3.38 8.39
7/11/2021 3:00:00 PM 19.9 67.82 0.143 7.25 3.4 8.36
7/11/2021 3:15:00 PM 19.89 67.802 0.143 7.24 3.58 8.31
7/11/2021 3:30:00 PM 19.88 67.784 0.144 7.23 3.58 8.27
7/11/2021 3:45:00 PM 19.86 67.748 0.144 7.22 3.67 8.18
7/11/2021 4:00:00 PM 19.84 67.712 0.144 7.21 3.38 8.12
7/11/2021 4:15:00 PM 19.82 67.676 0.144 7.2 3.48 8.07
7/11/2021 4:30:00 PM 19.8 67.64 0.144 7.19 3.6 8.02
7/11/2021 4:45:00 PM 19.77 67.586 0.145 7.19 3.57 7.98
7/11/2021 5:00:00 PM 19.75 67.55 0.145 7.18 3.38 7.96
7/11/2021 5:15:00 PM 19.74 67.532 0.145 7.18 3.56 7.94
7/11/2021 5:30:00 PM 19.72 67.496 0.145 7.17 3.74 7.92
7/11/2021 5:45:00 PM 19.7 67.46 0.145 7.17 3.95 7.91
7/11/2021 6:00:00 PM 19.68 67.424 0.145 7.17 3.35 7.9
7/11/2021 6:15:00 PM 19.66 67.388 0.145 7.16 3.41 7.88
7/11/2021 6:30:00 PM 19.64 67.352 0.144 7.16 3.61 7.87
7/11/2021 6:45:00 PM 19.61 67.298 0.144 7.16 3.97 7.87
7/11/2021 7:00:00 PM 19.59 67.262 0.143 7.16 4 7.87
7/11/2021 7:15:00 PM 19.55 67.19 0.143 7.17 4.73 7.89
7/11/2021 7:30:00 PM 19.51 67.118 0.141 7.17 6.01 7.92
7/11/2021 7:45:00 PM 19.48 67.064 0.14 7.17 5.83 7.93
7/11/2021 8:00:00 PM 19.44 66.992 0.139 7.17 5.64 7.92
7/11/2021 8:15:00 PM 19.35 66.83 0.134 7.19 11.09 8.06
7/11/2021 8:30:00 PM 19.27 66.686 0.129 7.21 29.43 8.17
7/11/2021 8:45:00 PM 19.19 66.542 0.126 7.23 25.45 8.25
7/11/2021 9:00:00 PM 19.01 66.218 0.118 7.26 55.49 8.5
7/11/2021 9:15:00 PM 18.54 65.372 0.125 7.2 679.2 8.73
7/11/2021 9:30:00 PM 18.31 64.958 0.103 7.14 2226.42 8.86
7/11/2021 9:45:00 PM 18.18 64.724 0.098 7.05 2028.11 8.96
7/11/2021 10:00:00 PM 18.09 64.562 0.067 7.09 788.99 9.02
7/11/2021 10:15:00 PM 18.04 64.472 0.088 7.15 1865.35 9.08
7/11/2021 10:30:00 PM 18.04 64.472 0.066 7.13 1952.09 9.09
7/11/2021 10:45:00 PM 18.05 64.49 0.085 7.14 1516.59 9.09
7/11/2021 11:00:00 PM 18.06 64.508 0.066 7.11 501.27 9.08
7/11/2021 11:15:00 PM 18.05 64.49 0.086 7.18 1149.51 9.08
7/11/2021 11:30:00 PM 18.03 64.454 0.058 7.11 582.85 9.08
7/11/2021 11:45:00 PM 18.03 64.454 0.085 7.17 874.79 9.07
7/12/2021 12:00:00 AM 18.02 64.436 0.086 7.15 696.86 9.05
7/12/2021 12:15:00 AM 18.02 64.436 0.086 7.15 676.37 9.04
7/12/2021 12:30:00 AM 18.01 64.418 0.051 7.11 541.32 9.03
7/12/2021 12:45:00 AM 18.01 64.418 0.086 7.16 414.83 9.02
7/12/2021 1:00:00 AM 18 64.4 0.088 7.13 406.45 9
7/12/2021 1:15:00 AM 18 64.4 0.088 7.13 349.12 9
7/12/2021 1:30:00 AM 17.99 64.382 0.088 7.14 330.93 8.99
7/12/2021 1:45:00 AM 17.97 64.346 0.089 7.13 272.84 8.98
7/12/2021 2:00:00 AM 17.96 64.328 0.089 7.13 257.73 8.97
7/12/2021 2:15:00 AM 17.94 64.292 0.089 7.14 241.3 8.96
7/12/2021 2:30:00 AM 17.93 64.274 0.09 7.13 254.73 8.95
7/12/2021 2:45:00 AM 17.92 64.256 0.091 7.13 243.53 8.95
7/12/2021 3:00:00 AM 17.92 64.256 0.091 7.14 189.06 8.94
7/12/2021 3:15:00 AM 17.91 64.238 0.092 7.14 148.61 8.93
7/12/2021 3:30:00 AM 17.91 64.238 0.093 7.14 196.91 8.92
7/12/2021 3:45:00 AM 17.91 64.238 0.094 7.14 163.51 8.91
7/12/2021 4:00:00 AM 17.91 64.238 0.095 7.14 173.64 8.9
7/12/2021 4:15:00 AM 17.9 64.22 0.096 7.14 164.4 8.9
7/12/2021 4:30:00 AM 17.9 64.22 0.097 7.15 119.46 8.89
7/12/2021 4:45:00 AM 17.9 64.22 0.098 7.15 111.68 8.88
7/12/2021 5:00:00 AM 17.9 64.22 0.098 7.15 115.17 8.87
7/12/2021 5:15:00 AM 17.9 64.22 0.099 7.15 127.71 8.87
7/12/2021 5:30:00 AM 17.89 64.202 0.1 7.16 79.66 8.86
7/12/2021 5:45:00 AM 17.89 64.202 0.1 7.16 77.64 8.86
7/12/2021 6:00:00 AM 17.89 64.202 0.101 7.15 81.66 8.85
7/12/2021 6:15:00 AM 17.89 64.202 0.101 7.16 80.5 8.84
7/12/2021 6:30:00 AM 17.89 64.202 0.102 7.16 62.31 8.84
7/12/2021 6:45:00 AM 17.89 64.202 0.103 7.16 79.72 8.84
7/12/2021 7:00:00 AM 17.91 64.238 0.103 7.16 55.3 8.83
7/12/2021 7:15:00 AM 17.93 64.274 0.104 7.17 61.93 8.84
7/12/2021 7:30:00 AM 17.94 64.292 0.104 7.17 70.81 8.83
7/12/2021 7:45:00 AM 17.98 64.364 0.105 7.17 55.54 8.83
7/12/2021 8:00:00 AM 18.02 64.436 0.105 7.18 46.1 8.82
7/12/2021 8:15:00 AM 18.06 64.508 0.106 7.18 54.18 8.82
7/12/2021 8:30:00 AM 18.1 64.58 0.107 7.18 69.53 8.81
7/12/2021 8:45:00 AM 18.12 64.616 0.107 7.18 50.92 8.8
7/12/2021 9:00:00 AM 18.19 64.742 0.108 7.19 50.36 8.79
7/12/2021 9:15:00 AM 18.26 64.868 0.108 7.19 35.74 8.8
7/12/2021 9:30:00 AM 18.35 65.03 0.109 7.2 37.89 8.79
7/12/2021 9:45:00 AM 18.45 65.21 0.109 7.2 45.27 8.78
7/12/2021 10:00:00 AM 18.55 65.39 0.11 7.21 50.05 8.77
7/12/2021 10:15:00 AM 18.62 65.516 0.11 7.21 44.52 8.76
7/12/2021 10:30:00 AM 18.64 65.552 0.11 7.22 36.84 8.74
7/12/2021 10:45:00 AM 18.73 65.714 0.111 7.21 60.58 8.73
7/12/2021 11:00:00 AM 18.84 65.912 0.112 7.22 42.18 8.73
7/12/2021 11:15:00 AM 18.93 66.074 0.112 7.23 36.9 8.72
7/12/2021 11:30:00 AM 19.1 66.38 0.113 7.22 35.93 8.7
7/12/2021 11:45:00 AM 19.27 66.686 0.113 7.23 31.08 8.69
7/12/2021 12:00:00 PM 19.48 67.064 0.114 7.23 31.93 8.67
7/12/2021 12:15:00 PM 19.61 67.298 0.115 7.24 40.63 8.65
7/12/2021 12:30:00 PM 19.72 67.496 0.115 7.24 25.78 8.62
7/12/2021 12:45:00 PM 19.84 67.712 0.116 7.24 30.83 8.6
7/12/2021 1:00:00 PM 20 68 0.116 7.25 27.79 8.59
7/12/2021 1:15:00 PM 20.13 68.234 0.117 7.25 29.52 8.56
7/12/2021 1:30:00 PM 20.24 68.432 0.117 7.25 26.2 8.55
7/12/2021 1:45:00 PM 20.54 68.972 0.118 7.25 32.84 8.51
7/12/2021 2:00:00 PM 20.83 69.494 0.118 7.25 34.1 8.48
7/12/2021 2:15:00 PM 21.11 69.998 0.118 7.26 29.13 8.45
7/12/2021 2:30:00 PM 21.34 70.412 0.119 7.26 25.85 8.41
7/12/2021 2:45:00 PM 21.5 70.7 0.12 7.26 26.34 8.38
7/12/2021 3:00:00 PM 21.55 70.79 0.12 7.26 21.68 8.34
7/12/2021 3:15:00 PM 21.53 70.754 0.121 7.26 23.47 8.31
7/12/2021 3:30:00 PM 21.49 70.682 0.121 7.26 21.33 8.29
7/12/2021 3:45:00 PM 21.47 70.646 0.122 7.26 27.76 8.28
7/12/2021 4:00:00 PM 21.44 70.592 0.122 7.25 25.94 8.27
7/12/2021 4:15:00 PM 21.43 70.574 0.122 7.25 22.56 8.27
7/12/2021 4:30:00 PM 21.4 70.52 0.123 7.25 21.64 8.24
7/12/2021 4:45:00 PM 21.39 70.502 0.123 7.25 18.51 8.21
7/12/2021 5:00:00 PM 21.34 70.412 0.123 7.24 23.24 8.18
7/12/2021 5:15:00 PM 21.28 70.304 0.124 7.24 30.52 8.16
7/12/2021 5:30:00 PM 21.23 70.214 0.123 7.24 22.95 8.17
7/12/2021 5:45:00 PM 21.19 70.142 0.122 7.24 25.43 8.19
7/12/2021 6:00:00 PM 21.16 70.088 0.12 7.24 21.89 8.19
7/12/2021 6:15:00 PM 21.12 70.016 0.119 7.25 22.39 8.2
7/12/2021 6:30:00 PM 21.07 69.926 0.12 7.24 24.5 8.21
7/12/2021 6:45:00 PM 21.02 69.836 0.117 7.25 78.91 8.27
7/12/2021 7:00:00 PM 20.97 69.746 0.116 7.25 209.94 8.3
7/12/2021 7:15:00 PM 20.88 69.584 0.111 7.26 417.15 8.43
7/12/2021 7:30:00 PM 20.65 69.17 0.095 7.29 788.31 8.66
7/12/2021 7:45:00 PM 20.61 69.098 0.058 7 1620.93 8.51
7/12/2021 8:00:00 PM 20.63 69.134 0.062 6.89 4089.93 8.49
7/12/2021 8:15:00 PM 20.56 69.008 0.058 6.81 139.4 8.51
7/12/2021 8:30:00 PM 20.48 68.864 0.05 6.83 602.94 8.56
7/12/2021 8:45:00 PM 20.38 68.684 0.046 6.82 1520.11 8.58
7/12/2021 9:00:00 PM 20.3 68.54 0.039 6.8 1771.63 8.61
7/12/2021 9:15:00 PM 20.22 68.396 0.035 6.82 1559.11 8.63
7/12/2021 9:30:00 PM 20.14 68.252 0.041 6.82 1242.4 8.65
7/12/2021 9:45:00 PM 20.06 68.108 0.034 6.82 1373.85 8.67
7/12/2021 10:00:00 PM 19.99 67.982 0.053 6.85 1437.74 8.68
7/12/2021 10:15:00 PM 19.92 67.856 0.041 6.81 1192.22 8.69
7/12/2021 10:30:00 PM 19.86 67.748 0.053 6.86 1233.13 8.7
7/12/2021 10:45:00 PM 19.79 67.622 0.05 6.85 1057.43 8.71
7/12/2021 11:00:00 PM 19.73 67.514 0.049 6.84 1213.71 8.72
7/12/2021 11:15:00 PM 19.68 67.424 0.049 6.86 942.73 8.72
7/12/2021 11:30:00 PM 19.63 67.334 0.044 6.87 826.26 8.72
7/12/2021 11:45:00 PM 19.58 67.244 0.042 6.87 717.14 8.72
7/13/2021 12:00:00 AM 19.54 67.172 0.04 6.87 659.75 8.72
7/13/2021 12:15:00 AM 19.48 67.064 0.039 6.89 709.59 8.72
7/13/2021 12:30:00 AM 19.43 66.974 0.039 6.89 607.61 8.73
7/13/2021 12:45:00 AM 19.37 66.866 0.035 6.91 515.75 8.73
7/13/2021 1:00:00 AM 19.32 66.776 0.034 6.92 446.94 8.74
7/13/2021 1:15:00 AM 19.27 66.686 0.036 6.93 424.01 8.75
7/13/2021 1:30:00 AM 19.21 66.578 0.073 6.94 378.5 8.76
7/13/2021 1:45:00 AM 19.16 66.488 0.033 6.93 409.85 8.77
7/13/2021 2:00:00 AM 19.12 66.416 0.043 6.95 420.07 8.77
7/13/2021 2:15:00 AM 19.07 66.326 0.031 6.96 403.94 8.78
7/13/2021 2:30:00 AM 19.03 66.254 0.076 6.98 351.81 8.79
7/13/2021 2:45:00 AM 18.98 66.164 0.045 6.98 360.19 8.8
7/13/2021 3:00:00 AM 18.94 66.092 0.078 7.02 260.64 8.8
7/13/2021 3:15:00 AM 18.91 66.038 0.078 7.01 359.09 8.81
7/13/2021 3:30:00 AM 18.87 65.966 0.04 7.01 320.94 8.81
7/13/2021 3:45:00 AM 18.84 65.912 0.079 7.03 243.13 8.82
7/13/2021 4:00:00 AM 18.82 65.876 0.079 7.04 224.77 8.82
7/13/2021 4:15:00 AM 18.8 65.84 0.08 7.05 290.56 8.82
7/13/2021 4:30:00 AM 18.78 65.804 0.08 7.05 232.46 8.82
7/13/2021 4:45:00 AM 18.76 65.768 0.08 7.05 222.05 8.82
7/13/2021 5:00:00 AM 18.73 65.714 0.05 7.05 237.93 8.82
7/13/2021 5:15:00 AM 18.7 65.66 0.081 7.06 230.76 8.82
7/13/2021 5:30:00 AM 18.67 65.606 0.082 7.06 322.28 8.83
7/13/2021 5:45:00 AM 18.65 65.57 0.082 7.06 183.21 8.83
7/13/2021 6:00:00 AM 18.63 65.534 0.082 7.06 252.08 8.83
7/13/2021 6:15:00 AM 18.62 65.516 0.083 7.06 172.49 8.83
7/13/2021 6:30:00 AM 18.6 65.48 0.083 7.05 190.56 8.83
7/13/2021 6:45:00 AM 18.6 65.48 0.084 7.05 189.15 8.83
7/13/2021 7:00:00 AM 18.6 65.48 0.084 7.06 244.05 8.83
7/13/2021 7:15:00 AM 18.6 65.48 0.084 7.06 230.71 8.83
7/13/2021 7:30:00 AM 18.61 65.498 0.084 7.06 243.9 8.83
7/13/2021 7:45:00 AM 18.64 65.552 0.085 7.05 124.86 8.83
7/13/2021 8:00:00 AM 18.66 65.588 0.085 7.07 129.29 8.83
7/13/2021 8:15:00 AM 18.71 65.67799 0.086 7.07 117.45 8.82
7/13/2021 8:30:00 AM 18.79 65.82201 0.086 7.07 174.52 8.82
7/13/2021 8:45:00 AM 18.9 66.02 0.086 7.08 157.73 8.8
7/13/2021 9:00:00 AM 18.99 66.182 0.087 7.08 153.66 8.8
7/13/2021 9:15:00 AM 18.99 66.182 0.087 7.09 163.3 8.79
7/13/2021 9:30:00 AM 19.09 66.362 0.088 7.09 119.61 8.77
7/13/2021 9:45:00 AM 19.26 66.668 0.087 7.1 153.37 8.75
7/13/2021 10:00:00 AM 19.42 66.956 0.088 7.11 127.92 8.73
7/13/2021 10:15:00 AM 19.53 67.154 0.088 7.11 153.73 8.7
7/13/2021 10:30:00 AM 19.62 67.316 0.089 7.12 125.38 8.69
7/13/2021 10:45:00 AM 19.75 67.55 0.089 7.12 128.25 8.66
7/13/2021 11:00:00 AM 19.79 67.622 0.089 7.12 89.6 8.64
7/13/2021 11:15:00 AM 19.85 67.73 0.089 7.13 108.44 8.63
7/13/2021 11:30:00 AM 19.88 67.784 0.089 7.13 174.33 8.61
7/13/2021 11:45:00 AM 19.93 67.874 0.09 7.13 100.09 8.61
7/13/2021 12:00:00 PM 20.02 68.036 0.09 7.13 82.99 8.6
7/13/2021 12:15:00 PM 20.22 68.396 0.091 7.13 108.32 8.57
7/13/2021 12:30:00 PM 20.4 68.72 0.091 7.14 83.77 8.55
7/13/2021 12:45:00 PM 20.68 69.224 0.091 7.13 98.57 8.52
7/13/2021 1:00:00 PM 20.88 69.584 0.091 7.14 112.04 8.49
7/13/2021 1:15:00 PM 21.1 69.98 0.092 7.15 82.51 8.46
7/13/2021 1:30:00 PM 21.18 70.124 0.092 7.15 114.89 8.44
7/13/2021 1:45:00 PM 21.22 70.196 0.092 7.15 144.16 8.42
7/13/2021 2:00:00 PM 21.32 70.376 0.092 7.15 89.65 8.41
7/13/2021 2:15:00 PM 21.42 70.556 0.093 7.15 105.18 8.37
7/13/2021 2:30:00 PM 21.41 70.538 0.093 7.14 95.75 8.35
7/13/2021 2:45:00 PM 21.28 70.304 0.093 7.15 72.08 8.35
7/13/2021 3:00:00 PM 21.18 70.124 0.092 7.17 150.16 8.38
7/13/2021 3:15:00 PM 21.18 70.124 0.091 7.17 101.08 8.37
7/13/2021 3:30:00 PM 21.11 69.998 0.094 7.15 71.26 8.35
7/13/2021 3:45:00 PM 21.1 69.98 0.094 7.15 83.16 8.34
7/13/2021 4:00:00 PM 21.18 70.124 0.094 7.15 66.56 8.33
7/13/2021 4:15:00 PM 21.25 70.25 0.095 7.15 88.91 8.31
7/13/2021 4:30:00 PM 21.29 70.32201 0.099 7.15 83.03 8.31
7/13/2021 4:45:00 PM 21.47 70.646 0.102 7.17 125.32 8.3
7/13/2021 5:00:00 PM 21.5 70.7 0.101 7.18 74.23 8.29
7/13/2021 5:15:00 PM 21.55 70.79 0.101 7.18 85.84 8.29
7/13/2021 5:30:00 PM 21.55 70.79 0.101 7.19 79.78 8.28
7/13/2021 5:45:00 PM 21.54 70.772 0.101 7.19 89.44 8.28
7/13/2021 6:00:00 PM 21.53 70.754 0.101 7.19 84.78 8.28
7/13/2021 6:15:00 PM 21.5 70.7 0.1 7.19 56.91 8.28
7/13/2021 6:30:00 PM 21.44 70.592 0.1 7.19 74.53 8.28
7/13/2021 6:45:00 PM 21.4 70.52 0.1 7.19 75.49 8.29
7/13/2021 7:00:00 PM 21.36 70.448 0.1 7.19 82.84 8.28
7/13/2021 7:15:00 PM 21.31 70.358 0.1 7.19 72.6 8.28
7/13/2021 7:30:00 PM 21.26 70.268 0.1 7.18 58.59 8.28
7/13/2021 7:45:00 PM 21.2 70.16 0.1 7.18 94.79 8.27
7/13/2021 8:00:00 PM 21.14 70.052 0.1 7.18 55.11 8.27
7/13/2021 8:15:00 PM 21.08 69.944 0.101 7.16 102.98 8.27
7/13/2021 8:30:00 PM 21.02 69.836 0.101 7.17 73.61 8.27
7/13/2021 8:45:00 PM 20.96 69.728 0.101 7.16 104.65 8.27
7/13/2021 9:00:00 PM 20.9 69.62 0.101 7.16 75.65 8.27
7/13/2021 9:15:00 PM 20.84 69.512 0.102 7.15 135.85 8.28
7/13/2021 9:30:00 PM 20.78 69.404 0.102 7.15 74.75 8.28
7/13/2021 9:45:00 PM 20.73 69.314 0.102 7.15 61.01 8.28
7/13/2021 10:00:00 PM 20.66 69.188 0.101 7.15 59.06 8.34
7/13/2021 10:15:00 PM 20.59 69.062 0.1 7.15 63.84 8.34
7/13/2021 10:30:00 PM 20.52 68.936 0.1 7.15 60.24 8.34
7/13/2021 10:45:00 PM 20.46 68.828 0.102 7.15 62.49 8.34
7/13/2021 11:00:00 PM 20.41 68.738 0.102 7.15 74.05 8.35
7/13/2021 11:15:00 PM 20.36 68.648 0.104 7.16 77.87 8.39
7/13/2021 11:30:00 PM 20.28 68.504 0.107 7.19 100.77 8.46
7/13/2021 11:45:00 PM 20.24 68.432 0.108 7.22 87.86 8.5
7/14/2021 12:00:00 AM 20.22 68.396 0.106 7.24 140.75 8.54
7/14/2021 12:15:00 AM 20.16 68.288 0.103 7.24 165.14 8.58
7/14/2021 12:30:00 AM 20.09 68.162 0.102 7.24 207.73 8.61
7/14/2021 12:45:00 AM 20.03 68.054 0.101 7.24 195.81 8.63
7/14/2021 1:00:00 AM 19.97 67.946 0.1 7.22 296.66 8.63
7/14/2021 1:15:00 AM 19.91 67.838 0.1 7.22 189.46 8.64
7/14/2021 1:30:00 AM 19.84 67.712 0.098 7.21 175.72 8.66
7/14/2021 1:45:00 AM 19.78 67.604 0.098 7.21 137.84 8.67
7/14/2021 2:00:00 AM 19.71 67.478 0.098 7.2 169.34 8.67
7/14/2021 2:15:00 AM 19.66 67.388 0.097 7.2 183.93 8.69
7/14/2021 2:30:00 AM 19.61 67.298 0.097 7.2 167.13 8.69
7/14/2021 2:45:00 AM 19.56 67.208 0.097 7.2 181.76 8.7
7/14/2021 3:00:00 AM 19.51 67.118 0.096 7.2 170.34 8.7
7/14/2021 3:15:00 AM 19.46 67.028 0.096 7.19 172.77 8.71
7/14/2021 3:30:00 AM 19.41 66.938 0.096 7.19 203.3 8.71
7/14/2021 3:45:00 AM 19.37 66.866 0.096 7.18 151.85 8.72
7/14/2021 4:00:00 AM 19.33 66.794 0.096 7.18 107.09 8.72
7/14/2021 4:15:00 AM 19.29 66.722 0.096 7.18 141.24 8.72
7/14/2021 4:30:00 AM 19.25 66.65 0.096 7.17 132.47 8.72
7/14/2021 4:45:00 AM 19.21 66.578 0.097 7.17 91.02 8.72
7/14/2021 5:00:00 AM 19.16 66.488 0.097 7.16 127.88 8.72
7/14/2021 5:15:00 AM 19.11 66.398 0.097 7.16 129.32 8.73
7/14/2021 5:30:00 AM 19.07 66.326 0.097 7.16 94.67 8.73
7/14/2021 5:45:00 AM 19.03 66.254 0.098 7.15 98.93 8.73
7/14/2021 6:00:00 AM 19 66.2 0.098 7.16 100.34 8.73
7/14/2021 6:15:00 AM 18.97 66.146 0.098 7.15 83.48 8.73
7/14/2021 6:30:00 AM 18.95 66.11 0.099 7.15 83.91 8.74
7/14/2021 6:45:00 AM 18.95 66.11 0.099 7.15 100.25 8.73
7/14/2021 7:00:00 AM 18.93 66.074 0.1 7.15 134.55 8.73
7/14/2021 7:15:00 AM 18.93 66.074 0.1 7.15 88.82 8.74
7/14/2021 7:30:00 AM 18.94 66.092 0.1 7.14 101.62 8.73
7/14/2021 7:45:00 AM 18.95 66.11 0.101 7.14 67.77 8.73
7/14/2021 8:00:00 AM 18.99 66.182 0.101 7.14 66.53 8.73
7/14/2021 8:15:00 AM 19.07 66.326 0.101 7.15 81.05 8.72
7/14/2021 8:30:00 AM 19.1 66.38 0.102 7.15 71.1 8.72
7/14/2021 8:45:00 AM 19.17 66.506 0.102 7.15 88.54 8.71
7/14/2021 9:00:00 AM 19.18 66.524 0.102 7.15 84.81 8.7
7/14/2021 9:15:00 AM 19.2 66.56 0.102 7.15 93.09 8.69
7/14/2021 9:30:00 AM 19.3 66.74 0.103 7.15 71.8 8.68
7/14/2021 9:45:00 AM 19.4 66.92 0.103 7.16 68.3 8.67
7/14/2021 10:00:00 AM 19.44 66.992 0.103 7.16 72.86 8.66
7/14/2021 10:15:00 AM 19.56 67.208 0.104 7.16 47.77 8.64
7/14/2021 10:30:00 AM 19.62 67.316 0.104 7.17 63.33 8.63
7/14/2021 10:45:00 AM 19.79 67.622 0.104 7.16 75.88 8.61
7/14/2021 11:00:00 AM 19.84 67.712 0.104 7.17 40.1 8.6
7/14/2021 11:15:00 AM 20.02 68.036 0.105 7.17 66.56 8.58
7/14/2021 11:30:00 AM 20.24 68.432 0.105 7.17 107.33 8.56
7/14/2021 11:45:00 AM 20.39 68.702 0.105 7.17 54.73 8.53
7/14/2021 12:00:00 PM 20.52 68.936 0.106 7.17 40.37 8.5
7/14/2021 12:15:00 PM 20.61 69.098 0.106 7.18 80.51 8.47
7/14/2021 12:30:00 PM 20.77 69.386 0.106 7.18 51.34 8.45
7/14/2021 12:45:00 PM 21.07 69.926 0.107 7.18 54.16 8.41
7/14/2021 1:00:00 PM 21.3 70.34 0.107 7.18 49.4 8.37
7/14/2021 1:15:00 PM 21.61 70.898 0.107 7.18 69.16 8.34
7/14/2021 1:30:00 PM 21.87 71.366 0.107 7.19 61.99 8.3
7/14/2021 1:45:00 PM 22.07 71.726 0.108 7.19 44.92 8.27
7/14/2021 2:00:00 PM 22.15 71.87 0.108 7.19 42.84 8.24
7/14/2021 2:15:00 PM 22.07 71.726 0.108 7.19 60.51 8.22
7/14/2021 2:30:00 PM 22.04 71.672 0.108 7.19 114.26 8.21
7/14/2021 2:45:00 PM 22.06 71.708 0.108 7.18 61.43 8.2
7/14/2021 3:00:00 PM 21.86 71.348 0.107 7.19 61.39 8.22
7/14/2021 3:15:00 PM 21.76 71.168 0.107 7.19 53.69 8.21
7/14/2021 3:30:00 PM 21.7 71.06 0.108 7.19 44.09 8.21
7/14/2021 3:45:00 PM 21.64 70.952 0.108 7.18 55.49 8.2
7/14/2021 4:00:00 PM 21.63 70.934 0.109 7.18 37.6 8.19
7/14/2021 4:15:00 PM 21.62 70.916 0.109 7.17 38.28 8.17
7/14/2021 4:30:00 PM 21.58 70.844 0.111 7.17 70.03 8.16
7/14/2021 4:45:00 PM 21.52 70.736 0.112 7.17 47.01 8.16
7/14/2021 5:00:00 PM 21.46 70.628 0.114 7.18 69.56 8.18
7/14/2021 5:15:00 PM 21.43 70.574 0.114 7.18 62.41 8.19
7/14/2021 5:30:00 PM 21.4 70.52 0.115 7.19 54.32 8.2
7/14/2021 5:45:00 PM 21.47 70.646 0.115 7.19 68.25 8.21
7/14/2021 6:00:00 PM 21.45 70.61 0.114 7.2 54.14 8.23
7/14/2021 6:15:00 PM 21.44 70.592 0.113 7.2 54.92 8.24
7/14/2021 6:30:00 PM 21.39 70.502 0.112 7.2 65.75 8.25
7/14/2021 6:45:00 PM 21.33 70.394 0.111 7.2 85.36 8.25
7/14/2021 7:00:00 PM 21.27 70.286 0.11 7.19 95.37 8.25
7/14/2021 7:15:00 PM 21.22 70.196 0.111 7.19 48.93 8.25
7/14/2021 7:30:00 PM 21.17 70.106 0.11 7.19 54.75 8.25
7/14/2021 7:45:00 PM 21.11 69.998 0.11 7.18 60.61 8.25
7/14/2021 8:00:00 PM 21.05 69.89 0.11 7.18 62.1 8.25
7/14/2021 8:15:00 PM 20.97 69.746 0.11 7.18 69.03 8.26
7/14/2021 8:30:00 PM 20.89 69.602 0.111 7.17 82.47 8.27
7/14/2021 8:45:00 PM 20.81 69.458 0.111 7.17 92.04 8.27
7/14/2021 9:00:00 PM 20.74 69.332 0.112 7.17 85.4 8.27
7/14/2021 9:15:00 PM 20.67 69.206 0.111 7.16 64.61 8.28
7/14/2021 9:30:00 PM 20.61 69.098 0.111 7.15 49.87 8.28
7/14/2021 9:45:00 PM 20.53 68.954 0.112 7.15 52.58 8.29
7/14/2021 10:00:00 PM 20.46 68.828 0.111 7.15 73.17 8.3
7/14/2021 10:15:00 PM 20.39 68.702 0.111 7.14 48.06 8.31
7/14/2021 10:30:00 PM 20.32 68.576 0.112 7.15 76.59 8.32
7/14/2021 10:45:00 PM 20.24 68.432 0.112 7.14 37 8.33
7/14/2021 11:00:00 PM 20.17 68.306 0.112 7.14 38.52 8.34
7/14/2021 11:15:00 PM 20.12 68.216 0.113 7.14 56.98 8.35
7/14/2021 11:30:00 PM 20.04 68.07201 0.113 7.14 56.51 8.36
7/14/2021 11:45:00 PM 19.97 67.946 0.113 7.13 51.02 8.37
7/15/2021 12:00:00 AM 19.91 67.838 0.113 7.13 45.99 8.38
7/15/2021 12:15:00 AM 19.85 67.73 0.114 7.13 39.51 8.38
7/15/2021 12:30:00 AM 19.8 67.64 0.114 7.13 46.24 8.39
7/15/2021 12:45:00 AM 19.75 67.55 0.115 7.12 32.97 8.4
7/15/2021 1:00:00 AM 19.71 67.478 0.115 7.13 43.24 8.41
7/15/2021 1:15:00 AM 19.67 67.406 0.115 7.13 38.43 8.41
7/15/2021 1:30:00 AM 19.62 67.316 0.115 7.13 42.42 8.42
7/15/2021 1:45:00 AM 19.58 67.244 0.116 7.13 42.93 8.42
7/15/2021 2:00:00 AM 19.53 67.154 0.116 7.13 40.83 8.43
7/15/2021 2:15:00 AM 19.48 67.064 0.116 7.13 33.84 8.44
7/15/2021 2:30:00 AM 19.43 66.974 0.116 7.13 44.28 8.44
7/15/2021 2:45:00 AM 19.39 66.902 0.117 7.13 43.32 8.45
7/15/2021 3:00:00 AM 19.35 66.83 0.117 7.13 34.79 8.45
7/15/2021 3:15:00 AM 19.32 66.776 0.117 7.13 32.37 8.46
7/15/2021 3:30:00 AM 19.29 66.722 0.117 7.13 42.59 8.46
7/15/2021 3:45:00 AM 19.26 66.668 0.117 7.13 35.39 8.47
7/15/2021 4:00:00 AM 19.23 66.614 0.118 7.12 28.59 8.47
7/15/2021 4:15:00 AM 19.2 66.56 0.118 7.12 37.87 8.47
7/15/2021 4:30:00 AM 19.17 66.506 0.118 7.13 34.91 8.48
7/15/2021 4:45:00 AM 19.15 66.47 0.119 7.13 26.6 8.48
7/15/2021 5:00:00 AM 19.12 66.416 0.119 7.13 24.32 8.48
7/15/2021 5:15:00 AM 19.1 66.38 0.119 7.13 31.46 8.49
7/15/2021 5:30:00 AM 19.07 66.326 0.119 7.13 27.6 8.49
7/15/2021 5:45:00 AM 19.05 66.29 0.12 7.13 32.14 8.49
7/15/2021 6:00:00 AM 19.02 66.236 0.12 7.13 30.09 8.5
7/15/2021 6:15:00 AM 19 66.2 0.12 7.12 37.49 8.5
7/15/2021 6:30:00 AM 18.97 66.146 0.12 7.13 31.84 8.51
7/15/2021 6:45:00 AM 18.96 66.128 0.12 7.13 35.53 8.52
7/15/2021 7:00:00 AM 18.95 66.11 0.121 7.13 60.85 8.52
7/15/2021 7:15:00 AM 18.95 66.11 0.121 7.13 32.5 8.53
7/15/2021 7:30:00 AM 18.97 66.146 0.121 7.13 29.75 8.54
7/15/2021 7:45:00 AM 18.98 66.164 0.121 7.13 32.26 8.54
7/15/2021 8:00:00 AM 19 66.2 0.121 7.14 33.69 8.55
7/15/2021 8:15:00 AM 19.04 66.272 0.122 7.14 29.03 8.55
7/15/2021 8:30:00 AM 19.1 66.38 0.122 7.14 32.1 8.55
7/15/2021 8:45:00 AM 19.16 66.488 0.122 7.14 24.37 8.55
7/15/2021 9:00:00 AM 19.23 66.614 0.122 7.14 39.43 8.55
7/15/2021 9:15:00 AM 19.34 66.812 0.123 7.15 40.39 8.54
7/15/2021 9:30:00 AM 19.46 67.028 0.123 7.15 40.48 8.53
7/15/2021 9:45:00 AM 19.59 67.262 0.123 7.15 32.24 8.52
7/15/2021 10:00:00 AM 19.74 67.532 0.123 7.16 27.72 8.5
7/15/2021 10:15:00 AM 19.89 67.802 0.123 7.16 26.74 8.49
7/15/2021 10:30:00 AM 20.06 68.108 0.123 7.16 23.79 8.47
7/15/2021 10:45:00 AM 20.24 68.432 0.123 7.16 27.02 8.44
7/15/2021 11:00:00 AM 20.38 68.684 0.123 7.17 26.22 8.42
7/15/2021 11:15:00 AM 20.61 69.098 0.123 7.17 25.49 8.39
7/15/2021 11:30:00 AM 20.86 69.548 0.124 7.18 25.99 8.36
7/15/2021 11:45:00 AM 21.12 70.016 0.124 7.18 31.41 8.32
7/15/2021 12:00:00 PM 21.28 70.304 0.124 7.18 25.8 8.29
7/15/2021 12:15:00 PM 21.46 70.628 0.124 7.19 25.81 8.26
7/15/2021 12:30:00 PM 21.66 70.988 0.124 7.19 24.63 8.23
7/15/2021 12:45:00 PM 21.9 71.42 0.124 7.19 24.86 8.2
7/15/2021 1:00:00 PM 22.1 71.78 0.124 7.19 23.12 8.15
7/15/2021 1:15:00 PM 22.27 72.086 0.124 7.19 25.19 8.13
7/15/2021 1:30:00 PM 22.42 72.356 0.124 7.2 25.06 8.09
7/15/2021 1:45:00 PM 22.52 72.536 0.124 7.2 27.92 8.07
7/15/2021 2:00:00 PM 22.62 72.716 0.125 7.2 18.9 8.04
7/15/2021 2:15:00 PM 22.77 72.986 0.125 7.2 22.83 8.01
7/15/2021 2:30:00 PM 22.89 73.202 0.125 7.2 18.6 8
7/15/2021 2:45:00 PM 22.94 73.292 0.125 7.2 20.91 7.97
7/15/2021 3:00:00 PM 22.99 73.382 0.125 7.2 22.48 7.96
7/15/2021 3:15:00 PM 22.95 73.31 0.126 7.2 22.44 7.95
7/15/2021 3:30:00 PM 22.95 73.31 0.125 7.2 20.67 7.93
7/15/2021 3:45:00 PM 22.98 73.364 0.126 7.2 29.86 7.93
7/15/2021 4:00:00 PM 23.04 73.472 0.126 7.19 24.52 7.92
7/15/2021 4:15:00 PM 23.08 73.544 0.126 7.19 26.36 7.9
7/15/2021 4:30:00 PM 23.09 73.562 0.126 7.2 44.48 7.88
7/15/2021 4:45:00 PM 23.09 73.562 0.126 7.19 27.65 7.86
7/15/2021 5:00:00 PM 23.05 73.49 0.126 7.19 22.18 7.84
7/15/2021 5:15:00 PM 23.03 73.454 0.126 7.19 24.64 7.83
7/15/2021 5:30:00 PM 23.01 73.418 0.126 7.19 26.04 7.82
7/15/2021 5:45:00 PM 22.98 73.364 0.126 7.19 26.34 7.82
7/15/2021 6:00:00 PM 22.92 73.256 0.127 7.18 24.2 7.81
7/15/2021 6:15:00 PM 22.84 73.112 0.127 7.18 25.02 7.81
7/15/2021 6:30:00 PM 22.76 72.968 0.127 7.18 21.96 7.8
7/15/2021 6:45:00 PM 22.68 72.824 0.127 7.18 18.47 7.8
7/15/2021 7:00:00 PM 22.58 72.644 0.128 7.17 24.71 7.79
7/15/2021 7:15:00 PM 22.48 72.464 0.128 7.16 25.42 7.78
7/15/2021 7:30:00 PM 22.4 72.32 0.128 7.16 24.78 7.78
7/15/2021 7:45:00 PM 22.32 72.176 0.128 7.15 21.64 7.78
7/15/2021 8:00:00 PM 22.24 72.032 0.128 7.15 18.97 7.78
7/15/2021 8:15:00 PM 22.17 71.906 0.128 7.15 21.89 7.78
7/15/2021 8:30:00 PM 22.09 71.762 0.129 7.14 21.89 7.78
7/15/2021 8:45:00 PM 22 71.6 0.13 7.14 18.65 7.78
7/15/2021 9:00:00 PM 21.92 71.456 0.129 7.13 19.92 7.78
7/15/2021 9:15:00 PM 21.84 71.312 0.13 7.13 20.9 7.78
7/15/2021 9:30:00 PM 21.76 71.168 0.13 7.12 18.58 7.78
7/15/2021 9:45:00 PM 21.69 71.042 0.13 7.12 18.24 7.79
7/15/2021 10:00:00 PM 21.61 70.898 0.13 7.12 23.11 7.8
7/15/2021 10:15:00 PM 21.54 70.772 0.131 7.12 20.78 7.8
7/15/2021 10:30:00 PM 21.46 70.628 0.131 7.12 14.99 7.81
7/15/2021 10:45:00 PM 21.39 70.502 0.131 7.11 18.61 7.82
7/15/2021 11:00:00 PM 21.31 70.358 0.131 7.11 19.46 7.82
7/15/2021 11:15:00 PM 21.25 70.25 0.131 7.11 18.03 7.83
7/15/2021 11:30:00 PM 21.17 70.106 0.132 7.11 18.7 7.85
7/15/2021 11:45:00 PM 21.1 69.98 0.132 7.11 16.17 7.86
7/16/2021 12:00:00 AM 21.03 69.854 0.132 7.11 20.94 7.86
7/16/2021 12:15:00 AM 20.97 69.746 0.132 7.11 17.24 7.87
7/16/2021 12:30:00 AM 20.9 69.62 0.133 7.11 17.57 7.89
7/16/2021 12:45:00 AM 20.85 69.53 0.133 7.11 17.39 7.9
7/16/2021 1:00:00 AM 20.79 69.422 0.133 7.11 15.93 7.9
7/16/2021 1:15:00 AM 20.72 69.296 0.134 7.11 17.68 7.91
7/16/2021 1:30:00 AM 20.67 69.206 0.134 7.11 16.67 7.92
7/16/2021 1:45:00 AM 20.61 69.098 0.134 7.11 15.52 7.92
7/16/2021 2:00:00 AM 20.56 69.008 0.134 7.11 16.36 7.93
7/16/2021 2:15:00 AM 20.5 68.9 0.134 7.11 17.81 7.94
7/16/2021 2:30:00 AM 20.45 68.81 0.134 7.11 21.4 7.95
7/16/2021 2:45:00 AM 20.4 68.72 0.135 7.1 16.62 7.96
7/16/2021 3:00:00 AM 20.35 68.63 0.135 7.1 16.33 7.96
7/16/2021 3:15:00 AM 20.3 68.54 0.135 7.11 15.13 7.97
7/16/2021 3:30:00 AM 20.25 68.45 0.135 7.1 16.3 7.98
7/16/2021 3:45:00 AM 20.21 68.378 0.135 7.1 17.33 7.99
7/16/2021 4:00:00 AM 20.16 68.288 0.135 7.11 16.07 8
7/16/2021 4:15:00 AM 20.11 68.198 0.136 7.1 14.89 8.01
7/16/2021 4:30:00 AM 20.07 68.126 0.137 7.1 15.61 8.02
7/16/2021 4:45:00 AM 20.03 68.054 0.136 7.1 15.08 8.02
7/16/2021 5:00:00 AM 19.99 67.982 0.137 7.1 15.29 8.03
7/16/2021 5:15:00 AM 19.96 67.92799 0.137 7.1 14.58 8.04
7/16/2021 5:30:00 AM 19.93 67.874 0.137 7.1 14.58 8.03
7/16/2021 5:45:00 AM 19.9 67.82 0.137 7.1 13.01 8.04
7/16/2021 6:00:00 AM 19.87 67.766 0.137 7.1 12.66 8.05
7/16/2021 6:15:00 AM 19.83 67.694 0.138 7.1 14.1 8.06
7/16/2021 6:30:00 AM 19.81 67.658 0.137 7.1 13.89 8.07
7/16/2021 6:45:00 AM 19.79 67.622 0.138 7.1 13.37 8.08
7/16/2021 7:00:00 AM 19.78 67.604 0.137 7.1 12.81 8.09
7/16/2021 7:15:00 AM 19.79 67.622 0.138 7.1 12.53 8.11
7/16/2021 7:30:00 AM 19.81 67.658 0.138 7.11 13.72 8.12
7/16/2021 7:45:00 AM 19.85 67.73 0.138 7.11 13.77 8.13
7/16/2021 8:00:00 AM 19.9 67.82 0.138 7.12 11.85 8.14
7/16/2021 8:15:00 AM 19.96 67.92799 0.138 7.12 13.4 8.15
7/16/2021 8:30:00 AM 20.03 68.054 0.138 7.13 12.95 8.15
7/16/2021 8:45:00 AM 20.14 68.252 0.138 7.13 13.45 8.16
7/16/2021 9:00:00 AM 20.25 68.45 0.139 7.14 12.48 8.16
7/16/2021 9:15:00 AM 20.28 68.504 0.138 7.14 12.2 8.16
7/16/2021 9:30:00 AM 20.33 68.594 0.139 7.14 12.3 8.16
7/16/2021 9:45:00 AM 20.43 68.774 0.138 7.15 11.47 8.17
7/16/2021 10:00:00 AM 20.54 68.972 0.139 7.15 11.98 8.16
7/16/2021 10:15:00 AM 20.63 69.134 0.138 7.15 11.28 8.15
7/16/2021 10:30:00 AM 20.83 69.494 0.139 7.15 12.72 8.14
7/16/2021 10:45:00 AM 21 69.8 0.139 7.16 11.1 8.13
7/16/2021 11:00:00 AM 21.17 70.106 0.139 7.16 10.06 8.1
7/16/2021 11:15:00 AM 21.29 70.32201 0.139 7.16 10.13 8.08
7/16/2021 11:30:00 AM 21.39 70.502 0.139 7.17 10.76 8.06
7/16/2021 11:45:00 AM 21.43 70.574 0.139 7.17 11.44 8.05
7/16/2021 12:00:00 PM 21.57 70.826 0.14 7.17 11.34 8.03
7/16/2021 12:15:00 PM 21.69 71.042 0.14 7.17 11.52 8.02
7/16/2021 12:30:00 PM 21.86 71.348 0.14 7.17 11.14 8
7/16/2021 12:45:00 PM 22 71.6 0.14 7.17 10.93 7.99
7/16/2021 1:00:00 PM 22.11 71.798 0.14 7.18 10.29 7.97
7/16/2021 1:15:00 PM 22.25 72.05 0.14 7.18 11.46 7.95
7/16/2021 1:30:00 PM 22.41 72.338 0.14 7.18 10.93 7.93
7/16/2021 1:45:00 PM 22.51 72.518 0.14 7.18 9.22 7.91
7/16/2021 2:00:00 PM 22.5 72.5 0.14 7.18 10.85 7.88
7/16/2021 2:15:00 PM 22.57 72.626 0.14 7.18 11.16 7.88
7/16/2021 2:30:00 PM 22.76 72.968 0.141 7.18 9.62 7.87
7/16/2021 2:45:00 PM 22.86 73.148 0.141 7.18 10.79 7.84
7/16/2021 3:00:00 PM 22.99 73.382 0.141 7.18 10.45 7.82
7/16/2021 3:15:00 PM 23.06 73.508 0.141 7.19 10.1 7.8
7/16/2021 3:30:00 PM 23 73.4 0.141 7.18 10.41 7.78
7/16/2021 3:45:00 PM 22.91 73.238 0.141 7.18 10.39 7.76
7/16/2021 4:00:00 PM 22.87 73.166 0.141 7.18 8.58 7.76
7/16/2021 4:15:00 PM 22.82 73.076 0.141 7.18 10.63 7.76
7/16/2021 4:30:00 PM 22.78 73.004 0.142 7.17 9.04 7.75
7/16/2021 4:45:00 PM 22.73 72.914 0.142 7.17 9.76 7.75
7/16/2021 5:00:00 PM 22.69 72.842 0.142 7.17 10.88 7.75
7/16/2021 5:15:00 PM 22.64 72.752 0.142 7.17 10.21 7.76
7/16/2021 5:30:00 PM 22.56 72.608 0.142 7.17 10.1 7.75
7/16/2021 5:45:00 PM 22.49 72.482 0.142 7.16 8.54 7.74
7/16/2021 6:00:00 PM 22.41 72.338 0.142 7.16 9.63 7.73
7/16/2021 6:15:00 PM 22.34 72.212 0.142 7.16 9.77 7.73
7/16/2021 6:30:00 PM 22.28 72.104 0.142 7.15 10.54 7.73
7/16/2021 6:45:00 PM 22.2 71.96 0.142 7.15 9.78 7.72
7/16/2021 7:00:00 PM 22.11 71.798 0.142 7.15 10.85 7.71
7/16/2021 7:15:00 PM 22.03 71.654 0.143 7.14 10.13 7.7
7/16/2021 7:30:00 PM 21.96 71.528 0.143 7.14 9.37 7.69
7/16/2021 7:45:00 PM 21.89 71.402 0.143 7.13 8.33 7.69
7/16/2021 8:00:00 PM 21.83 71.294 0.143 7.13 10.19 7.7
7/16/2021 8:15:00 PM 21.78 71.204 0.143 7.13 8.93 7.68
7/16/2021 8:30:00 PM 21.7 71.06 0.144 7.12 8.14 7.68
7/16/2021 8:45:00 PM 21.65 70.97 0.144 7.12 7.62 7.68
7/16/2021 9:00:00 PM 21.59 70.862 0.144 7.12 8.22 7.68
7/16/2021 9:15:00 PM 21.54 70.772 0.144 7.12 9.85 7.68
7/16/2021 9:30:00 PM 21.49 70.682 0.144 7.11 9.1 7.67
7/16/2021 9:45:00 PM 21.43 70.574 0.145 7.11 9.25 7.68
7/16/2021 10:00:00 PM 21.38 70.484 0.145 7.11 9.37 7.68
7/16/2021 10:15:00 PM 21.34 70.412 0.145 7.11 9.21 7.68
7/16/2021 10:30:00 PM 21.29 70.32201 0.145 7.1 9.35 7.7
7/16/2021 10:45:00 PM 21.24 70.232 0.145 7.1 9.13 7.71
7/16/2021 11:00:00 PM 21.2 70.16 0.144 7.11 9.12 7.72
7/16/2021 11:15:00 PM 21.17 70.106 0.145 7.1 8.25 7.72
7/16/2021 11:30:00 PM 21.12 70.016 0.145 7.1 9.36 7.73
7/16/2021 11:45:00 PM 21.09 69.962 0.145 7.11 9 7.74
7/17/2021 12:00:00 AM 21.04 69.872 0.145 7.11 8.9 7.75
7/17/2021 12:15:00 AM 21.01 69.818 0.145 7.11 7.79 7.76
7/17/2021 12:30:00 AM 20.98 69.764 0.145 7.11 7.79 7.77
7/17/2021 12:45:00 AM 20.96 69.728 0.145 7.11 9.22 7.78
7/17/2021 1:00:00 AM 20.93 69.674 0.145 7.11 8.65 7.79
7/17/2021 1:15:00 AM 20.91 69.638 0.145 7.11 9.99 7.79
7/17/2021 1:30:00 AM 20.89 69.602 0.145 7.11 7.95 7.8
7/17/2021 1:45:00 AM 20.86 69.548 0.144 7.1 9.13 7.81
7/17/2021 2:00:00 AM 20.84 69.512 0.144 7.11 7.96 7.82
7/17/2021 2:15:00 AM 20.82 69.476 0.144 7.11 9.24 7.82
7/17/2021 2:30:00 AM 20.79 69.422 0.144 7.11 8.48 7.82
7/17/2021 2:45:00 AM 20.75 69.35 0.144 7.1 8.66 7.82
7/17/2021 3:00:00 AM 20.72 69.296 0.144 7.11 7.63 7.83
7/17/2021 3:15:00 AM 20.7 69.26 0.144 7.1 8.61 7.83
7/17/2021 3:30:00 AM 20.67 69.206 0.144 7.1 8.92 7.85
7/17/2021 3:45:00 AM 20.64 69.152 0.144 7.1 10.24 7.85
7/17/2021 4:00:00 AM 20.61 69.098 0.144 7.1 9.8 7.86
7/17/2021 4:15:00 AM 20.58 69.044 0.144 7.1 9.31 7.87
7/17/2021 4:30:00 AM 20.55 68.99 0.144 7.1 8.57 7.87
7/17/2021 4:45:00 AM 20.52 68.936 0.144 7.1 9.53 7.87
7/17/2021 5:00:00 AM 20.49 68.882 0.144 7.1 8.3 7.88
7/17/2021 5:15:00 AM 20.46 68.828 0.144 7.1 9.13 7.89
7/17/2021 5:30:00 AM 20.43 68.774 0.144 7.1 8.05 7.89
7/17/2021 5:45:00 AM 20.41 68.738 0.144 7.1 9.3 7.9
7/17/2021 6:00:00 AM 20.38 68.684 0.144 7.1 7.8 7.91
7/17/2021 6:15:00 AM 20.36 68.648 0.143 7.1 8.34 7.91
7/17/2021 6:30:00 AM 20.33 68.594 0.144 7.1 7.72 7.93
7/17/2021 6:45:00 AM 20.31 68.558 0.143 7.1 6.97 7.93
7/17/2021 7:00:00 AM 20.29 68.522 0.143 7.1 8.26 7.95
7/17/2021 7:15:00 AM 20.28 68.504 0.144 7.11 8.54 7.97
7/17/2021 7:30:00 AM 20.29 68.522 0.144 7.11 7.54 8
7/17/2021 7:45:00 AM 20.34 68.612 0.144 7.12 7.74 8.03
7/17/2021 8:00:00 AM 20.38 68.684 0.143 7.12 7.86 8.05
7/17/2021 8:15:00 AM 20.43 68.774 0.144 7.13 7.81 8.07
7/17/2021 8:30:00 AM 20.47 68.846 0.143 7.13 6.9 8.09
7/17/2021 8:45:00 AM 20.53 68.954 0.144 7.13 6.66 8.1
7/17/2021 9:00:00 AM 20.64 69.152 0.144 7.14 6.57 8.11
7/17/2021 9:15:00 AM 20.8 69.44 0.143 7.14 6.91 8.12
7/17/2021 9:30:00 AM 20.95 69.71 0.144 7.15 7.52 8.12
7/17/2021 9:45:00 AM 21.03 69.854 0.144 7.15 6.73 8.11
7/17/2021 10:00:00 AM 21.05 69.89 0.144 7.15 5.85 8.09
7/17/2021 10:15:00 AM 21.01 69.818 0.144 7.15 6.14 8.07
7/17/2021 10:30:00 AM 20.99 69.782 0.144 7.15 6.33 8.07
7/17/2021 10:45:00 AM 21.04 69.872 0.144 7.15 6.85 8.08
7/17/2021 11:00:00 AM 21.15 70.07 0.144 7.16 5.47 8.09
7/17/2021 11:15:00 AM 21.46 70.628 0.144 7.16 6.38 8.1
7/17/2021 11:30:00 AM 21.63 70.934 0.143 7.17 5.83 8.07
7/17/2021 11:45:00 AM 21.68 71.024 0.145 7.17 5.24 8.04
7/17/2021 12:00:00 PM 21.81 71.258 0.144 7.17 5.88 8.04
7/17/2021 12:15:00 PM 21.9 71.42 0.144 7.17 5.75 8.02
7/17/2021 12:30:00 PM 21.94 71.492 0.145 7.17 5.85 8.01
7/17/2021 12:45:00 PM 21.98 71.564 0.144 7.18 6.06 8
7/17/2021 1:00:00 PM 22.04 71.672 0.145 7.17 6.39 8.01
7/17/2021 1:15:00 PM 22.12 71.816 0.145 7.18 5.87 8
7/17/2021 1:30:00 PM 22.22 71.996 0.145 7.18 5.76 8
7/17/2021 1:45:00 PM 22.34 72.212 0.145 7.18 5.4 7.99
7/17/2021 2:00:00 PM 22.46 72.42799 0.145 7.19 5.83 7.98
7/17/2021 2:15:00 PM 22.81 73.058 0.145 7.19 5.91 7.97
7/17/2021 2:30:00 PM 23.09 73.562 0.145 7.19 5.97 7.93
7/17/2021 2:45:00 PM 23.25 73.85 0.146 7.19 6.03 7.9
7/17/2021 3:00:00 PM 23.38 74.084 0.145 7.2 5.25 7.86
7/17/2021 3:15:00 PM 23.41 74.138 0.146 7.19 5.63 7.83
7/17/2021 3:30:00 PM 23.51 74.318 0.145 7.2 5.33 7.82
7/17/2021 3:45:00 PM 23.5 74.3 0.146 7.19 5.17 7.79
7/17/2021 4:00:00 PM 23.5 74.3 0.146 7.19 5.25 7.78
7/17/2021 4:15:00 PM 23.53 74.354 0.146 7.19 5.17 7.75
7/17/2021 4:30:00 PM 23.44 74.192 0.146 7.19 5.94 7.75
7/17/2021 4:45:00 PM 23.5 74.3 0.145 7.19 4.84 7.74
7/17/2021 5:00:00 PM 23.44 74.192 0.146 7.19 4.88 7.73
7/17/2021 5:15:00 PM 23.31 73.958 0.146 7.18 6.17 7.69
7/17/2021 5:30:00 PM 23.22 73.796 0.145 7.18 5.67 7.65
7/17/2021 5:45:00 PM 23.11 73.598 0.146 7.16 5.47 7.61
7/17/2021 6:00:00 PM 23 73.4 0.146 7.16 5.63 7.59
7/17/2021 6:15:00 PM 22.92 73.256 0.146 7.16 6.59 7.59
7/17/2021 6:30:00 PM 22.77 72.986 0.144 7.16 7.74 7.6
7/17/2021 6:45:00 PM 22.66 72.788 0.144 7.16 6.57 7.58
7/17/2021 7:00:00 PM 22.56 72.608 0.144 7.15 6.59 7.55
7/17/2021 7:15:00 PM 22.45 72.41 0.144 7.14 6.6 7.55
7/17/2021 7:30:00 PM 22.36 72.248 0.144 7.14 7.36 7.55
7/17/2021 7:45:00 PM 22.28 72.104 0.144 7.13 6.04 7.55
7/17/2021 8:00:00 PM 22.21 71.978 0.144 7.13 5.9 7.55
7/17/2021 8:15:00 PM 22.14 71.852 0.146 7.12 6.13 7.54
7/17/2021 8:30:00 PM 22.08 71.744 0.146 7.12 6.59 7.55
7/17/2021 8:45:00 PM 22 71.6 0.148 7.11 18.16 7.54
7/17/2021 9:00:00 PM 21.95 71.51 0.15 7.13 8.19 7.58
7/17/2021 9:15:00 PM 21.88 71.384 0.152 7.15 15.81 7.63
7/17/2021 9:30:00 PM 21.8 71.24 0.153 7.16 30.05 7.67
7/17/2021 9:45:00 PM 21.73 71.114 0.153 7.17 22.87 7.71
7/17/2021 10:00:00 PM 21.65 70.97 0.15 7.18 24.55 7.75
7/17/2021 10:15:00 PM 21.59 70.862 0.148 7.19 27.73 7.78
7/17/2021 10:30:00 PM 21.53 70.754 0.147 7.19 30.2 7.81
7/17/2021 10:45:00 PM 21.46 70.628 0.147 7.19 23.21 7.84
7/17/2021 11:00:00 PM 21.4 70.52 0.147 7.2 27.32 7.87
7/17/2021 11:15:00 PM 21.34 70.412 0.147 7.2 24.38 7.89
7/17/2021 11:30:00 PM 21.3 70.34 0.146 7.2 21.62 7.91
7/17/2021 11:45:00 PM 21.27 70.286 0.145 7.21 23.45 7.94
7/18/2021 12:00:00 AM 21.26 70.268 0.143 7.24 34.07 8.05
7/18/2021 12:15:00 AM 21.28 70.304 0.139 7.27 34.25 8.12
7/18/2021 12:30:00 AM 21.28 70.304 0.136 7.27 34.61 8.15
7/18/2021 12:45:00 AM 21.28 70.304 0.133 7.27 38.45 8.15
7/18/2021 1:00:00 AM 21.27 70.286 0.133 7.26 38.6 8.15
7/18/2021 1:15:00 AM 21.25 70.25 0.132 7.25 46.19 8.15
7/18/2021 1:30:00 AM 21.24 70.232 0.131 7.24 58.66 8.15
7/18/2021 1:45:00 AM 21.22 70.196 0.129 7.24 63.54 8.14
7/18/2021 2:00:00 AM 21.18 70.124 0.128 7.22 81.16 8.14
7/18/2021 2:15:00 AM 21.13 70.034 0.127 7.22 42.73 8.15
7/18/2021 2:30:00 AM 21.08 69.944 0.126 7.21 49.38 8.14
7/18/2021 2:45:00 AM 21.02 69.836 0.125 7.2 122.09 8.15
7/18/2021 3:00:00 AM 20.97 69.746 0.123 7.19 118.77 8.15
7/18/2021 3:15:00 AM 20.9 69.62 0.122 7.18 114.74 8.15
7/18/2021 3:30:00 AM 20.83 69.494 0.12 7.17 99.01 8.15
7/18/2021 3:45:00 AM 20.77 69.386 0.12 7.17 108.35 8.15
7/18/2021 4:00:00 AM 20.71 69.278 0.119 7.16 78.74 8.16
7/18/2021 4:15:00 AM 20.66 69.188 0.119 7.17 77.15 8.17
7/18/2021 4:30:00 AM 20.63 69.134 0.119 7.16 82.09 8.17
7/18/2021 4:45:00 AM 20.6 69.08 0.119 7.15 63.39 8.17
7/18/2021 5:00:00 AM 20.58 69.044 0.119 7.15 61.62 8.16
7/18/2021 5:15:00 AM 20.56 69.008 0.119 7.16 54.88 8.16
7/18/2021 5:30:00 AM 20.53 68.954 0.12 7.16 63.96 8.16
7/18/2021 5:45:00 AM 20.5 68.9 0.12 7.16 46.51 8.16
7/18/2021 6:00:00 AM 20.47 68.846 0.12 7.16 56.05 8.17
7/18/2021 6:15:00 AM 20.44 68.792 0.12 7.16 29.84 8.17
7/18/2021 6:30:00 AM 20.42 68.756 0.121 7.16 27.89 8.17
7/18/2021 6:45:00 AM 20.4 68.72 0.121 7.16 30.07 8.18
7/18/2021 7:00:00 AM 20.39 68.702 0.121 7.17 34.21 8.19
7/18/2021 7:15:00 AM 20.37 68.666 0.122 7.17 28.46 8.2
7/18/2021 7:30:00 AM 20.37 68.666 0.122 7.17 30.53 8.21
7/18/2021 7:45:00 AM 20.38 68.684 0.122 7.18 21.83 8.23
7/18/2021 8:00:00 AM 20.38 68.684 0.123 7.18 27.93 8.24
7/18/2021 8:15:00 AM 20.39 68.702 0.123 7.18 22.23 8.26
7/18/2021 8:30:00 AM 20.39 68.702 0.123 7.19 23.57 8.26
7/18/2021 8:45:00 AM 20.39 68.702 0.124 7.19 19.51 8.26
7/18/2021 9:00:00 AM 20.4 68.72 0.124 7.19 15.2 8.27
7/18/2021 9:15:00 AM 20.41 68.738 0.124 7.2 19.06 8.29
7/18/2021 9:30:00 AM 20.43 68.774 0.125 7.2 17.81 8.3
7/18/2021 9:45:00 AM 20.43 68.774 0.125 7.2 19.16 8.3
7/18/2021 10:00:00 AM 20.44 68.792 0.125 7.2 17.76 8.31
7/18/2021 10:15:00 AM 20.47 68.846 0.125 7.21 16.96 8.33
7/18/2021 10:30:00 AM 20.51 68.918 0.126 7.22 16.93 8.36
7/18/2021 10:45:00 AM 20.56 69.008 0.126 7.22 15.23 8.38
7/18/2021 11:00:00 AM 20.61 69.098 0.126 7.23 15.54 8.4
7/18/2021 11:15:00 AM 20.64 69.152 0.127 7.23 14.51 8.41
7/18/2021 11:30:00 AM 20.63 69.134 0.127 7.23 14.64 8.4
7/18/2021 11:45:00 AM 20.65 69.17 0.126 7.24 14.19 8.4
7/18/2021 12:00:00 PM 20.67 69.206 0.126 7.24 13.95 8.42
7/18/2021 12:15:00 PM 20.72 69.296 0.126 7.25 14.38 8.43
7/18/2021 12:30:00 PM 20.75 69.35 0.126 7.25 14.25 8.45
7/18/2021 12:45:00 PM 20.76 69.368 0.127 7.25 14.29 8.44
7/18/2021 1:00:00 PM 20.76 69.368 0.126 7.25 14.73 8.43
7/18/2021 1:15:00 PM 20.74 69.332 0.126 7.25 14.71 8.41
7/18/2021 1:30:00 PM 20.73 69.314 0.126 7.25 14.39 8.42
7/18/2021 1:45:00 PM 20.72 69.296 0.126 7.26 14.92 8.43
7/18/2021 2:00:00 PM 20.73 69.314 0.126 7.26 14.73 8.46
7/18/2021 2:15:00 PM 20.76 69.368 0.126 7.27 15.09 8.47
7/18/2021 2:30:00 PM 20.77 69.386 0.126 7.27 15.9 8.49
7/18/2021 2:45:00 PM 20.78 69.404 0.126 7.28 15.12 8.49
7/18/2021 3:00:00 PM 20.77 69.386 0.126 7.27 15.51 8.47
7/18/2021 3:15:00 PM 20.77 69.386 0.126 7.28 14.79 8.47
7/18/2021 3:30:00 PM 20.75 69.35 0.126 7.28 14.94 8.47
7/18/2021 3:45:00 PM 20.71 69.278 0.126 7.28 16.61 8.45
7/18/2021 4:00:00 PM 20.66 69.188 0.127 7.27 17.41 8.42
7/18/2021 4:15:00 PM 20.62 69.116 0.127 7.27 17.03 8.4
7/18/2021 4:30:00 PM 20.59 69.062 0.128 7.27 17.91 8.41
7/18/2021 4:45:00 PM 20.57 69.026 0.128 7.27 18.23 8.43
7/18/2021 5:00:00 PM 20.54 68.972 0.128 7.28 17 8.44
7/18/2021 5:15:00 PM 20.5 68.9 0.128 7.27 18.3 8.44
7/18/2021 5:30:00 PM 20.47 68.846 0.129 7.27 18.54 8.43
7/18/2021 5:45:00 PM 20.44 68.792 0.129 7.27 17.56 8.44
7/18/2021 6:00:00 PM 20.41 68.738 0.129 7.27 17.65 8.44
7/18/2021 6:15:00 PM 20.38 68.684 0.129 7.27 17.48 8.44
7/18/2021 6:30:00 PM 20.35 68.63 0.129 7.27 17.9 8.42
7/18/2021 6:45:00 PM 20.32 68.576 0.129 7.26 18.03 8.43
7/18/2021 7:00:00 PM 20.3 68.54 0.129 7.26 17.03 8.43
7/18/2021 7:15:00 PM 20.28 68.504 0.128 7.26 15.84 8.43
7/18/2021 7:30:00 PM 20.26 68.468 0.128 7.26 15.48 8.41
7/18/2021 7:45:00 PM 20.23 68.414 0.128 7.26 17.53 8.4
7/18/2021 8:00:00 PM 20.19 68.342 0.128 7.25 18 8.38
7/18/2021 8:15:00 PM 20.14 68.252 0.128 7.24 16.16 8.36
7/18/2021 8:30:00 PM 20.1 68.18 0.127 7.23 15.68 8.34
7/18/2021 8:45:00 PM 20.05 68.09 0.127 7.23 15.29 8.32
7/18/2021 9:00:00 PM 20 68 0.127 7.22 16.03 8.31
7/18/2021 9:15:00 PM 19.96 67.92799 0.127 7.22 15.99 8.3
7/18/2021 9:30:00 PM 19.92 67.856 0.127 7.21 14.61 8.3
7/18/2021 9:45:00 PM 19.88 67.784 0.127 7.21 15.08 8.3
7/18/2021 10:00:00 PM 19.84 67.712 0.127 7.21 16.25 8.29
7/18/2021 10:15:00 PM 19.79 67.622 0.127 7.2 15.37 8.29
7/18/2021 10:30:00 PM 19.74 67.532 0.127 7.2 15.53 8.3
7/18/2021 10:45:00 PM 19.68 67.424 0.127 7.19 15.18 8.3
7/18/2021 11:00:00 PM 19.62 67.316 0.126 7.19 15.1 8.3
7/18/2021 11:15:00 PM 19.57 67.226 0.126 7.19 14.6 8.31
7/18/2021 11:30:00 PM 19.51 67.118 0.126 7.19 14.96 8.31
7/18/2021 11:45:00 PM 19.46 67.028 0.126 7.19 15.06 8.32
7/19/2021 12:00:00 AM 19.4 66.92 0.126 7.18 14.24 8.32
7/19/2021 12:15:00 AM 19.35 66.83 0.126 7.18 14.33 8.33
7/19/2021 12:30:00 AM 19.29 66.722 0.126 7.18 14.35 8.34
7/19/2021 12:45:00 AM 19.24 66.632 0.128 7.18 14.69 8.35
7/19/2021 1:00:00 AM 19.19 66.542 0.128 7.18 13.5 8.35
7/19/2021 1:15:00 AM 19.14 66.452 0.128 7.17 14.91 8.35
7/19/2021 1:30:00 AM 19.09 66.362 0.128 7.17 12.97 8.36
7/19/2021 1:45:00 AM 19.05 66.29 0.128 7.17 13.3 8.36
7/19/2021 2:00:00 AM 19 66.2 0.128 7.17 13.2 8.37
7/19/2021 2:15:00 AM 18.96 66.128 0.128 7.16 13.5 8.38
7/19/2021 2:30:00 AM 18.92 66.056 0.128 7.15 12.74 8.38
7/19/2021 2:45:00 AM 18.89 66.002 0.129 7.15 12.14 8.39
7/19/2021 3:00:00 AM 18.85 65.93 0.129 7.15 12.28 8.39
7/19/2021 3:15:00 AM 18.81 65.858 0.129 7.16 11.67 8.39
7/19/2021 3:30:00 AM 18.77 65.786 0.129 7.15 11.53 8.4
7/19/2021 3:45:00 AM 18.74 65.732 0.129 7.15 12.16 8.4
7/19/2021 4:00:00 AM 18.72 65.696 0.129 7.15 12 8.4
7/19/2021 4:15:00 AM 18.69 65.642 0.13 7.15 11.49 8.4
7/19/2021 4:30:00 AM 18.66 65.588 0.13 7.15 11.35 8.41
7/19/2021 4:45:00 AM 18.62 65.516 0.13 7.15 11.36 8.42
7/19/2021 5:00:00 AM 18.6 65.48 0.133 7.15 11.56 8.42
7/19/2021 5:15:00 AM 18.57 65.426 0.132 7.15 11.82 8.42
7/19/2021 5:30:00 AM 18.54 65.372 0.131 7.15 10.9 8.42
7/19/2021 5:45:00 AM 18.51 65.318 0.132 7.15 10.85 8.42
7/19/2021 6:00:00 AM 18.47 65.246 0.134 7.15 10.37 8.43
7/19/2021 6:15:00 AM 18.44 65.192 0.133 7.15 10.44 8.45
7/19/2021 6:30:00 AM 18.41 65.138 0.133 7.15 9.88 8.47
7/19/2021 6:45:00 AM 18.4 65.12 0.133 7.15 10.52 8.49
7/19/2021 7:00:00 AM 18.39 65.102 0.133 7.16 9.04 8.53
7/19/2021 7:15:00 AM 18.39 65.102 0.132 7.17 9.57 8.58
7/19/2021 7:30:00 AM 18.4 65.12 0.132 7.17 9.52 8.63
7/19/2021 7:45:00 AM 18.43 65.174 0.132 7.18 9.47 8.65
7/19/2021 8:00:00 AM 18.45 65.21 0.133 7.19 9.84 8.68
7/19/2021 8:15:00 AM 18.49 65.282 0.133 7.2 8.98 8.72
7/19/2021 8:30:00 AM 18.54 65.372 0.132 7.21 9.55 8.75
7/19/2021 8:45:00 AM 18.61 65.498 0.132 7.21 9.2 8.78
7/19/2021 9:00:00 AM 18.73 65.714 0.132 7.22 9.48 8.81
7/19/2021 9:15:00 AM 18.85 65.93 0.132 7.23 8.34 8.82
7/19/2021 9:30:00 AM 19 66.2 0.132 7.24 9.82 8.83
7/19/2021 9:45:00 AM 19.15 66.47 0.132 7.25 8.74 8.83
7/19/2021 10:00:00 AM 19.31 66.758 0.131 7.25 8.89 8.83
7/19/2021 10:15:00 AM 19.48 67.064 0.131 7.26 7.67 8.83
7/19/2021 10:30:00 AM 19.66 67.388 0.131 7.26 8.19 8.83
7/19/2021 10:45:00 AM 19.83 67.694 0.131 7.27 7.81 8.82
7/19/2021 11:00:00 AM 20.02 68.036 0.131 7.28 7.83 8.8
7/19/2021 11:15:00 AM 20.23 68.414 0.131 7.28 7.81 8.79
7/19/2021 11:30:00 AM 20.46 68.828 0.131 7.28 7.59 8.77
7/19/2021 11:45:00 AM 20.66 69.188 0.131 7.29 7.94 8.75
7/19/2021 12:00:00 PM 20.9 69.62 0.13 7.3 7.06 8.73
7/19/2021 12:15:00 PM 21.08 69.944 0.13 7.3 7 8.71
7/19/2021 12:30:00 PM 21.3 70.34 0.13 7.31 7.51 8.68
7/19/2021 12:45:00 PM 21.39 70.502 0.13 7.31 6.98 8.65
7/19/2021 1:00:00 PM 21.62 70.916 0.13 7.31 6.2 8.63
7/19/2021 1:15:00 PM 21.89 71.402 0.13 7.31 6.93 8.6
7/19/2021 1:30:00 PM 22.08 71.744 0.13 7.32 6.67 8.57
7/19/2021 1:45:00 PM 22.33 72.194 0.129 7.33 7.12 8.55
7/19/2021 2:00:00 PM 22.5 72.5 0.129 7.33 6.48 8.53
7/19/2021 2:15:00 PM 22.65 72.77 0.129 7.33 6.47 8.5
7/19/2021 2:30:00 PM 22.78 73.004 0.129 7.33 6.54 8.48
7/19/2021 2:45:00 PM 22.88 73.184 0.129 7.33 6.59 8.46
7/19/2021 3:00:00 PM 23 73.4 0.129 7.34 6.02 8.44
7/19/2021 3:15:00 PM 23.11 73.598 0.129 7.34 6.21 8.42
7/19/2021 3:30:00 PM 23.15 73.67 0.128 7.33 5.84 8.4
7/19/2021 3:45:00 PM 23.17 73.706 0.128 7.33 6.37 8.38
7/19/2021 4:00:00 PM 23.19 73.742 0.128 7.33 6.08 8.37
7/19/2021 4:15:00 PM 23.21 73.778 0.128 7.33 5.74 8.36
7/19/2021 4:30:00 PM 23.2 73.76 0.128 7.33 5.87 8.35
7/19/2021 4:45:00 PM 23.19 73.742 0.128 7.33 6.14 8.33
7/19/2021 5:00:00 PM 23.15 73.67 0.128 7.32 6.12 8.31
7/19/2021 5:15:00 PM 23.11 73.598 0.128 7.32 6.1 8.29
7/19/2021 5:30:00 PM 23.04 73.472 0.127 7.32 5.16 8.27
7/19/2021 5:45:00 PM 22.96 73.328 0.128 7.31 5.9 8.25
7/19/2021 6:00:00 PM 22.86 73.148 0.128 7.3 5.55 8.23
7/19/2021 6:15:00 PM 22.77 72.986 0.127 7.29 5.46 8.21
7/19/2021 6:30:00 PM 22.68 72.824 0.127 7.29 5.39 8.18
7/19/2021 6:45:00 PM 22.59 72.662 0.128 7.27 5.58 8.14
7/19/2021 7:00:00 PM 22.49 72.482 0.128 7.26 5.25 8.11
7/19/2021 7:15:00 PM 22.4 72.32 0.128 7.25 5.16 8.06
7/19/2021 7:30:00 PM 22.31 72.158 0.128 7.23 5.42 8.02
7/19/2021 7:45:00 PM 22.22 71.996 0.127 7.22 5.54 7.97
7/19/2021 8:00:00 PM 22.14 71.852 0.127 7.21 5.65 7.92
7/19/2021 8:15:00 PM 22.04 71.672 0.128 7.2 5.58 7.86
7/19/2021 8:30:00 PM 21.96 71.528 0.128 7.18 5.42 7.81
7/19/2021 8:45:00 PM 21.87 71.366 0.128 7.17 5.66 7.76
7/19/2021 9:00:00 PM 21.79 71.222 0.128 7.16 5.5 7.73
7/19/2021 9:15:00 PM 21.72 71.096 0.128 7.15 5.27 7.71
7/19/2021 9:30:00 PM 21.65 70.97 0.128 7.15 5.56 7.69
7/19/2021 9:45:00 PM 21.59 70.862 0.129 7.14 5.25 7.69
7/19/2021 10:00:00 PM 21.52 70.736 0.129 7.14 5.58 7.68
7/19/2021 10:15:00 PM 21.47 70.646 0.129 7.14 5.19 7.69
7/19/2021 10:30:00 PM 21.4 70.52 0.129 7.13 5.37 7.68
7/19/2021 10:45:00 PM 21.34 70.412 0.129 7.13 4.86 7.69
7/19/2021 11:00:00 PM 21.28 70.304 0.129 7.13 5.01 7.67
7/19/2021 11:15:00 PM 21.21 70.17799 0.129 7.12 4.81 7.69
7/19/2021 11:30:00 PM 21.15 70.07 0.13 7.12 4.66 7.69
7/19/2021 11:45:00 PM 21.08 69.944 0.13 7.12 5.01 7.7
7/20/2021 12:00:00 AM 21.02 69.836 0.13 7.12 4.69 7.7
7/20/2021 12:15:00 AM 20.96 69.728 0.13 7.11 4.72 7.71
7/20/2021 12:30:00 AM 20.91 69.638 0.13 7.12 5.1 7.71
7/20/2021 12:45:00 AM 20.85 69.53 0.13 7.11 4.57 7.72
7/20/2021 1:00:00 AM 20.8 69.44 0.131 7.11 4.88 7.72
7/20/2021 1:15:00 AM 20.74 69.332 0.131 7.11 4.75 7.73
7/20/2021 1:30:00 AM 20.69 69.242 0.131 7.11 4.81 7.74
7/20/2021 1:45:00 AM 20.65 69.17 0.131 7.11 4.92 7.74
7/20/2021 2:00:00 AM 20.6 69.08 0.131 7.11 4.7 7.75
7/20/2021 2:15:00 AM 20.53 68.954 0.131 7.11 4.79 7.76
7/20/2021 2:30:00 AM 20.48 68.864 0.131 7.11 4.28 7.76
7/20/2021 2:45:00 AM 20.44 68.792 0.132 7.11 4.44 7.76
7/20/2021 3:00:00 AM 20.39 68.702 0.132 7.1 4.89 7.77
7/20/2021 3:15:00 AM 20.34 68.612 0.132 7.1 4.61 7.78
7/20/2021 3:30:00 AM 20.29 68.522 0.132 7.11 4.63 7.79
7/20/2021 3:45:00 AM 20.24 68.432 0.132 7.1 4.57 7.78
7/20/2021 4:00:00 AM 20.2 68.36 0.132 7.1 4.11 7.8
7/20/2021 4:15:00 AM 20.15 68.27 0.132 7.1 4.64 7.81
7/20/2021 4:30:00 AM 20.11 68.198 0.132 7.1 4.16 7.81
7/20/2021 4:45:00 AM 20.06 68.108 0.133 7.1 4.1 7.82
7/20/2021 5:00:00 AM 20.02 68.036 0.133 7.11 4.66 7.82
7/20/2021 5:15:00 AM 19.97 67.946 0.133 7.1 3.98 7.83
7/20/2021 5:30:00 AM 19.92 67.856 0.133 7.1 4.38 7.84
7/20/2021 5:45:00 AM 19.88 67.784 0.133 7.1 4.03 7.85
7/20/2021 6:00:00 AM 19.84 67.712 0.133 7.1 4.3 7.85
7/20/2021 6:15:00 AM 19.8 67.64 0.133 7.1 4.56 7.87
7/20/2021 6:30:00 AM 19.78 67.604 0.133 7.11 4.39 7.9
7/20/2021 6:45:00 AM 19.75 67.55 0.133 7.11 4.06 7.94
7/20/2021 7:00:00 AM 19.73 67.514 0.133 7.12 4.37 7.98
7/20/2021 7:15:00 AM 19.72 67.496 0.134 7.12 3.65 8.04
7/20/2021 7:30:00 AM 19.71 67.478 0.134 7.13 4.03 8.12
7/20/2021 7:45:00 AM 19.72 67.496 0.134 7.14 4.1 8.19
7/20/2021 8:00:00 AM 19.73 67.514 0.134 7.15 3.83 8.27
7/20/2021 8:15:00 AM 19.76 67.568 0.134 7.16 3.76 8.33
7/20/2021 8:30:00 AM 19.79 67.622 0.134 7.17 3.45 8.39
7/20/2021 8:45:00 AM 19.82 67.676 0.134 7.18 3.62 8.43
7/20/2021 9:00:00 AM 19.85 67.73 0.134 7.18 3.66 8.44
7/20/2021 9:15:00 AM 19.9 67.82 0.134 7.19 3.58 8.48
7/20/2021 9:30:00 AM 19.98 67.964 0.134 7.2 3.7 8.54
7/20/2021 9:45:00 AM 20.05 68.09 0.134 7.21 3.81 8.6
7/20/2021 10:00:00 AM 20.16 68.288 0.134 7.22 3.55 8.66
7/20/2021 10:15:00 AM 20.28 68.504 0.134 7.24 3.1 8.7
7/20/2021 10:30:00 AM 20.43 68.774 0.134 7.25 3.35 8.73
7/20/2021 10:45:00 AM 20.62 69.116 0.134 7.26 3.26 8.75
7/20/2021 11:00:00 AM 20.8 69.44 0.134 7.27 3.28 8.77
7/20/2021 11:15:00 AM 20.97 69.746 0.134 7.28 3.15 8.77
7/20/2021 11:30:00 AM 21.16 70.088 0.134 7.29 3.04 8.77
7/20/2021 11:45:00 AM 21.37 70.466 0.134 7.29 3.21 8.77
7/20/2021 12:00:00 PM 21.59 70.862 0.134 7.3 2.87 8.77
7/20/2021 12:15:00 PM 21.77 71.186 0.134 7.31 2.83 8.76
7/20/2021 12:30:00 PM 21.98 71.564 0.134 7.32 2.81 8.75
7/20/2021 12:45:00 PM 22.15 71.87 0.135 7.32 3.1 8.73
7/20/2021 1:00:00 PM 22.3 72.14 0.135 7.33 2.4 8.73
7/20/2021 1:15:00 PM 22.42 72.356 0.135 7.33 2.86 8.71
7/20/2021 1:30:00 PM 22.6 72.68 0.135 7.33 2.8 8.7
7/20/2021 1:45:00 PM 22.78 73.004 0.135 7.34 2.51 8.68
7/20/2021 2:00:00 PM 22.94 73.292 0.135 7.34 2.91 8.65
7/20/2021 2:15:00 PM 23.08 73.544 0.135 7.35 2.84 8.63
7/20/2021 2:30:00 PM 23.24 73.832 0.135 7.35 2.8 8.61
7/20/2021 2:45:00 PM 23.36 74.048 0.135 7.35 2.66 8.59
7/20/2021 3:00:00 PM 23.46 74.228 0.135 7.35 2.81 8.58
7/20/2021 3:15:00 PM 23.51 74.318 0.135 7.35 2.48 8.56
7/20/2021 3:30:00 PM 23.52 74.336 0.135 7.35 2.73 8.53
7/20/2021 3:45:00 PM 23.56 74.408 0.135 7.35 2.97 8.52
7/20/2021 4:00:00 PM 23.6 74.48 0.135 7.35 2.73 8.5
7/20/2021 4:15:00 PM 23.66 74.588 0.135 7.34 2.43 8.48
7/20/2021 4:30:00 PM 23.67 74.606 0.135 7.34 2.71 8.46
7/20/2021 4:45:00 PM 23.66 74.588 0.135 7.34 2.67 8.43
7/20/2021 5:00:00 PM 23.63 74.534 0.135 7.34 2.61 8.41
7/20/2021 5:15:00 PM 23.59 74.462 0.135 7.33 2.78 8.38
7/20/2021 5:30:00 PM 23.53 74.354 0.135 7.33 2.62 8.36
7/20/2021 5:45:00 PM 23.43 74.174 0.136 7.32 2.89 8.31
7/20/2021 6:00:00 PM 23.27 73.886 0.136 7.3 2.91 8.24
7/20/2021 6:15:00 PM 23.17 73.706 0.136 7.29 2.7 8.19
7/20/2021 6:30:00 PM 23.08 73.544 0.136 7.28 2.71 8.15
7/20/2021 6:45:00 PM 22.96 73.328 0.136 7.26 2.37 8.09
7/20/2021 7:00:00 PM 22.86 73.148 0.136 7.25 2.5 8.03
7/20/2021 7:15:00 PM 22.78 73.004 0.136 7.23 2.55 7.98
7/20/2021 7:30:00 PM 22.67 72.806 0.136 7.22 2.95 7.93
7/20/2021 7:45:00 PM 22.59 72.662 0.137 7.21 2.83 7.86
7/20/2021 8:00:00 PM 22.49 72.482 0.137 7.19 2.77 7.78
7/20/2021 8:15:00 PM 22.39 72.302 0.137 7.17 3.81 7.69
7/20/2021 8:30:00 PM 22.3 72.14 0.137 7.16 2.84 7.62
7/20/2021 8:45:00 PM 22.21 71.978 0.137 7.15 2.63 7.55
7/20/2021 9:00:00 PM 22.14 71.852 0.138 7.13 2.82 7.5
7/20/2021 9:15:00 PM 22.05 71.69 0.138 7.13 2.83 7.48
7/20/2021 9:30:00 PM 21.76 71.168 0.131 7.16 15.32 7.67
7/20/2021 9:45:00 PM 21.69 71.042 0.132 7.14 11.08 7.6
7/20/2021 10:00:00 PM 21.61 70.898 0.133 7.13 8.04 7.54
7/20/2021 10:15:00 PM 21.54 70.772 0.131 7.12 9.86 7.54
7/20/2021 10:30:00 PM 21.49 70.682 0.132 7.12 9.16 7.53
7/20/2021 10:45:00 PM 21.34 70.412 0.137 7.1 16.05 7.51
7/20/2021 11:00:00 PM 21.1 69.98 0.148 7.1 34.85 7.55
7/20/2021 11:15:00 PM 21.08 69.944 0.137 7.12 57.85 7.61
7/20/2021 11:30:00 PM 21.13 70.034 0.13 7.16 57.26 7.72
7/20/2021 11:45:00 PM 21.04 69.872 0.131 7.18 88.62 7.82
7/21/2021 12:00:00 AM 20.86 69.548 0.136 7.18 62.72 7.86
7/21/2021 12:15:00 AM 20.77 69.386 0.135 7.21 107.42 7.92
7/21/2021 12:30:00 AM 20.95 69.71 0.125 7.31 126.6 8.19
7/21/2021 12:45:00 AM 20.93 69.674 0.117 7.33 241.99 8.34
7/21/2021 1:00:00 AM 20.55 68.99 0.12 7.32 540.16 8.48
7/21/2021 1:15:00 AM 20.15 68.27 0.112 7.3 786.92 8.58
7/21/2021 1:30:00 AM 20 68 0.106 7.29 825.03 8.62
7/21/2021 1:45:00 AM 19.9 67.82 0.103 7.27 745.95 8.65
7/21/2021 2:00:00 AM 19.82 67.676 0.102 7.24 732.38 8.66
7/21/2021 2:15:00 AM 19.77 67.586 0.101 7.23 663.13 8.67
7/21/2021 2:30:00 AM 19.72 67.496 0.099 7.22 557.13 8.68
7/21/2021 2:45:00 AM 19.66 67.388 0.098 7.21 532.51 8.68
7/21/2021 3:00:00 AM 19.61 67.298 0.097 7.2 481.94 8.69
7/21/2021 3:15:00 AM 19.55 67.19 0.097 7.19 400.4 8.69
7/21/2021 3:30:00 AM 19.48 67.064 0.096 7.19 403.03 8.7
7/21/2021 3:45:00 AM 19.4 66.92 0.096 7.18 357.14 8.7
7/21/2021 4:00:00 AM 19.33 66.794 0.096 7.17 309.43 8.7
7/21/2021 4:15:00 AM 19.26 66.668 0.097 7.17 236.13 8.71
7/21/2021 4:30:00 AM 19.2 66.56 0.097 7.17 344.72 8.71
7/21/2021 4:45:00 AM 19.15 66.47 0.098 7.15 208.05 8.7
7/21/2021 5:00:00 AM 19.11 66.398 0.098 7.16 200.27 8.7
7/21/2021 5:15:00 AM 19.06 66.308 0.098 7.16 217.04 8.7
7/21/2021 5:30:00 AM 19.03 66.254 0.099 7.15 184.42 8.69
7/21/2021 5:45:00 AM 19 66.2 0.1 7.15 154.12 8.69
7/21/2021 6:00:00 AM 18.97 66.146 0.1 7.15 131.38 8.68
7/21/2021 6:15:00 AM 18.96 66.128 0.101 7.15 125.31 8.68
7/21/2021 6:30:00 AM 18.94 66.092 0.101 7.16 106.49 8.67
7/21/2021 6:45:00 AM 18.93 66.074 0.102 7.15 148.32 8.67
7/21/2021 7:00:00 AM 18.93 66.074 0.102 7.15 101.35 8.67
7/21/2021 7:15:00 AM 18.93 66.074 0.103 7.16 80.74 8.66
7/21/2021 7:30:00 AM 18.93 66.074 0.103 7.16 80.79 8.66
7/21/2021 7:45:00 AM 18.94 66.092 0.104 7.16 89.99 8.66
7/21/2021 8:00:00 AM 18.94 66.092 0.105 7.16 69.07 8.65
7/21/2021 8:15:00 AM 18.94 66.092 0.106 7.16 77.55 8.65
7/21/2021 8:30:00 AM 18.94 66.092 0.106 7.17 91.52 8.65
7/21/2021 8:45:00 AM 18.95 66.11 0.106 7.17 55.71 8.65
7/21/2021 9:00:00 AM 18.97 66.146 0.107 7.17 67.61 8.65
7/21/2021 9:15:00 AM 18.98 66.164 0.108 7.17 79.03 8.65
7/21/2021 9:30:00 AM 19.01 66.218 0.108 7.18 65.56 8.65
7/21/2021 9:45:00 AM 19.03 66.254 0.108 7.18 44.51 8.65
7/21/2021 10:00:00 AM 19.06 66.308 0.109 7.18 47.04 8.65
7/21/2021 10:15:00 AM 19.11 66.398 0.11 7.18 63.41 8.66
7/21/2021 10:30:00 AM 19.12 66.416 0.11 7.18 53.14 8.65
7/21/2021 10:45:00 AM 19.13 66.434 0.111 7.19 38.7 8.64
7/21/2021 11:00:00 AM 19.19 66.542 0.112 7.19 46.6 8.66
7/21/2021 11:15:00 AM 19.27 66.686 0.111 7.2 45.95 8.67
7/21/2021 11:30:00 AM 19.34 66.812 0.112 7.2 47.86 8.67
7/21/2021 11:45:00 AM 19.47 67.046 0.112 7.21 38.2 8.68
7/21/2021 12:00:00 PM 19.54 67.172 0.113 7.21 39.12 8.67
7/21/2021 12:15:00 PM 19.6 67.28 0.113 7.22 41.21 8.67
7/21/2021 12:30:00 PM 19.69 67.442 0.114 7.22 31.78 8.68
7/21/2021 12:45:00 PM 19.83 67.694 0.113 7.23 51.38 8.67
7/21/2021 1:00:00 PM 19.88 67.784 0.113 7.24 25.61 8.67
7/21/2021 1:15:00 PM 19.87 67.766 0.113 7.23 42.52 8.65
7/21/2021 1:30:00 PM 19.97 67.946 0.113 7.24 35.68 8.65
7/21/2021 1:45:00 PM 20.05 68.09 0.114 7.24 27.62 8.64
7/21/2021 2:00:00 PM 20.13 68.234 0.114 7.25 28.05 8.65
7/21/2021 2:15:00 PM 20.13 68.234 0.114 7.24 33.29 8.61
7/21/2021 2:30:00 PM 20.2 68.36 0.115 7.24 24.19 8.62
7/21/2021 2:45:00 PM 20.23 68.414 0.115 7.25 72.6 8.61
7/21/2021 3:00:00 PM 20.23 68.414 0.115 7.25 31.19 8.61
7/21/2021 3:15:00 PM 20.28 68.504 0.115 7.26 23.92 8.61
7/21/2021 3:30:00 PM 20.26 68.468 0.116 7.25 27.83 8.6
7/21/2021 3:45:00 PM 20.33 68.594 0.116 7.25 36.17 8.6
7/21/2021 4:00:00 PM 20.42 68.756 0.116 7.26 25.78 8.59
7/21/2021 4:15:00 PM 20.47 68.846 0.117 7.26 28.69 8.59
7/21/2021 4:30:00 PM 20.45 68.81 0.118 7.26 34.43 8.57
7/21/2021 4:45:00 PM 20.45 68.81 0.117 7.25 21.07 8.55
7/21/2021 5:00:00 PM 20.46 68.828 0.117 7.25 36.25 8.54
7/21/2021 5:15:00 PM 20.52 68.936 0.118 7.26 23.26 8.55
7/21/2021 5:30:00 PM 20.53 68.954 0.12 7.26 25.68 8.54
7/21/2021 5:45:00 PM 20.5 68.9 0.12 7.25 23 8.53
7/21/2021 6:00:00 PM 20.47 68.846 0.12 7.25 34.18 8.52
7/21/2021 6:15:00 PM 20.39 68.702 0.12 7.25 21.02 8.49
7/21/2021 6:30:00 PM 20.36 68.648 0.121 7.24 25.02 8.48
7/21/2021 6:45:00 PM 20.26 68.468 0.121 7.23 20.48 8.46
7/21/2021 7:00:00 PM 20.13 68.234 0.121 7.22 23.32 8.43
7/21/2021 7:15:00 PM 20.05 68.09 0.12 7.22 25.63 8.41
7/21/2021 7:30:00 PM 19.98 67.964 0.121 7.21 19.45 8.4
7/21/2021 7:45:00 PM 19.9 67.82 0.121 7.2 22.32 8.38
7/21/2021 8:00:00 PM 19.83 67.694 0.121 7.2 23.86 8.36
7/21/2021 8:15:00 PM 19.76 67.568 0.122 7.19 20.55 8.35
7/21/2021 8:30:00 PM 19.68 67.424 0.122 7.18 26.35 8.34
7/21/2021 8:45:00 PM 19.61 67.298 0.122 7.18 19.56 8.32
7/21/2021 9:00:00 PM 19.53 67.154 0.12 7.17 21.11 8.32
7/21/2021 9:15:00 PM 19.45 67.01 0.121 7.17 23.47 8.31
7/21/2021 9:30:00 PM 19.37 66.866 0.123 7.16 23.25 8.32
7/21/2021 9:45:00 PM 19.3 66.74 0.123 7.15 20.67 8.33
7/21/2021 10:00:00 PM 19.22 66.596 0.123 7.15 23.93 8.34
7/21/2021 10:15:00 PM 19.16 66.488 0.124 7.15 19.62 8.34
7/21/2021 10:30:00 PM 19.09 66.362 0.124 7.15 17.56 8.35
7/21/2021 10:45:00 PM 19.02 66.236 0.124 7.14 19.15 8.36
7/21/2021 11:00:00 PM 18.95 66.11 0.124 7.15 13.12 8.37
7/21/2021 11:15:00 PM 18.88 65.984 0.125 7.14 19.4 8.38
7/21/2021 11:30:00 PM 18.81 65.858 0.125 7.15 19.62 8.39
7/21/2021 11:45:00 PM 18.74 65.732 0.125 7.14 17.76 8.4
7/22/2021 12:00:00 AM 18.68 65.624 0.125 7.14 18.68 8.41
7/22/2021 12:15:00 AM 18.61 65.498 0.126 7.14 16.9 8.42
7/22/2021 12:30:00 AM 18.54 65.372 0.126 7.14 16.75 8.43
7/22/2021 12:45:00 AM 18.48 65.264 0.126 7.14 17.69 8.44
7/22/2021 1:00:00 AM 18.42 65.156 0.126 7.14 16.15 8.45
7/22/2021 1:15:00 AM 18.36 65.048 0.126 7.14 16.6 8.46
7/22/2021 1:30:00 AM 18.29 64.922 0.126 7.14 15.76 8.47
7/22/2021 1:45:00 AM 18.23 64.814 0.127 7.14 15.95 8.48
7/22/2021 2:00:00 AM 18.17 64.706 0.127 7.14 15.8 8.49
7/22/2021 2:15:00 AM 18.11 64.598 0.127 7.14 14.96 8.5
7/22/2021 2:30:00 AM 18.05 64.49 0.127 7.12 14.69 8.52
7/22/2021 2:45:00 AM 18 64.4 0.127 7.12 14.72 8.53
7/22/2021 3:00:00 AM 17.95 64.31 0.127 7.12 14.91 8.54
7/22/2021 3:15:00 AM 17.91 64.238 0.127 7.12 14.67 8.55
7/22/2021 3:30:00 AM 17.86 64.148 0.127 7.12 15.1 8.55
7/22/2021 3:45:00 AM 17.82 64.076 0.127 7.12 13.49 8.57
7/22/2021 4:00:00 AM 17.77 63.986 0.128 7.12 15.27 8.57
7/22/2021 4:15:00 AM 17.72 63.896 0.128 7.12 14.56 8.58
7/22/2021 4:30:00 AM 17.64 63.752 0.128 7.12 14.13 8.6
7/22/2021 4:45:00 AM 17.57 63.626 0.128 7.11 13.74 8.61
7/22/2021 5:00:00 AM 17.5 63.5 0.128 7.12 13.76 8.62
7/22/2021 5:15:00 AM 17.43 63.374 0.128 7.12 13.75 8.64
7/22/2021 5:30:00 AM 17.38 63.284 0.128 7.12 12.68 8.65
7/22/2021 5:45:00 AM 17.35 63.23 0.129 7.12 13.59 8.66
7/22/2021 6:00:00 AM 17.31 63.158 0.129 7.12 13.12 8.67
7/22/2021 6:15:00 AM 17.27 63.086 0.129 7.12 13.02 8.69
7/22/2021 6:30:00 AM 17.24 63.032 0.129 7.12 11.04 8.71
7/22/2021 6:45:00 AM 17.22 62.996 0.129 7.13 11.16 8.74
7/22/2021 7:00:00 AM 17.2 62.96 0.129 7.14 12.21 8.78
7/22/2021 7:15:00 AM 17.19 62.942 0.129 7.14 10.66 8.82
7/22/2021 7:30:00 AM 17.18 62.924 0.129 7.15 11.22 8.86
7/22/2021 7:45:00 AM 17.21 62.978 0.129 7.16 10.33 8.9
7/22/2021 8:00:00 AM 17.24 63.032 0.129 7.17 10.67 8.94
7/22/2021 8:15:00 AM 17.27 63.086 0.129 7.18 10.64 8.99
7/22/2021 8:30:00 AM 17.32 63.176 0.129 7.19 10.06 9.01
7/22/2021 8:45:00 AM 17.39 63.302 0.129 7.2 10.05 9.05
7/22/2021 9:00:00 AM 17.49 63.482 0.129 7.2 8.68 9.07
7/22/2021 9:15:00 AM 17.59 63.662 0.129 7.21 8.63 9.09
7/22/2021 9:30:00 AM 17.69 63.842 0.129 7.22 9.44 9.1
7/22/2021 9:45:00 AM 17.77 63.986 0.129 7.23 8.53 9.1
7/22/2021 10:00:00 AM 17.9 64.22 0.129 7.23 8.6 9.11
7/22/2021 10:15:00 AM 18.05 64.49 0.13 7.24 8.31 9.11
7/22/2021 10:30:00 AM 18.22 64.796 0.13 7.25 8.57 9.11
7/22/2021 10:45:00 AM 18.4 65.12 0.13 7.26 8.11 9.1
7/22/2021 11:00:00 AM 18.61 65.498 0.131 7.26 7.61 9.09
7/22/2021 11:15:00 AM 18.82 65.876 0.131 7.27 7.94 9.08
7/22/2021 11:30:00 AM 18.99 66.182 0.131 7.28 7.72 9.06
7/22/2021 11:45:00 AM 19.07 66.326 0.131 7.28 6.89 9.02
7/22/2021 12:00:00 PM 19.23 66.614 0.131 7.28 7.25 9.02
7/22/2021 12:15:00 PM 19.44 66.992 0.131 7.29 6.3 9.01
7/22/2021 12:30:00 PM 19.66 67.388 0.131 7.3 6.94 8.99
7/22/2021 12:45:00 PM 19.88 67.784 0.131 7.3 7.43 8.98
7/22/2021 1:00:00 PM 19.93 67.874 0.131 7.3 6.52 8.93
7/22/2021 1:15:00 PM 19.91 67.838 0.131 7.3 7.09 8.9
7/22/2021 1:30:00 PM 19.9 67.82 0.131 7.3 7.01 8.89
7/22/2021 1:45:00 PM 19.99 67.982 0.131 7.3 6.61 8.89
7/22/2021 2:00:00 PM 20.08 68.144 0.132 7.31 7.05 8.87
7/22/2021 2:15:00 PM 20.22 68.396 0.131 7.31 6.24 8.88
7/22/2021 2:30:00 PM 20.33 68.594 0.131 7.32 6.45 8.87
7/22/2021 2:45:00 PM 20.44 68.792 0.131 7.32 6.15 8.85
7/22/2021 3:00:00 PM 20.49 68.882 0.131 7.32 6.52 8.83
7/22/2021 3:15:00 PM 20.58 69.044 0.131 7.32 6.39 8.82
7/22/2021 3:30:00 PM 20.67 69.206 0.131 7.32 6.89 8.79
7/22/2021 3:45:00 PM 20.75 69.35 0.131 7.32 6.34 8.79
7/22/2021 4:00:00 PM 20.84 69.512 0.131 7.32 6.24 8.78
7/22/2021 4:15:00 PM 20.8 69.44 0.132 7.31 6.18 8.74
7/22/2021 4:30:00 PM 20.79 69.422 0.132 7.31 6.58 8.71
7/22/2021 4:45:00 PM 20.8 69.44 0.132 7.31 6.38 8.71
7/22/2021 5:00:00 PM 20.76 69.368 0.132 7.3 6.01 8.69
7/22/2021 5:15:00 PM 20.71 69.278 0.132 7.3 6.19 8.67
7/22/2021 5:30:00 PM 20.73 69.314 0.132 7.3 6.39 8.68
7/22/2021 5:45:00 PM 20.68 69.224 0.132 7.29 6.72 8.66
7/22/2021 6:00:00 PM 20.61 69.098 0.133 7.29 6.33 8.64
7/22/2021 6:15:00 PM 20.53 68.954 0.133 7.28 6.21 8.61
7/22/2021 6:30:00 PM 20.39 68.702 0.133 7.27 6.42 8.56
7/22/2021 6:45:00 PM 20.29 68.522 0.133 7.26 6.25 8.55
7/22/2021 7:00:00 PM 20.22 68.396 0.133 7.25 6.55 8.53
7/22/2021 7:15:00 PM 20.14 68.252 0.133 7.25 5.93 8.51
7/22/2021 7:30:00 PM 20.04 68.07201 0.133 7.24 6.71 8.48
7/22/2021 7:45:00 PM 19.93 67.874 0.134 7.23 7.04 8.43
7/22/2021 8:00:00 PM 19.82 67.676 0.134 7.21 7.39 8.38
7/22/2021 8:15:00 PM 19.73 67.514 0.134 7.2 6.74 8.34
7/22/2021 8:30:00 PM 19.63 67.334 0.134 7.19 6.63 8.31
7/22/2021 8:45:00 PM 19.54 67.172 0.135 7.18 5.79 8.27
7/22/2021 9:00:00 PM 19.46 67.028 0.134 7.17 6 8.25
7/22/2021 9:15:00 PM 19.37 66.866 0.135 7.16 6.76 8.23
7/22/2021 9:30:00 PM 19.29 66.722 0.135 7.16 6.17 8.23
7/22/2021 9:45:00 PM 19.21 66.578 0.135 7.15 5.68 8.22
7/22/2021 10:00:00 PM 19.14 66.452 0.135 7.15 6.42 8.23
7/22/2021 10:15:00 PM 19.06 66.308 0.136 7.15 6.57 8.23
7/22/2021 10:30:00 PM 18.99 66.182 0.136 7.14 6.53 8.24
7/22/2021 10:45:00 PM 18.91 66.038 0.136 7.14 6.27 8.24
7/22/2021 11:00:00 PM 18.85 65.93 0.137 7.14 6.54 8.25
7/22/2021 11:15:00 PM 18.78 65.804 0.137 7.14 6.39 8.26
7/22/2021 11:30:00 PM 18.72 65.696 0.137 7.14 6.25 8.27
7/22/2021 11:45:00 PM 18.64 65.552 0.137 7.14 6.18 8.29
7/23/2021 12:00:00 AM 18.58 65.444 0.137 7.13 6.73 8.29
7/23/2021 12:15:00 AM 18.51 65.318 0.137 7.14 6.3 8.3
7/23/2021 12:30:00 AM 18.46 65.228 0.138 7.13 5.88 8.31
7/23/2021 12:45:00 AM 18.4 65.12 0.137 7.13 6.64 8.32
7/23/2021 1:00:00 AM 18.35 65.03 0.138 7.13 5.57 8.32
7/23/2021 1:15:00 AM 18.29 64.922 0.138 7.13 5.77 8.34
7/23/2021 1:30:00 AM 18.24 64.832 0.138 7.13 5.5 8.35
7/23/2021 1:45:00 AM 18.19 64.742 0.138 7.13 5.56 8.35
7/23/2021 2:00:00 AM 18.13 64.634 0.138 7.13 5.93 8.36
7/23/2021 2:15:00 AM 18.07 64.526 0.138 7.13 6.15 8.37
7/23/2021 2:30:00 AM 18.01 64.418 0.139 7.13 5.62 8.38
7/23/2021 2:45:00 AM 17.95 64.31 0.139 7.13 5.87 8.39
7/23/2021 3:00:00 AM 17.89 64.202 0.138 7.13 5.55 8.41
7/23/2021 3:15:00 AM 17.83 64.094 0.138 7.13 6.07 8.41
7/23/2021 3:30:00 AM 17.77 63.986 0.139 7.12 6 8.42
7/23/2021 3:45:00 AM 17.72 63.896 0.139 7.12 5.29 8.43
7/23/2021 4:00:00 AM 17.67 63.806 0.139 7.12 5.83 8.44
7/23/2021 4:15:00 AM 17.63 63.734 0.139 7.12 5.61 8.46
7/23/2021 4:30:00 AM 17.59 63.662 0.139 7.12 5.39 8.46
7/23/2021 4:45:00 AM 17.55 63.59 0.139 7.12 5.25 8.48
7/23/2021 5:00:00 AM 17.51 63.518 0.139 7.12 5.88 8.48
7/23/2021 5:15:00 AM 17.46 63.428 0.139 7.12 5.04 8.49
7/23/2021 5:30:00 AM 17.4 63.32 0.139 7.12 5.86 8.5
7/23/2021 5:45:00 AM 17.35 63.23 0.14 7.12 5.49 8.51
7/23/2021 6:00:00 AM 17.3 63.14 0.14 7.12 5.1 8.53
7/23/2021 6:15:00 AM 17.26 63.068 0.14 7.12 4.88 8.56
7/23/2021 6:30:00 AM 17.24 63.032 0.14 7.13 4.53 8.59
7/23/2021 6:45:00 AM 17.22 62.996 0.14 7.13 5 8.64
7/23/2021 7:00:00 AM 17.23 63.014 0.139 7.14 5.64 8.72
7/23/2021 7:15:00 AM 17.24 63.032 0.138 7.15 5.08 8.78
7/23/2021 7:30:00 AM 17.24 63.032 0.138 7.16 4.73 8.84
7/23/2021 7:45:00 AM 17.26 63.068 0.138 7.17 4.68 8.89
7/23/2021 8:00:00 AM 17.3 63.14 0.137 7.18 4.53 8.95
7/23/2021 8:15:00 AM 17.35 63.23 0.137 7.19 4.29 8.99
7/23/2021 8:30:00 AM 17.42 63.356 0.136 7.19 4.47 9.03
7/23/2021 8:45:00 AM 17.5 63.5 0.136 7.2 4.78 9.06
7/23/2021 9:00:00 AM 17.62 63.716 0.136 7.21 4.49 9.1
7/23/2021 9:15:00 AM 17.74 63.932 0.136 7.22 4.59 9.11
7/23/2021 9:30:00 AM 17.86 64.148 0.135 7.22 4.58 9.13
7/23/2021 9:45:00 AM 18.03 64.454 0.135 7.23 4.67 9.14
7/23/2021 10:00:00 AM 18.17 64.706 0.135 7.24 4.63 9.15